<?xml version="1.0" encoding="UTF-8" standalone="no" ?>
<gpx xmlns="http://www.topografix.com/GPX/1/1" xmlns:xsi="http://www.w3.org/2001/XMLSchema-instance" xsi:schemaLocation="http://www.topografix.com/GPX/1/1 http://www.topografix.com/GPX/1/1/gpx.xsd" version="1.1" creator="VisuGPX - https://www.visugpx.com">
  <metadata>
    <name>Parcours 41 bleu  Tour de Peyre Arse</name>
    <desc><![CDATA[Départ Col de Serre]]></desc>
  </metadata>
  <trk>
    <name><![CDATA[Parcours 41 bleu  Tour de Peyre Arse - Puy Mary Espace Trail]]></name>
    <trkseg>
      <trkpt lat="45.13048" lon="2.70239">
        <ele>1331</ele>
        <time>2000-01-01T02:09:03.000Z</time>
      </trkpt>
      <trkpt lat="45.1304" lon="2.70236">
        <ele>1331.8</ele>
        <time>2000-01-01T02:09:13.000Z</time>
      </trkpt>
      <trkpt lat="45.13037" lon="2.70236">
        <ele>1331.8</ele>
        <time>2000-01-01T02:09:23.000Z</time>
      </trkpt>
      <trkpt lat="45.13034" lon="2.70234">
        <ele>1331.9</ele>
        <time>2000-01-01T02:09:33.000Z</time>
      </trkpt>
      <trkpt lat="45.13031" lon="2.70233">
        <ele>1332</ele>
        <time>2000-01-01T02:09:43.000Z</time>
      </trkpt>
      <trkpt lat="45.13028" lon="2.70232">
        <ele>1332</ele>
        <time>2000-01-01T02:09:53.000Z</time>
      </trkpt>
      <trkpt lat="45.13025" lon="2.7023">
        <ele>1332.1</ele>
        <time>2000-01-01T02:10:03.000Z</time>
      </trkpt>
      <trkpt lat="45.13022" lon="2.70229">
        <ele>1332.3</ele>
        <time>2000-01-01T02:10:13.000Z</time>
      </trkpt>
      <trkpt lat="45.13019" lon="2.70227">
        <ele>1332.4</ele>
        <time>2000-01-01T02:10:23.000Z</time>
      </trkpt>
      <trkpt lat="45.13016" lon="2.70226">
        <ele>1332.5</ele>
        <time>2000-01-01T02:10:33.000Z</time>
      </trkpt>
      <trkpt lat="45.13012" lon="2.70224">
        <ele>1332.6</ele>
        <time>2000-01-01T02:10:43.000Z</time>
      </trkpt>
      <trkpt lat="45.13008" lon="2.70222">
        <ele>1333</ele>
        <time>2000-01-01T02:10:53.000Z</time>
      </trkpt>
      <trkpt lat="45.13005" lon="2.7022">
        <ele>1332.9</ele>
        <time>2000-01-01T02:11:03.000Z</time>
      </trkpt>
      <trkpt lat="45.13001" lon="2.70219">
        <ele>1333.1</ele>
        <time>2000-01-01T02:11:13.000Z</time>
      </trkpt>
      <trkpt lat="45.12997" lon="2.70217">
        <ele>1333.3</ele>
        <time>2000-01-01T02:11:23.000Z</time>
      </trkpt>
      <trkpt lat="45.12996" lon="2.70202">
        <ele>1334</ele>
        <time>2000-01-01T02:11:33.000Z</time>
      </trkpt>
      <trkpt lat="45.12996" lon="2.70196">
        <ele>1334.2</ele>
        <time>2000-01-01T02:11:43.000Z</time>
      </trkpt>
      <trkpt lat="45.12996" lon="2.70186">
        <ele>1335</ele>
        <time>2000-01-01T02:11:53.000Z</time>
      </trkpt>
      <trkpt lat="45.12997" lon="2.70177">
        <ele>1335.7</ele>
        <time>2000-01-01T02:12:03.000Z</time>
      </trkpt>
      <trkpt lat="45.12998" lon="2.70166">
        <ele>1336</ele>
        <time>2000-01-01T02:12:13.000Z</time>
      </trkpt>
      <trkpt lat="45.12999" lon="2.70158">
        <ele>1337.1</ele>
        <time>2000-01-01T02:12:23.000Z</time>
      </trkpt>
      <trkpt lat="45.12999" lon="2.70146">
        <ele>1338.4</ele>
        <time>2000-01-01T02:12:33.000Z</time>
      </trkpt>
      <trkpt lat="45.12999" lon="2.70137">
        <ele>1336</ele>
        <time>2000-01-01T02:12:43.000Z</time>
      </trkpt>
      <trkpt lat="45.12991" lon="2.70129">
        <ele>1340.5</ele>
        <time>2000-01-01T02:12:53.000Z</time>
      </trkpt>
      <trkpt lat="45.12989" lon="2.70129">
        <ele>1340.9</ele>
        <time>2000-01-01T02:13:03.000Z</time>
      </trkpt>
      <trkpt lat="45.12976" lon="2.70102">
        <ele>1340</ele>
        <time>2000-01-01T02:13:13.000Z</time>
      </trkpt>
      <trkpt lat="45.12949" lon="2.70072">
        <ele>1344</ele>
        <time>2000-01-01T02:13:23.000Z</time>
      </trkpt>
      <trkpt lat="45.12914" lon="2.7005">
        <ele>1347</ele>
        <time>2000-01-01T02:13:33.000Z</time>
      </trkpt>
      <trkpt lat="45.12878" lon="2.70031">
        <ele>1350</ele>
        <time>2000-01-01T02:13:43.000Z</time>
      </trkpt>
      <trkpt lat="45.12844" lon="2.70012">
        <ele>1352</ele>
        <time>2000-01-01T02:13:53.000Z</time>
      </trkpt>
      <trkpt lat="45.12816" lon="2.69994">
        <ele>1352</ele>
        <time>2000-01-01T02:14:03.000Z</time>
      </trkpt>
      <trkpt lat="45.12784" lon="2.6996">
        <ele>1353</ele>
        <time>2000-01-01T02:14:13.000Z</time>
      </trkpt>
      <trkpt lat="45.12766" lon="2.69926">
        <ele>1354</ele>
        <time>2000-01-01T02:14:23.000Z</time>
      </trkpt>
      <trkpt lat="45.12732" lon="2.69894">
        <ele>1354.5</ele>
        <time>2000-01-01T02:14:33.000Z</time>
      </trkpt>
      <trkpt lat="45.12691" lon="2.69859">
        <ele>1353.7</ele>
        <time>2000-01-01T02:14:43.000Z</time>
      </trkpt>
      <trkpt lat="45.1267" lon="2.69837">
        <ele>1353</ele>
        <time>2000-01-01T02:14:53.000Z</time>
      </trkpt>
      <trkpt lat="45.12642" lon="2.69808">
        <ele>1353</ele>
        <time>2000-01-01T02:15:03.000Z</time>
      </trkpt>
      <trkpt lat="45.12607" lon="2.69767">
        <ele>1353</ele>
        <time>2000-01-01T02:15:13.000Z</time>
      </trkpt>
      <trkpt lat="45.1259" lon="2.6974">
        <ele>1356</ele>
        <time>2000-01-01T02:15:23.000Z</time>
      </trkpt>
      <trkpt lat="45.12572" lon="2.69709">
        <ele>1358</ele>
        <time>2000-01-01T02:15:33.000Z</time>
      </trkpt>
      <trkpt lat="45.12543" lon="2.69664">
        <ele>1363</ele>
        <time>2000-01-01T02:15:43.000Z</time>
      </trkpt>
      <trkpt lat="45.12525" lon="2.69642">
        <ele>1367</ele>
        <time>2000-01-01T02:15:53.000Z</time>
      </trkpt>
      <trkpt lat="45.12505" lon="2.69619">
        <ele>1373</ele>
        <time>2000-01-01T02:16:03.000Z</time>
      </trkpt>
      <trkpt lat="45.12487" lon="2.69591">
        <ele>1378</ele>
        <time>2000-01-01T02:16:13.000Z</time>
      </trkpt>
      <trkpt lat="45.12467" lon="2.69544">
        <ele>1379</ele>
        <time>2000-01-01T02:16:23.000Z</time>
      </trkpt>
      <trkpt lat="45.12446" lon="2.69509">
        <ele>1382</ele>
        <time>2000-01-01T02:16:33.000Z</time>
      </trkpt>
      <trkpt lat="45.12413" lon="2.69479">
        <ele>1382.5</ele>
        <time>2000-01-01T02:16:43.000Z</time>
      </trkpt>
      <trkpt lat="45.12369" lon="2.6946">
        <ele>1382.2</ele>
        <time>2000-01-01T02:16:53.000Z</time>
      </trkpt>
      <trkpt lat="45.12345" lon="2.69452">
        <ele>1382</ele>
        <time>2000-01-01T02:17:03.000Z</time>
      </trkpt>
      <trkpt lat="45.12319" lon="2.69443">
        <ele>1382</ele>
        <time>2000-01-01T02:17:13.000Z</time>
      </trkpt>
      <trkpt lat="45.12281" lon="2.69432">
        <ele>1384</ele>
        <time>2000-01-01T02:17:23.000Z</time>
      </trkpt>
      <trkpt lat="45.12245" lon="2.69439">
        <ele>1384.5</ele>
        <time>2000-01-01T02:17:33.000Z</time>
      </trkpt>
      <trkpt lat="45.1221" lon="2.6943">
        <ele>1382.7</ele>
        <time>2000-01-01T02:17:43.000Z</time>
      </trkpt>
      <trkpt lat="45.12187" lon="2.69404">
        <ele>1381</ele>
        <time>2000-01-01T02:17:53.000Z</time>
      </trkpt>
      <trkpt lat="45.12166" lon="2.69368">
        <ele>1378</ele>
        <time>2000-01-01T02:18:03.000Z</time>
      </trkpt>
      <trkpt lat="45.12136" lon="2.6934">
        <ele>1377.5</ele>
        <time>2000-01-01T02:18:13.000Z</time>
      </trkpt>
      <trkpt lat="45.12107" lon="2.69331">
        <ele>1377</ele>
        <time>2000-01-01T02:18:23.000Z</time>
      </trkpt>
      <trkpt lat="45.1208" lon="2.69329">
        <ele>1377</ele>
        <time>2000-01-01T02:18:33.000Z</time>
      </trkpt>
      <trkpt lat="45.12045" lon="2.69327">
        <ele>1376</ele>
        <time>2000-01-01T02:18:43.000Z</time>
      </trkpt>
      <trkpt lat="45.12007" lon="2.69327">
        <ele>1375</ele>
        <time>2000-01-01T02:18:53.000Z</time>
      </trkpt>
      <trkpt lat="45.11975" lon="2.69316">
        <ele>1372</ele>
        <time>2000-01-01T02:19:03.000Z</time>
      </trkpt>
      <trkpt lat="45.11973" lon="2.69318">
        <ele>1371.3</ele>
        <time>2000-01-01T02:19:13.000Z</time>
      </trkpt>
      <trkpt lat="45.11948" lon="2.69308">
        <ele>1369</ele>
        <time>2000-01-01T02:19:23.000Z</time>
      </trkpt>
      <trkpt lat="45.11931" lon="2.69299">
        <ele>1370.5</ele>
        <time>2000-01-01T02:19:33.000Z</time>
      </trkpt>
      <trkpt lat="45.11915" lon="2.69289">
        <ele>1369.5</ele>
        <time>2000-01-01T02:19:43.000Z</time>
      </trkpt>
      <trkpt lat="45.11901" lon="2.69277">
        <ele>1371.7</ele>
        <time>2000-01-01T02:19:53.000Z</time>
      </trkpt>
      <trkpt lat="45.11891" lon="2.69265">
        <ele>1370</ele>
        <time>2000-01-01T02:20:03.000Z</time>
      </trkpt>
      <trkpt lat="45.11881" lon="2.69251">
        <ele>1374.2</ele>
        <time>2000-01-01T02:20:13.000Z</time>
      </trkpt>
      <trkpt lat="45.11872" lon="2.69241">
        <ele>1371</ele>
        <time>2000-01-01T02:20:23.000Z</time>
      </trkpt>
      <trkpt lat="45.11866" lon="2.69238">
        <ele>1373.9</ele>
        <time>2000-01-01T02:20:33.000Z</time>
      </trkpt>
      <trkpt lat="45.11844" lon="2.69228">
        <ele>1373</ele>
        <time>2000-01-01T02:20:43.000Z</time>
      </trkpt>
      <trkpt lat="45.11817" lon="2.69212">
        <ele>1373</ele>
        <time>2000-01-01T02:20:53.000Z</time>
      </trkpt>
      <trkpt lat="45.11794" lon="2.69195">
        <ele>1376</ele>
        <time>2000-01-01T02:21:03.000Z</time>
      </trkpt>
      <trkpt lat="45.11778" lon="2.69181">
        <ele>1376</ele>
        <time>2000-01-01T02:21:13.000Z</time>
      </trkpt>
      <trkpt lat="45.11764" lon="2.69169">
        <ele>1377.7</ele>
        <time>2000-01-01T02:21:23.000Z</time>
      </trkpt>
      <trkpt lat="45.11746" lon="2.69157">
        <ele>1377</ele>
        <time>2000-01-01T02:21:33.000Z</time>
      </trkpt>
      <trkpt lat="45.11727" lon="2.69147">
        <ele>1377</ele>
        <time>2000-01-01T02:21:43.000Z</time>
      </trkpt>
      <trkpt lat="45.11715" lon="2.69138">
        <ele>1376.9</ele>
        <time>2000-01-01T02:21:53.000Z</time>
      </trkpt>
      <trkpt lat="45.11715" lon="2.69138">
        <ele>1376.9</ele>
        <time>2000-01-01T02:22:03.000Z</time>
      </trkpt>
      <trkpt lat="45.11714" lon="2.6914">
        <ele>1377.4</ele>
        <time>2000-01-01T02:22:13.000Z</time>
      </trkpt>
      <trkpt lat="45.11714" lon="2.6914">
        <ele>1377.4</ele>
        <time>2000-01-01T02:22:23.000Z</time>
      </trkpt>
      <trkpt lat="45.11715" lon="2.69138">
        <ele>1376.9</ele>
        <time>2000-01-01T02:22:33.000Z</time>
      </trkpt>
      <trkpt lat="45.11698" lon="2.69121">
        <ele>1377</ele>
        <time>2000-01-01T02:22:43.000Z</time>
      </trkpt>
      <trkpt lat="45.11686" lon="2.69112">
        <ele>1376.5</ele>
        <time>2000-01-01T02:22:53.000Z</time>
      </trkpt>
      <trkpt lat="45.11678" lon="2.69108">
        <ele>1376.5</ele>
        <time>2000-01-01T02:23:03.000Z</time>
      </trkpt>
      <trkpt lat="45.1166" lon="2.69104">
        <ele>1376</ele>
        <time>2000-01-01T02:23:13.000Z</time>
      </trkpt>
      <trkpt lat="45.1165" lon="2.691">
        <ele>1376</ele>
        <time>2000-01-01T02:23:23.000Z</time>
      </trkpt>
      <trkpt lat="45.11643" lon="2.69095">
        <ele>1375.2</ele>
        <time>2000-01-01T02:23:33.000Z</time>
      </trkpt>
      <trkpt lat="45.11638" lon="2.69091">
        <ele>1374.9</ele>
        <time>2000-01-01T02:23:43.000Z</time>
      </trkpt>
      <trkpt lat="45.11625" lon="2.69074">
        <ele>1375</ele>
        <time>2000-01-01T02:23:53.000Z</time>
      </trkpt>
      <trkpt lat="45.11602" lon="2.6904">
        <ele>1375</ele>
        <time>2000-01-01T02:24:03.000Z</time>
      </trkpt>
      <trkpt lat="45.11584" lon="2.69017">
        <ele>1375</ele>
        <time>2000-01-01T02:24:13.000Z</time>
      </trkpt>
      <trkpt lat="45.11576" lon="2.69012">
        <ele>1375.7</ele>
        <time>2000-01-01T02:24:23.000Z</time>
      </trkpt>
      <trkpt lat="45.11564" lon="2.69007">
        <ele>1375</ele>
        <time>2000-01-01T02:24:33.000Z</time>
      </trkpt>
      <trkpt lat="45.11542" lon="2.68998">
        <ele>1376</ele>
        <time>2000-01-01T02:24:43.000Z</time>
      </trkpt>
      <trkpt lat="45.11526" lon="2.68989">
        <ele>1377.3</ele>
        <time>2000-01-01T02:24:53.000Z</time>
      </trkpt>
      <trkpt lat="45.11504" lon="2.68974">
        <ele>1377</ele>
        <time>2000-01-01T02:25:03.000Z</time>
      </trkpt>
      <trkpt lat="45.11494" lon="2.68965">
        <ele>1379.2</ele>
        <time>2000-01-01T02:25:13.000Z</time>
      </trkpt>
      <trkpt lat="45.1149" lon="2.68959">
        <ele>1379.2</ele>
        <time>2000-01-01T02:25:23.000Z</time>
      </trkpt>
      <trkpt lat="45.11485" lon="2.68952">
        <ele>1378</ele>
        <time>2000-01-01T02:25:33.000Z</time>
      </trkpt>
      <trkpt lat="45.11475" lon="2.68942">
        <ele>1379.3</ele>
        <time>2000-01-01T02:25:43.000Z</time>
      </trkpt>
      <trkpt lat="45.11455" lon="2.68923">
        <ele>1379</ele>
        <time>2000-01-01T02:25:53.000Z</time>
      </trkpt>
      <trkpt lat="45.11422" lon="2.68898">
        <ele>1380</ele>
        <time>2000-01-01T02:26:03.000Z</time>
      </trkpt>
      <trkpt lat="45.11414" lon="2.6889">
        <ele>1385.1</ele>
        <time>2000-01-01T02:26:13.000Z</time>
      </trkpt>
      <trkpt lat="45.1141" lon="2.68879">
        <ele>1386.8</ele>
        <time>2000-01-01T02:26:23.000Z</time>
      </trkpt>
      <trkpt lat="45.11409" lon="2.68872">
        <ele>1382</ele>
        <time>2000-01-01T02:26:33.000Z</time>
      </trkpt>
      <trkpt lat="45.11409" lon="2.68861">
        <ele>1387.6</ele>
        <time>2000-01-01T02:26:43.000Z</time>
      </trkpt>
      <trkpt lat="45.1141" lon="2.68842">
        <ele>1385</ele>
        <time>2000-01-01T02:26:53.000Z</time>
      </trkpt>
      <trkpt lat="45.11408" lon="2.68831">
        <ele>1389.6</ele>
        <time>2000-01-01T02:27:03.000Z</time>
      </trkpt>
      <trkpt lat="45.11405" lon="2.68815">
        <ele>1389</ele>
        <time>2000-01-01T02:27:13.000Z</time>
      </trkpt>
      <trkpt lat="45.11397" lon="2.68784">
        <ele>1390</ele>
        <time>2000-01-01T02:27:23.000Z</time>
      </trkpt>
      <trkpt lat="45.11397" lon="2.68773">
        <ele>1394.3</ele>
        <time>2000-01-01T02:27:33.000Z</time>
      </trkpt>
      <trkpt lat="45.11399" lon="2.68759">
        <ele>1395.3</ele>
        <time>2000-01-01T02:27:43.000Z</time>
      </trkpt>
      <trkpt lat="45.11404" lon="2.68741">
        <ele>1392</ele>
        <time>2000-01-01T02:27:53.000Z</time>
      </trkpt>
      <trkpt lat="45.11406" lon="2.68732">
        <ele>1394.7</ele>
        <time>2000-01-01T02:28:03.000Z</time>
      </trkpt>
      <trkpt lat="45.11406" lon="2.68724">
        <ele>1395.1</ele>
        <time>2000-01-01T02:28:13.000Z</time>
      </trkpt>
      <trkpt lat="45.11403" lon="2.68717">
        <ele>1395.7</ele>
        <time>2000-01-01T02:28:23.000Z</time>
      </trkpt>
      <trkpt lat="45.11398" lon="2.68711">
        <ele>1395</ele>
        <time>2000-01-01T02:28:33.000Z</time>
      </trkpt>
      <trkpt lat="45.11393" lon="2.68706">
        <ele>1398.4</ele>
        <time>2000-01-01T02:28:43.000Z</time>
      </trkpt>
      <trkpt lat="45.11391" lon="2.68703">
        <ele>1399</ele>
        <time>2000-01-01T02:28:53.000Z</time>
      </trkpt>
      <trkpt lat="45.1139" lon="2.68698">
        <ele>1398.9</ele>
        <time>2000-01-01T02:29:03.000Z</time>
      </trkpt>
      <trkpt lat="45.11392" lon="2.68687">
        <ele>1397</ele>
        <time>2000-01-01T02:29:13.000Z</time>
      </trkpt>
      <trkpt lat="45.11395" lon="2.68676">
        <ele>1398.1</ele>
        <time>2000-01-01T02:29:23.000Z</time>
      </trkpt>
      <trkpt lat="45.11396" lon="2.68668">
        <ele>1398.5</ele>
        <time>2000-01-01T02:29:33.000Z</time>
      </trkpt>
      <trkpt lat="45.11395" lon="2.68658">
        <ele>1398</ele>
        <time>2000-01-01T02:29:43.000Z</time>
      </trkpt>
      <trkpt lat="45.11386" lon="2.68632">
        <ele>1400</ele>
        <time>2000-01-01T02:29:53.000Z</time>
      </trkpt>
      <trkpt lat="45.11381" lon="2.68627">
        <ele>1403.5</ele>
        <time>2000-01-01T02:30:03.000Z</time>
      </trkpt>
      <trkpt lat="45.11369" lon="2.68622">
        <ele>1405</ele>
        <time>2000-01-01T02:30:13.000Z</time>
      </trkpt>
      <trkpt lat="45.11357" lon="2.68618">
        <ele>1404</ele>
        <time>2000-01-01T02:30:23.000Z</time>
      </trkpt>
      <trkpt lat="45.11343" lon="2.68611">
        <ele>1409.9</ele>
        <time>2000-01-01T02:30:33.000Z</time>
      </trkpt>
      <trkpt lat="45.11335" lon="2.68605">
        <ele>1407</ele>
        <time>2000-01-01T02:30:43.000Z</time>
      </trkpt>
      <trkpt lat="45.11327" lon="2.686">
        <ele>1412.9</ele>
        <time>2000-01-01T02:30:53.000Z</time>
      </trkpt>
      <trkpt lat="45.11324" lon="2.686">
        <ele>1413.1</ele>
        <time>2000-01-01T02:31:03.000Z</time>
      </trkpt>
      <trkpt lat="45.11313" lon="2.68606">
        <ele>1411</ele>
        <time>2000-01-01T02:31:13.000Z</time>
      </trkpt>
      <trkpt lat="45.11305" lon="2.68616">
        <ele>1414</ele>
        <time>2000-01-01T02:31:23.000Z</time>
      </trkpt>
      <trkpt lat="45.11296" lon="2.68629">
        <ele>1413</ele>
        <time>2000-01-01T02:31:33.000Z</time>
      </trkpt>
      <trkpt lat="45.11296" lon="2.68634">
        <ele>1414.6</ele>
        <time>2000-01-01T02:31:43.000Z</time>
      </trkpt>
      <trkpt lat="45.11296" lon="2.68641">
        <ele>1415</ele>
        <time>2000-01-01T02:31:53.000Z</time>
      </trkpt>
      <trkpt lat="45.11277" lon="2.68641">
        <ele>1414</ele>
        <time>2000-01-01T02:32:03.000Z</time>
      </trkpt>
      <trkpt lat="45.11275" lon="2.68641">
        <ele>1416.6</ele>
        <time>2000-01-01T02:32:13.000Z</time>
      </trkpt>
      <trkpt lat="45.11263" lon="2.68638">
        <ele>1417</ele>
        <time>2000-01-01T02:32:23.000Z</time>
      </trkpt>
      <trkpt lat="45.1125" lon="2.68636">
        <ele>1415</ele>
        <time>2000-01-01T02:32:33.000Z</time>
      </trkpt>
      <trkpt lat="45.11239" lon="2.68632">
        <ele>1418.4</ele>
        <time>2000-01-01T02:32:43.000Z</time>
      </trkpt>
      <trkpt lat="45.11237" lon="2.68631">
        <ele>1418.5</ele>
        <time>2000-01-01T02:32:53.000Z</time>
      </trkpt>
      <trkpt lat="45.11222" lon="2.68624">
        <ele>1417</ele>
        <time>2000-01-01T02:33:03.000Z</time>
      </trkpt>
      <trkpt lat="45.11203" lon="2.68612">
        <ele>1420</ele>
        <time>2000-01-01T02:33:13.000Z</time>
      </trkpt>
      <trkpt lat="45.11164" lon="2.68589">
        <ele>1422</ele>
        <time>2000-01-01T02:33:23.000Z</time>
      </trkpt>
      <trkpt lat="45.11122" lon="2.68561">
        <ele>1427</ele>
        <time>2000-01-01T02:33:33.000Z</time>
      </trkpt>
      <trkpt lat="45.11102" lon="2.68545">
        <ele>1432</ele>
        <time>2000-01-01T02:33:43.000Z</time>
      </trkpt>
      <trkpt lat="45.11091" lon="2.6853">
        <ele>1436.3</ele>
        <time>2000-01-01T02:33:53.000Z</time>
      </trkpt>
      <trkpt lat="45.11087" lon="2.68522">
        <ele>1435</ele>
        <time>2000-01-01T02:34:03.000Z</time>
      </trkpt>
      <trkpt lat="45.11085" lon="2.6851">
        <ele>1438</ele>
        <time>2000-01-01T02:34:13.000Z</time>
      </trkpt>
      <trkpt lat="45.11085" lon="2.68499">
        <ele>1439.2</ele>
        <time>2000-01-01T02:34:23.000Z</time>
      </trkpt>
      <trkpt lat="45.11085" lon="2.68495">
        <ele>1437</ele>
        <time>2000-01-01T02:34:33.000Z</time>
      </trkpt>
      <trkpt lat="45.11085" lon="2.68484">
        <ele>1440.7</ele>
        <time>2000-01-01T02:34:43.000Z</time>
      </trkpt>
      <trkpt lat="45.11083" lon="2.68474">
        <ele>1441.8</ele>
        <time>2000-01-01T02:34:53.000Z</time>
      </trkpt>
      <trkpt lat="45.11079" lon="2.68467">
        <ele>1440</ele>
        <time>2000-01-01T02:35:03.000Z</time>
      </trkpt>
      <trkpt lat="45.11073" lon="2.68461">
        <ele>1443.7</ele>
        <time>2000-01-01T02:35:13.000Z</time>
      </trkpt>
      <trkpt lat="45.11049" lon="2.68441">
        <ele>1442</ele>
        <time>2000-01-01T02:35:23.000Z</time>
      </trkpt>
      <trkpt lat="45.11029" lon="2.68421">
        <ele>1446</ele>
        <time>2000-01-01T02:35:33.000Z</time>
      </trkpt>
      <trkpt lat="45.11004" lon="2.68395">
        <ele>1449</ele>
        <time>2000-01-01T02:35:43.000Z</time>
      </trkpt>
      <trkpt lat="45.10984" lon="2.68373">
        <ele>1453</ele>
        <time>2000-01-01T02:35:53.000Z</time>
      </trkpt>
      <trkpt lat="45.10962" lon="2.6835">
        <ele>1456</ele>
        <time>2000-01-01T02:36:03.000Z</time>
      </trkpt>
      <trkpt lat="45.10946" lon="2.68336">
        <ele>1461.2</ele>
        <time>2000-01-01T02:36:13.000Z</time>
      </trkpt>
      <trkpt lat="45.10927" lon="2.68322">
        <ele>1459</ele>
        <time>2000-01-01T02:36:23.000Z</time>
      </trkpt>
      <trkpt lat="45.10911" lon="2.68311">
        <ele>1462.8</ele>
        <time>2000-01-01T02:36:33.000Z</time>
      </trkpt>
      <trkpt lat="45.10908" lon="2.68307">
        <ele>1463</ele>
        <time>2000-01-01T02:36:43.000Z</time>
      </trkpt>
      <trkpt lat="45.10906" lon="2.68302">
        <ele>1464.8</ele>
        <time>2000-01-01T02:36:53.000Z</time>
      </trkpt>
      <trkpt lat="45.10907" lon="2.68299">
        <ele>1466.2</ele>
        <time>2000-01-01T02:37:03.000Z</time>
      </trkpt>
      <trkpt lat="45.10891" lon="2.68285">
        <ele>1465</ele>
        <time>2000-01-01T02:37:13.000Z</time>
      </trkpt>
      <trkpt lat="45.10886" lon="2.68283">
        <ele>1468.4</ele>
        <time>2000-01-01T02:37:23.000Z</time>
      </trkpt>
      <trkpt lat="45.10881" lon="2.68284">
        <ele>1467.4</ele>
        <time>2000-01-01T02:37:33.000Z</time>
      </trkpt>
      <trkpt lat="45.10877" lon="2.68283">
        <ele>1467.4</ele>
        <time>2000-01-01T02:37:43.000Z</time>
      </trkpt>
      <trkpt lat="45.1087" lon="2.68282">
        <ele>1467</ele>
        <time>2000-01-01T02:37:53.000Z</time>
      </trkpt>
      <trkpt lat="45.10866" lon="2.68278">
        <ele>1468.4</ele>
        <time>2000-01-01T02:38:03.000Z</time>
      </trkpt>
      <trkpt lat="45.10858" lon="2.68276">
        <ele>1468.4</ele>
        <time>2000-01-01T02:38:13.000Z</time>
      </trkpt>
      <trkpt lat="45.10856" lon="2.68275">
        <ele>1468.5</ele>
        <time>2000-01-01T02:38:23.000Z</time>
      </trkpt>
      <trkpt lat="45.1085" lon="2.68275">
        <ele>1467</ele>
        <time>2000-01-01T02:38:33.000Z</time>
      </trkpt>
      <trkpt lat="45.10838" lon="2.6827">
        <ele>1467.6</ele>
        <time>2000-01-01T02:38:43.000Z</time>
      </trkpt>
      <trkpt lat="45.10831" lon="2.68263">
        <ele>1468</ele>
        <time>2000-01-01T02:38:53.000Z</time>
      </trkpt>
      <trkpt lat="45.10819" lon="2.68258">
        <ele>1471.1</ele>
        <time>2000-01-01T02:39:03.000Z</time>
      </trkpt>
      <trkpt lat="45.10809" lon="2.68258">
        <ele>1469</ele>
        <time>2000-01-01T02:39:13.000Z</time>
      </trkpt>
      <trkpt lat="45.10783" lon="2.68264">
        <ele>1469</ele>
        <time>2000-01-01T02:39:23.000Z</time>
      </trkpt>
      <trkpt lat="45.10774" lon="2.68261">
        <ele>1472.6</ele>
        <time>2000-01-01T02:39:33.000Z</time>
      </trkpt>
      <trkpt lat="45.10762" lon="2.68255">
        <ele>1472</ele>
        <time>2000-01-01T02:39:43.000Z</time>
      </trkpt>
      <trkpt lat="45.10753" lon="2.68254">
        <ele>1476.4</ele>
        <time>2000-01-01T02:39:53.000Z</time>
      </trkpt>
      <trkpt lat="45.10745" lon="2.68256">
        <ele>1477</ele>
        <time>2000-01-01T02:40:03.000Z</time>
      </trkpt>
      <trkpt lat="45.10738" lon="2.68257">
        <ele>1472</ele>
        <time>2000-01-01T02:40:13.000Z</time>
      </trkpt>
      <trkpt lat="45.10724" lon="2.68262">
        <ele>1479.9</ele>
        <time>2000-01-01T02:40:23.000Z</time>
      </trkpt>
      <trkpt lat="45.10715" lon="2.68267">
        <ele>1476</ele>
        <time>2000-01-01T02:40:33.000Z</time>
      </trkpt>
      <trkpt lat="45.107" lon="2.68274">
        <ele>1483</ele>
        <time>2000-01-01T02:40:43.000Z</time>
      </trkpt>
      <trkpt lat="45.10683" lon="2.68277">
        <ele>1482</ele>
        <time>2000-01-01T02:40:53.000Z</time>
      </trkpt>
      <trkpt lat="45.10661" lon="2.68294">
        <ele>1486</ele>
        <time>2000-01-01T02:41:03.000Z</time>
      </trkpt>
      <trkpt lat="45.10657" lon="2.68298">
        <ele>1493.4</ele>
        <time>2000-01-01T02:41:13.000Z</time>
      </trkpt>
      <trkpt lat="45.10654" lon="2.683">
        <ele>1493.9</ele>
        <time>2000-01-01T02:41:23.000Z</time>
      </trkpt>
      <trkpt lat="45.10649" lon="2.683">
        <ele>1496.6</ele>
        <time>2000-01-01T02:41:33.000Z</time>
      </trkpt>
      <trkpt lat="45.10635" lon="2.68308">
        <ele>1491</ele>
        <time>2000-01-01T02:41:43.000Z</time>
      </trkpt>
      <trkpt lat="45.10629" lon="2.68312">
        <ele>1504.6</ele>
        <time>2000-01-01T02:41:53.000Z</time>
      </trkpt>
      <trkpt lat="45.10627" lon="2.68317">
        <ele>1504.7</ele>
        <time>2000-01-01T02:42:03.000Z</time>
      </trkpt>
      <trkpt lat="45.10626" lon="2.6832">
        <ele>1504.5</ele>
        <time>2000-01-01T02:42:13.000Z</time>
      </trkpt>
      <trkpt lat="45.10625" lon="2.68324">
        <ele>1504</ele>
        <time>2000-01-01T02:42:23.000Z</time>
      </trkpt>
      <trkpt lat="45.10623" lon="2.68326">
        <ele>1504.9</ele>
        <time>2000-01-01T02:42:33.000Z</time>
      </trkpt>
      <trkpt lat="45.10622" lon="2.68329">
        <ele>1497</ele>
        <time>2000-01-01T02:42:43.000Z</time>
      </trkpt>
      <trkpt lat="45.10621" lon="2.68334">
        <ele>1503.6</ele>
        <time>2000-01-01T02:42:53.000Z</time>
      </trkpt>
      <trkpt lat="45.10618" lon="2.68339">
        <ele>1503.9</ele>
        <time>2000-01-01T02:43:03.000Z</time>
      </trkpt>
      <trkpt lat="45.10617" lon="2.68342">
        <ele>1503.5</ele>
        <time>2000-01-01T02:43:13.000Z</time>
      </trkpt>
      <trkpt lat="45.10613" lon="2.68346">
        <ele>1504.7</ele>
        <time>2000-01-01T02:43:23.000Z</time>
      </trkpt>
      <trkpt lat="45.10606" lon="2.68351">
        <ele>1502</ele>
        <time>2000-01-01T02:43:33.000Z</time>
      </trkpt>
      <trkpt lat="45.10599" lon="2.68359">
        <ele>1508.8</ele>
        <time>2000-01-01T02:43:43.000Z</time>
      </trkpt>
      <trkpt lat="45.10597" lon="2.68359">
        <ele>1510.1</ele>
        <time>2000-01-01T02:43:53.000Z</time>
      </trkpt>
      <trkpt lat="45.10592" lon="2.68364">
        <ele>1511.5</ele>
        <time>2000-01-01T02:44:03.000Z</time>
      </trkpt>
      <trkpt lat="45.10589" lon="2.68367">
        <ele>1507</ele>
        <time>2000-01-01T02:44:13.000Z</time>
      </trkpt>
      <trkpt lat="45.10584" lon="2.68376">
        <ele>1513.3</ele>
        <time>2000-01-01T02:44:23.000Z</time>
      </trkpt>
      <trkpt lat="45.10583" lon="2.6838">
        <ele>1512.8</ele>
        <time>2000-01-01T02:44:33.000Z</time>
      </trkpt>
      <trkpt lat="45.10582" lon="2.68384">
        <ele>1512.4</ele>
        <time>2000-01-01T02:44:43.000Z</time>
      </trkpt>
      <trkpt lat="45.10583" lon="2.6839">
        <ele>1509.8</ele>
        <time>2000-01-01T02:44:53.000Z</time>
      </trkpt>
      <trkpt lat="45.10582" lon="2.68394">
        <ele>1509</ele>
        <time>2000-01-01T02:45:03.000Z</time>
      </trkpt>
      <trkpt lat="45.10581" lon="2.68397">
        <ele>1508.4</ele>
        <time>2000-01-01T02:45:13.000Z</time>
      </trkpt>
      <trkpt lat="45.10578" lon="2.68399">
        <ele>1509.8</ele>
        <time>2000-01-01T02:45:23.000Z</time>
      </trkpt>
      <trkpt lat="45.10572" lon="2.68404">
        <ele>1512.2</ele>
        <time>2000-01-01T02:45:33.000Z</time>
      </trkpt>
      <trkpt lat="45.10569" lon="2.68409">
        <ele>1512.6</ele>
        <time>2000-01-01T02:45:43.000Z</time>
      </trkpt>
      <trkpt lat="45.10565" lon="2.68414">
        <ele>1510</ele>
        <time>2000-01-01T02:45:53.000Z</time>
      </trkpt>
      <trkpt lat="45.10565" lon="2.68418">
        <ele>1512.4</ele>
        <time>2000-01-01T02:46:03.000Z</time>
      </trkpt>
      <trkpt lat="45.10565" lon="2.68424">
        <ele>1510.1</ele>
        <time>2000-01-01T02:46:13.000Z</time>
      </trkpt>
      <trkpt lat="45.10563" lon="2.68429">
        <ele>1509.7</ele>
        <time>2000-01-01T02:46:23.000Z</time>
      </trkpt>
      <trkpt lat="45.10558" lon="2.68436">
        <ele>1510.6</ele>
        <time>2000-01-01T02:46:33.000Z</time>
      </trkpt>
      <trkpt lat="45.10556" lon="2.68439">
        <ele>1511</ele>
        <time>2000-01-01T02:46:43.000Z</time>
      </trkpt>
      <trkpt lat="45.10554" lon="2.68441">
        <ele>1511.6</ele>
        <time>2000-01-01T02:46:53.000Z</time>
      </trkpt>
      <trkpt lat="45.10552" lon="2.68442">
        <ele>1512.8</ele>
        <time>2000-01-01T02:47:03.000Z</time>
      </trkpt>
      <trkpt lat="45.10548" lon="2.68448">
        <ele>1513.6</ele>
        <time>2000-01-01T02:47:13.000Z</time>
      </trkpt>
      <trkpt lat="45.10547" lon="2.68451">
        <ele>1513.3</ele>
        <time>2000-01-01T02:47:23.000Z</time>
      </trkpt>
      <trkpt lat="45.10544" lon="2.68454">
        <ele>1514.4</ele>
        <time>2000-01-01T02:47:33.000Z</time>
      </trkpt>
      <trkpt lat="45.10542" lon="2.68457">
        <ele>1512</ele>
        <time>2000-01-01T02:47:43.000Z</time>
      </trkpt>
      <trkpt lat="45.1054" lon="2.68459">
        <ele>1515.5</ele>
        <time>2000-01-01T02:47:53.000Z</time>
      </trkpt>
      <trkpt lat="45.10538" lon="2.68461">
        <ele>1516.2</ele>
        <time>2000-01-01T02:48:03.000Z</time>
      </trkpt>
      <trkpt lat="45.10536" lon="2.68462">
        <ele>1517.3</ele>
        <time>2000-01-01T02:48:13.000Z</time>
      </trkpt>
      <trkpt lat="45.10534" lon="2.68466">
        <ele>1517.1</ele>
        <time>2000-01-01T02:48:23.000Z</time>
      </trkpt>
      <trkpt lat="45.10532" lon="2.68469">
        <ele>1517.3</ele>
        <time>2000-01-01T02:48:33.000Z</time>
      </trkpt>
      <trkpt lat="45.10531" lon="2.68471">
        <ele>1517.2</ele>
        <time>2000-01-01T02:48:43.000Z</time>
      </trkpt>
      <trkpt lat="45.10531" lon="2.68474">
        <ele>1516.3</ele>
        <time>2000-01-01T02:48:53.000Z</time>
      </trkpt>
      <trkpt lat="45.1053" lon="2.68479">
        <ele>1513</ele>
        <time>2000-01-01T02:49:03.000Z</time>
      </trkpt>
      <trkpt lat="45.10529" lon="2.68482">
        <ele>1516</ele>
        <time>2000-01-01T02:49:13.000Z</time>
      </trkpt>
      <trkpt lat="45.10527" lon="2.68487">
        <ele>1516.5</ele>
        <time>2000-01-01T02:49:23.000Z</time>
      </trkpt>
      <trkpt lat="45.10525" lon="2.6849">
        <ele>1517.4</ele>
        <time>2000-01-01T02:49:33.000Z</time>
      </trkpt>
      <trkpt lat="45.10522" lon="2.68493">
        <ele>1519.2</ele>
        <time>2000-01-01T02:49:43.000Z</time>
      </trkpt>
      <trkpt lat="45.1052" lon="2.68496">
        <ele>1520.1</ele>
        <time>2000-01-01T02:49:53.000Z</time>
      </trkpt>
      <trkpt lat="45.10519" lon="2.68499">
        <ele>1520.2</ele>
        <time>2000-01-01T02:50:03.000Z</time>
      </trkpt>
      <trkpt lat="45.10517" lon="2.68502">
        <ele>1517</ele>
        <time>2000-01-01T02:50:13.000Z</time>
      </trkpt>
      <trkpt lat="45.10517" lon="2.68506">
        <ele>1519.9</ele>
        <time>2000-01-01T02:50:23.000Z</time>
      </trkpt>
      <trkpt lat="45.10513" lon="2.68515">
        <ele>1520.6</ele>
        <time>2000-01-01T02:50:33.000Z</time>
      </trkpt>
      <trkpt lat="45.10511" lon="2.68519">
        <ele>1521.1</ele>
        <time>2000-01-01T02:50:43.000Z</time>
      </trkpt>
      <trkpt lat="45.10509" lon="2.68522">
        <ele>1521.8</ele>
        <time>2000-01-01T02:50:53.000Z</time>
      </trkpt>
      <trkpt lat="45.10506" lon="2.68526">
        <ele>1520</ele>
        <time>2000-01-01T02:51:03.000Z</time>
      </trkpt>
      <trkpt lat="45.10505" lon="2.68529">
        <ele>1523</ele>
        <time>2000-01-01T02:51:13.000Z</time>
      </trkpt>
      <trkpt lat="45.10504" lon="2.68533">
        <ele>1523.1</ele>
        <time>2000-01-01T02:51:23.000Z</time>
      </trkpt>
      <trkpt lat="45.10503" lon="2.68538">
        <ele>1522.9</ele>
        <time>2000-01-01T02:51:33.000Z</time>
      </trkpt>
      <trkpt lat="45.10502" lon="2.68543">
        <ele>1522.8</ele>
        <time>2000-01-01T02:51:43.000Z</time>
      </trkpt>
      <trkpt lat="45.10502" lon="2.68546">
        <ele>1522.3</ele>
        <time>2000-01-01T02:51:53.000Z</time>
      </trkpt>
      <trkpt lat="45.10501" lon="2.68551">
        <ele>1522.1</ele>
        <time>2000-01-01T02:52:03.000Z</time>
      </trkpt>
      <trkpt lat="45.105" lon="2.68556">
        <ele>1520</ele>
        <time>2000-01-01T02:52:13.000Z</time>
      </trkpt>
      <trkpt lat="45.10498" lon="2.68559">
        <ele>1523.9</ele>
        <time>2000-01-01T02:52:23.000Z</time>
      </trkpt>
      <trkpt lat="45.10497" lon="2.68563">
        <ele>1524.7</ele>
        <time>2000-01-01T02:52:33.000Z</time>
      </trkpt>
      <trkpt lat="45.10497" lon="2.68568">
        <ele>1524.6</ele>
        <time>2000-01-01T02:52:43.000Z</time>
      </trkpt>
      <trkpt lat="45.10497" lon="2.68573">
        <ele>1524.5</ele>
        <time>2000-01-01T02:52:53.000Z</time>
      </trkpt>
      <trkpt lat="45.10497" lon="2.68578">
        <ele>1524.4</ele>
        <time>2000-01-01T02:53:03.000Z</time>
      </trkpt>
      <trkpt lat="45.10496" lon="2.6858">
        <ele>1525.1</ele>
        <time>2000-01-01T02:53:13.000Z</time>
      </trkpt>
      <trkpt lat="45.10495" lon="2.68584">
        <ele>1522</ele>
        <time>2000-01-01T02:53:23.000Z</time>
      </trkpt>
      <trkpt lat="45.10494" lon="2.68587">
        <ele>1526.2</ele>
        <time>2000-01-01T02:53:33.000Z</time>
      </trkpt>
      <trkpt lat="45.10494" lon="2.68591">
        <ele>1525.8</ele>
        <time>2000-01-01T02:53:43.000Z</time>
      </trkpt>
      <trkpt lat="45.10493" lon="2.68597">
        <ele>1526.1</ele>
        <time>2000-01-01T02:53:53.000Z</time>
      </trkpt>
      <trkpt lat="45.10492" lon="2.68601">
        <ele>1526.6</ele>
        <time>2000-01-01T02:54:03.000Z</time>
      </trkpt>
      <trkpt lat="45.10489" lon="2.68607">
        <ele>1528.9</ele>
        <time>2000-01-01T02:54:13.000Z</time>
      </trkpt>
      <trkpt lat="45.10489" lon="2.68612">
        <ele>1523</ele>
        <time>2000-01-01T02:54:23.000Z</time>
      </trkpt>
      <trkpt lat="45.10489" lon="2.68617">
        <ele>1528.4</ele>
        <time>2000-01-01T02:54:33.000Z</time>
      </trkpt>
      <trkpt lat="45.10489" lon="2.6862">
        <ele>1528.3</ele>
        <time>2000-01-01T02:54:43.000Z</time>
      </trkpt>
      <trkpt lat="45.10487" lon="2.68627">
        <ele>1530</ele>
        <time>2000-01-01T02:54:53.000Z</time>
      </trkpt>
      <trkpt lat="45.10486" lon="2.68629">
        <ele>1531</ele>
        <time>2000-01-01T02:55:03.000Z</time>
      </trkpt>
      <trkpt lat="45.10486" lon="2.68634">
        <ele>1530.8</ele>
        <time>2000-01-01T02:55:13.000Z</time>
      </trkpt>
      <trkpt lat="45.10485" lon="2.68642">
        <ele>1524</ele>
        <time>2000-01-01T02:55:23.000Z</time>
      </trkpt>
      <trkpt lat="45.10485" lon="2.68646">
        <ele>1531</ele>
        <time>2000-01-01T02:55:33.000Z</time>
      </trkpt>
      <trkpt lat="45.10483" lon="2.68649">
        <ele>1532.6</ele>
        <time>2000-01-01T02:55:43.000Z</time>
      </trkpt>
      <trkpt lat="45.10481" lon="2.68653">
        <ele>1534.1</ele>
        <time>2000-01-01T02:55:53.000Z</time>
      </trkpt>
      <trkpt lat="45.10479" lon="2.68656">
        <ele>1535.6</ele>
        <time>2000-01-01T02:56:03.000Z</time>
      </trkpt>
      <trkpt lat="45.10477" lon="2.68663">
        <ele>1536.4</ele>
        <time>2000-01-01T02:56:13.000Z</time>
      </trkpt>
      <trkpt lat="45.10476" lon="2.68669">
        <ele>1528</ele>
        <time>2000-01-01T02:56:23.000Z</time>
      </trkpt>
      <trkpt lat="45.10474" lon="2.68676">
        <ele>1540.1</ele>
        <time>2000-01-01T02:56:33.000Z</time>
      </trkpt>
      <trkpt lat="45.10474" lon="2.68679">
        <ele>1540.7</ele>
        <time>2000-01-01T02:56:43.000Z</time>
      </trkpt>
      <trkpt lat="45.10477" lon="2.68688">
        <ele>1539.7</ele>
        <time>2000-01-01T02:56:53.000Z</time>
      </trkpt>
      <trkpt lat="45.10478" lon="2.68692">
        <ele>1539.6</ele>
        <time>2000-01-01T02:57:03.000Z</time>
      </trkpt>
      <trkpt lat="45.10479" lon="2.68695">
        <ele>1533</ele>
        <time>2000-01-01T02:57:13.000Z</time>
      </trkpt>
      <trkpt lat="45.10478" lon="2.68699">
        <ele>1540.2</ele>
        <time>2000-01-01T02:57:23.000Z</time>
      </trkpt>
      <trkpt lat="45.10475" lon="2.6871">
        <ele>1543.3</ele>
        <time>2000-01-01T02:57:33.000Z</time>
      </trkpt>
      <trkpt lat="45.10474" lon="2.68712">
        <ele>1544.2</ele>
        <time>2000-01-01T02:57:43.000Z</time>
      </trkpt>
      <trkpt lat="45.10473" lon="2.68714">
        <ele>1545.1</ele>
        <time>2000-01-01T02:57:53.000Z</time>
      </trkpt>
      <trkpt lat="45.10472" lon="2.68725">
        <ele>1539</ele>
        <time>2000-01-01T02:58:03.000Z</time>
      </trkpt>
      <trkpt lat="45.10471" lon="2.68727">
        <ele>1548.1</ele>
        <time>2000-01-01T02:58:13.000Z</time>
      </trkpt>
      <trkpt lat="45.1047" lon="2.68731">
        <ele>1549.8</ele>
        <time>2000-01-01T02:58:23.000Z</time>
      </trkpt>
      <trkpt lat="45.10468" lon="2.68735">
        <ele>1552.3</ele>
        <time>2000-01-01T02:58:33.000Z</time>
      </trkpt>
      <trkpt lat="45.10468" lon="2.68738">
        <ele>1552.7</ele>
        <time>2000-01-01T02:58:43.000Z</time>
      </trkpt>
      <trkpt lat="45.10469" lon="2.6874">
        <ele>1552.1</ele>
        <time>2000-01-01T02:58:53.000Z</time>
      </trkpt>
      <trkpt lat="45.1047" lon="2.68741">
        <ele>1551.3</ele>
        <time>2000-01-01T02:59:03.000Z</time>
      </trkpt>
      <trkpt lat="45.10471" lon="2.68745">
        <ele>1551.1</ele>
        <time>2000-01-01T02:59:13.000Z</time>
      </trkpt>
      <trkpt lat="45.10471" lon="2.68749">
        <ele>1545</ele>
        <time>2000-01-01T02:59:23.000Z</time>
      </trkpt>
      <trkpt lat="45.10468" lon="2.68772">
        <ele>1556</ele>
        <time>2000-01-01T02:59:33.000Z</time>
      </trkpt>
      <trkpt lat="45.10467" lon="2.68784">
        <ele>1552</ele>
        <time>2000-01-01T02:59:43.000Z</time>
      </trkpt>
      <trkpt lat="45.10467" lon="2.68789">
        <ele>1558.5</ele>
        <time>2000-01-01T02:59:53.000Z</time>
      </trkpt>
      <trkpt lat="45.10466" lon="2.68792">
        <ele>1559.7</ele>
        <time>2000-01-01T03:00:03.000Z</time>
      </trkpt>
      <trkpt lat="45.10467" lon="2.68797">
        <ele>1559.4</ele>
        <time>2000-01-01T03:00:13.000Z</time>
      </trkpt>
      <trkpt lat="45.10469" lon="2.688">
        <ele>1558.1</ele>
        <time>2000-01-01T03:00:23.000Z</time>
      </trkpt>
      <trkpt lat="45.1047" lon="2.68809">
        <ele>1558.1</ele>
        <time>2000-01-01T03:00:33.000Z</time>
      </trkpt>
      <trkpt lat="45.10471" lon="2.68813">
        <ele>1555</ele>
        <time>2000-01-01T03:00:43.000Z</time>
      </trkpt>
      <trkpt lat="45.1047" lon="2.68817">
        <ele>1558.7</ele>
        <time>2000-01-01T03:00:53.000Z</time>
      </trkpt>
      <trkpt lat="45.1047" lon="2.68821">
        <ele>1559</ele>
        <time>2000-01-01T03:01:03.000Z</time>
      </trkpt>
      <trkpt lat="45.10472" lon="2.68825">
        <ele>1557.6</ele>
        <time>2000-01-01T03:01:13.000Z</time>
      </trkpt>
      <trkpt lat="45.10474" lon="2.68828">
        <ele>1556.1</ele>
        <time>2000-01-01T03:01:23.000Z</time>
      </trkpt>
      <trkpt lat="45.10475" lon="2.68833">
        <ele>1555.6</ele>
        <time>2000-01-01T03:01:33.000Z</time>
      </trkpt>
      <trkpt lat="45.10475" lon="2.68837">
        <ele>1555.9</ele>
        <time>2000-01-01T03:01:43.000Z</time>
      </trkpt>
      <trkpt lat="45.10475" lon="2.6884">
        <ele>1556.5</ele>
        <time>2000-01-01T03:01:53.000Z</time>
      </trkpt>
      <trkpt lat="45.10475" lon="2.68843">
        <ele>1556.3</ele>
        <time>2000-01-01T03:02:03.000Z</time>
      </trkpt>
      <trkpt lat="45.10475" lon="2.68847">
        <ele>1556.6</ele>
        <time>2000-01-01T03:02:13.000Z</time>
      </trkpt>
      <trkpt lat="45.10475" lon="2.68855">
        <ele>1557.2</ele>
        <time>2000-01-01T03:02:23.000Z</time>
      </trkpt>
      <trkpt lat="45.10475" lon="2.68859">
        <ele>1557.5</ele>
        <time>2000-01-01T03:02:33.000Z</time>
      </trkpt>
      <trkpt lat="45.10475" lon="2.68861">
        <ele>1557.7</ele>
        <time>2000-01-01T03:02:43.000Z</time>
      </trkpt>
      <trkpt lat="45.10476" lon="2.68863">
        <ele>1557.1</ele>
        <time>2000-01-01T03:02:53.000Z</time>
      </trkpt>
      <trkpt lat="45.10478" lon="2.68867">
        <ele>1556.2</ele>
        <time>2000-01-01T03:03:03.000Z</time>
      </trkpt>
      <trkpt lat="45.10479" lon="2.6887">
        <ele>1555.6</ele>
        <time>2000-01-01T03:03:13.000Z</time>
      </trkpt>
      <trkpt lat="45.1048" lon="2.68873">
        <ele>1555.2</ele>
        <time>2000-01-01T03:03:23.000Z</time>
      </trkpt>
      <trkpt lat="45.10481" lon="2.68876">
        <ele>1554.8</ele>
        <time>2000-01-01T03:03:33.000Z</time>
      </trkpt>
      <trkpt lat="45.1048" lon="2.6888">
        <ele>1556.2</ele>
        <time>2000-01-01T03:03:43.000Z</time>
      </trkpt>
      <trkpt lat="45.1048" lon="2.68883">
        <ele>1556.6</ele>
        <time>2000-01-01T03:03:53.000Z</time>
      </trkpt>
      <trkpt lat="45.10481" lon="2.68887">
        <ele>1556.4</ele>
        <time>2000-01-01T03:04:03.000Z</time>
      </trkpt>
      <trkpt lat="45.10483" lon="2.6889">
        <ele>1555.5</ele>
        <time>2000-01-01T03:04:13.000Z</time>
      </trkpt>
      <trkpt lat="45.10487" lon="2.68892">
        <ele>1556</ele>
        <time>2000-01-01T03:04:23.000Z</time>
      </trkpt>
      <trkpt lat="45.10489" lon="2.68901">
        <ele>1552.9</ele>
        <time>2000-01-01T03:04:33.000Z</time>
      </trkpt>
      <trkpt lat="45.1049" lon="2.68906">
        <ele>1552.9</ele>
        <time>2000-01-01T03:04:43.000Z</time>
      </trkpt>
      <trkpt lat="45.10491" lon="2.68909">
        <ele>1552.6</ele>
        <time>2000-01-01T03:04:53.000Z</time>
      </trkpt>
      <trkpt lat="45.10492" lon="2.68918">
        <ele>1556</ele>
        <time>2000-01-01T03:05:03.000Z</time>
      </trkpt>
      <trkpt lat="45.10492" lon="2.68921">
        <ele>1553.1</ele>
        <time>2000-01-01T03:05:13.000Z</time>
      </trkpt>
      <trkpt lat="45.10492" lon="2.68925">
        <ele>1553.3</ele>
        <time>2000-01-01T03:05:23.000Z</time>
      </trkpt>
      <trkpt lat="45.10492" lon="2.6893">
        <ele>1553.5</ele>
        <time>2000-01-01T03:05:33.000Z</time>
      </trkpt>
      <trkpt lat="45.10495" lon="2.68934">
        <ele>1551.2</ele>
        <time>2000-01-01T03:05:43.000Z</time>
      </trkpt>
      <trkpt lat="45.10497" lon="2.68938">
        <ele>1549.9</ele>
        <time>2000-01-01T03:05:53.000Z</time>
      </trkpt>
      <trkpt lat="45.10499" lon="2.68944">
        <ele>1556</ele>
        <time>2000-01-01T03:06:03.000Z</time>
      </trkpt>
      <trkpt lat="45.105" lon="2.6895">
        <ele>1549.4</ele>
        <time>2000-01-01T03:06:13.000Z</time>
      </trkpt>
      <trkpt lat="45.10502" lon="2.68955">
        <ele>1549.5</ele>
        <time>2000-01-01T03:06:23.000Z</time>
      </trkpt>
      <trkpt lat="45.10503" lon="2.6896">
        <ele>1550.1</ele>
        <time>2000-01-01T03:06:33.000Z</time>
      </trkpt>
      <trkpt lat="45.10508" lon="2.68969">
        <ele>1548</ele>
        <time>2000-01-01T03:06:43.000Z</time>
      </trkpt>
      <trkpt lat="45.1051" lon="2.68975">
        <ele>1548.7</ele>
        <time>2000-01-01T03:06:53.000Z</time>
      </trkpt>
      <trkpt lat="45.10512" lon="2.6898">
        <ele>1547.9</ele>
        <time>2000-01-01T03:07:03.000Z</time>
      </trkpt>
      <trkpt lat="45.10512" lon="2.68985">
        <ele>1548.3</ele>
        <time>2000-01-01T03:07:13.000Z</time>
      </trkpt>
      <trkpt lat="45.10516" lon="2.68995">
        <ele>1547</ele>
        <time>2000-01-01T03:07:23.000Z</time>
      </trkpt>
      <trkpt lat="45.10518" lon="2.69001">
        <ele>1546.3</ele>
        <time>2000-01-01T03:07:33.000Z</time>
      </trkpt>
      <trkpt lat="45.10518" lon="2.69007">
        <ele>1546.7</ele>
        <time>2000-01-01T03:07:43.000Z</time>
      </trkpt>
      <trkpt lat="45.10518" lon="2.69014">
        <ele>1547.1</ele>
        <time>2000-01-01T03:07:53.000Z</time>
      </trkpt>
      <trkpt lat="45.10519" lon="2.69018">
        <ele>1546.9</ele>
        <time>2000-01-01T03:08:03.000Z</time>
      </trkpt>
      <trkpt lat="45.1052" lon="2.6902">
        <ele>1546</ele>
        <time>2000-01-01T03:08:13.000Z</time>
      </trkpt>
      <trkpt lat="45.10522" lon="2.69022">
        <ele>1545.8</ele>
        <time>2000-01-01T03:08:23.000Z</time>
      </trkpt>
      <trkpt lat="45.10524" lon="2.69025">
        <ele>1545.3</ele>
        <time>2000-01-01T03:08:33.000Z</time>
      </trkpt>
      <trkpt lat="45.10525" lon="2.69029">
        <ele>1545.2</ele>
        <time>2000-01-01T03:08:43.000Z</time>
      </trkpt>
      <trkpt lat="45.10526" lon="2.69033">
        <ele>1545.2</ele>
        <time>2000-01-01T03:08:53.000Z</time>
      </trkpt>
      <trkpt lat="45.10525" lon="2.69036">
        <ele>1545.9</ele>
        <time>2000-01-01T03:09:03.000Z</time>
      </trkpt>
      <trkpt lat="45.10525" lon="2.69038">
        <ele>1546.1</ele>
        <time>2000-01-01T03:09:13.000Z</time>
      </trkpt>
      <trkpt lat="45.10525" lon="2.69047">
        <ele>1546</ele>
        <time>2000-01-01T03:09:23.000Z</time>
      </trkpt>
      <trkpt lat="45.10527" lon="2.69059">
        <ele>1547.5</ele>
        <time>2000-01-01T03:09:33.000Z</time>
      </trkpt>
      <trkpt lat="45.10528" lon="2.69066">
        <ele>1547.7</ele>
        <time>2000-01-01T03:09:43.000Z</time>
      </trkpt>
      <trkpt lat="45.10529" lon="2.69072">
        <ele>1548</ele>
        <time>2000-01-01T03:09:53.000Z</time>
      </trkpt>
      <trkpt lat="45.10532" lon="2.69087">
        <ele>1546</ele>
        <time>2000-01-01T03:10:03.000Z</time>
      </trkpt>
      <trkpt lat="45.10533" lon="2.69092">
        <ele>1548.6</ele>
        <time>2000-01-01T03:10:13.000Z</time>
      </trkpt>
      <trkpt lat="45.10535" lon="2.69097">
        <ele>1548.4</ele>
        <time>2000-01-01T03:10:23.000Z</time>
      </trkpt>
      <trkpt lat="45.10537" lon="2.6911">
        <ele>1548.6</ele>
        <time>2000-01-01T03:10:33.000Z</time>
      </trkpt>
      <trkpt lat="45.10539" lon="2.69117">
        <ele>1547</ele>
        <time>2000-01-01T03:10:43.000Z</time>
      </trkpt>
      <trkpt lat="45.10541" lon="2.69125">
        <ele>1550.4</ele>
        <time>2000-01-01T03:10:53.000Z</time>
      </trkpt>
      <trkpt lat="45.10541" lon="2.6913">
        <ele>1551.4</ele>
        <time>2000-01-01T03:11:03.000Z</time>
      </trkpt>
      <trkpt lat="45.10541" lon="2.69134">
        <ele>1552.2</ele>
        <time>2000-01-01T03:11:13.000Z</time>
      </trkpt>
      <trkpt lat="45.1054" lon="2.69139">
        <ele>1553.4</ele>
        <time>2000-01-01T03:11:23.000Z</time>
      </trkpt>
      <trkpt lat="45.10538" lon="2.69145">
        <ele>1549</ele>
        <time>2000-01-01T03:11:33.000Z</time>
      </trkpt>
      <trkpt lat="45.10533" lon="2.69156">
        <ele>1556.3</ele>
        <time>2000-01-01T03:11:43.000Z</time>
      </trkpt>
      <trkpt lat="45.10529" lon="2.69161">
        <ele>1558</ele>
        <time>2000-01-01T03:11:53.000Z</time>
      </trkpt>
      <trkpt lat="45.10526" lon="2.69164">
        <ele>1558.9</ele>
        <time>2000-01-01T03:12:03.000Z</time>
      </trkpt>
      <trkpt lat="45.1052" lon="2.69168">
        <ele>1553</ele>
        <time>2000-01-01T03:12:13.000Z</time>
      </trkpt>
      <trkpt lat="45.10515" lon="2.69172">
        <ele>1558.7</ele>
        <time>2000-01-01T03:12:23.000Z</time>
      </trkpt>
      <trkpt lat="45.10511" lon="2.69174">
        <ele>1558.7</ele>
        <time>2000-01-01T03:12:33.000Z</time>
      </trkpt>
      <trkpt lat="45.10504" lon="2.69177">
        <ele>1558.8</ele>
        <time>2000-01-01T03:12:43.000Z</time>
      </trkpt>
      <trkpt lat="45.10499" lon="2.69179">
        <ele>1559</ele>
        <time>2000-01-01T03:12:53.000Z</time>
      </trkpt>
      <trkpt lat="45.10491" lon="2.69182">
        <ele>1561.8</ele>
        <time>2000-01-01T03:13:03.000Z</time>
      </trkpt>
      <trkpt lat="45.10486" lon="2.69187">
        <ele>1562.6</ele>
        <time>2000-01-01T03:13:13.000Z</time>
      </trkpt>
      <trkpt lat="45.10484" lon="2.69191">
        <ele>1562.3</ele>
        <time>2000-01-01T03:13:23.000Z</time>
      </trkpt>
      <trkpt lat="45.10481" lon="2.69195">
        <ele>1559</ele>
        <time>2000-01-01T03:13:33.000Z</time>
      </trkpt>
      <trkpt lat="45.10475" lon="2.69206">
        <ele>1562.9</ele>
        <time>2000-01-01T03:13:43.000Z</time>
      </trkpt>
      <trkpt lat="45.1047" lon="2.6922">
        <ele>1559</ele>
        <time>2000-01-01T03:13:53.000Z</time>
      </trkpt>
      <trkpt lat="45.10466" lon="2.69227">
        <ele>1564.4</ele>
        <time>2000-01-01T03:14:03.000Z</time>
      </trkpt>
      <trkpt lat="45.10464" lon="2.6923">
        <ele>1565.3</ele>
        <time>2000-01-01T03:14:13.000Z</time>
      </trkpt>
      <trkpt lat="45.10462" lon="2.69236">
        <ele>1565.8</ele>
        <time>2000-01-01T03:14:23.000Z</time>
      </trkpt>
      <trkpt lat="45.10459" lon="2.69242">
        <ele>1563</ele>
        <time>2000-01-01T03:14:33.000Z</time>
      </trkpt>
      <trkpt lat="45.10456" lon="2.69248">
        <ele>1567.3</ele>
        <time>2000-01-01T03:14:43.000Z</time>
      </trkpt>
      <trkpt lat="45.10454" lon="2.69252">
        <ele>1567.8</ele>
        <time>2000-01-01T03:14:53.000Z</time>
      </trkpt>
      <trkpt lat="45.10451" lon="2.69258">
        <ele>1568.7</ele>
        <time>2000-01-01T03:15:03.000Z</time>
      </trkpt>
      <trkpt lat="45.10449" lon="2.69262">
        <ele>1569.3</ele>
        <time>2000-01-01T03:15:13.000Z</time>
      </trkpt>
      <trkpt lat="45.10446" lon="2.69268">
        <ele>1564</ele>
        <time>2000-01-01T03:15:23.000Z</time>
      </trkpt>
      <trkpt lat="45.10443" lon="2.69271">
        <ele>1571.2</ele>
        <time>2000-01-01T03:15:33.000Z</time>
      </trkpt>
      <trkpt lat="45.10441" lon="2.69274">
        <ele>1571.9</ele>
        <time>2000-01-01T03:15:43.000Z</time>
      </trkpt>
      <trkpt lat="45.10439" lon="2.69278">
        <ele>1572.5</ele>
        <time>2000-01-01T03:15:53.000Z</time>
      </trkpt>
      <trkpt lat="45.10435" lon="2.69289">
        <ele>1574.1</ele>
        <time>2000-01-01T03:16:03.000Z</time>
      </trkpt>
      <trkpt lat="45.10433" lon="2.69295">
        <ele>1568</ele>
        <time>2000-01-01T03:16:13.000Z</time>
      </trkpt>
      <trkpt lat="45.1043" lon="2.69306">
        <ele>1575.7</ele>
        <time>2000-01-01T03:16:23.000Z</time>
      </trkpt>
      <trkpt lat="45.10427" lon="2.69319">
        <ele>1576.3</ele>
        <time>2000-01-01T03:16:33.000Z</time>
      </trkpt>
      <trkpt lat="45.10423" lon="2.69327">
        <ele>1573</ele>
        <time>2000-01-01T03:16:43.000Z</time>
      </trkpt>
      <trkpt lat="45.1042" lon="2.69333">
        <ele>1577.9</ele>
        <time>2000-01-01T03:16:53.000Z</time>
      </trkpt>
      <trkpt lat="45.10418" lon="2.69337">
        <ele>1578.6</ele>
        <time>2000-01-01T03:17:03.000Z</time>
      </trkpt>
      <trkpt lat="45.10415" lon="2.69342">
        <ele>1579.8</ele>
        <time>2000-01-01T03:17:13.000Z</time>
      </trkpt>
      <trkpt lat="45.10412" lon="2.69351">
        <ele>1577</ele>
        <time>2000-01-01T03:17:23.000Z</time>
      </trkpt>
      <trkpt lat="45.10411" lon="2.69356">
        <ele>1581.5</ele>
        <time>2000-01-01T03:17:33.000Z</time>
      </trkpt>
      <trkpt lat="45.1041" lon="2.69363">
        <ele>1582.1</ele>
        <time>2000-01-01T03:17:43.000Z</time>
      </trkpt>
      <trkpt lat="45.10409" lon="2.69373">
        <ele>1583.4</ele>
        <time>2000-01-01T03:17:53.000Z</time>
      </trkpt>
      <trkpt lat="45.10409" lon="2.6938">
        <ele>1579</ele>
        <time>2000-01-01T03:18:03.000Z</time>
      </trkpt>
      <trkpt lat="45.10408" lon="2.69384">
        <ele>1584.7</ele>
        <time>2000-01-01T03:18:13.000Z</time>
      </trkpt>
      <trkpt lat="45.10408" lon="2.69391">
        <ele>1585.3</ele>
        <time>2000-01-01T03:18:23.000Z</time>
      </trkpt>
      <trkpt lat="45.10408" lon="2.69397">
        <ele>1585.9</ele>
        <time>2000-01-01T03:18:33.000Z</time>
      </trkpt>
      <trkpt lat="45.10408" lon="2.69401">
        <ele>1586.3</ele>
        <time>2000-01-01T03:18:43.000Z</time>
      </trkpt>
      <trkpt lat="45.104" lon="2.69416">
        <ele>1583</ele>
        <time>2000-01-01T03:18:53.000Z</time>
      </trkpt>
      <trkpt lat="45.10396" lon="2.69439">
        <ele>1594.5</ele>
        <time>2000-01-01T03:19:03.000Z</time>
      </trkpt>
      <trkpt lat="45.10392" lon="2.69463">
        <ele>1589</ele>
        <time>2000-01-01T03:19:13.000Z</time>
      </trkpt>
      <trkpt lat="45.1039" lon="2.69487">
        <ele>1604.5</ele>
        <time>2000-01-01T03:19:23.000Z</time>
      </trkpt>
      <trkpt lat="45.10389" lon="2.6951">
        <ele>1599</ele>
        <time>2000-01-01T03:19:33.000Z</time>
      </trkpt>
      <trkpt lat="45.10374" lon="2.69497">
        <ele>1614.1</ele>
        <time>2000-01-01T03:19:43.000Z</time>
      </trkpt>
      <trkpt lat="45.10363" lon="2.69515">
        <ele>1608</ele>
        <time>2000-01-01T03:19:53.000Z</time>
      </trkpt>
      <trkpt lat="45.10352" lon="2.69531">
        <ele>1627.3</ele>
        <time>2000-01-01T03:20:03.000Z</time>
      </trkpt>
      <trkpt lat="45.10343" lon="2.69545">
        <ele>1622</ele>
        <time>2000-01-01T03:20:13.000Z</time>
      </trkpt>
      <trkpt lat="45.10345" lon="2.69585">
        <ele>1630</ele>
        <time>2000-01-01T03:20:23.000Z</time>
      </trkpt>
      <trkpt lat="45.10349" lon="2.69632">
        <ele>1635</ele>
        <time>2000-01-01T03:20:33.000Z</time>
      </trkpt>
      <trkpt lat="45.10361" lon="2.69669">
        <ele>1638</ele>
        <time>2000-01-01T03:20:43.000Z</time>
      </trkpt>
      <trkpt lat="45.10371" lon="2.69705">
        <ele>1642</ele>
        <time>2000-01-01T03:20:53.000Z</time>
      </trkpt>
      <trkpt lat="45.1038" lon="2.69745">
        <ele>1642</ele>
        <time>2000-01-01T03:21:03.000Z</time>
      </trkpt>
      <trkpt lat="45.1039" lon="2.69771">
        <ele>1639</ele>
        <time>2000-01-01T03:21:13.000Z</time>
      </trkpt>
      <trkpt lat="45.10388" lon="2.69771">
        <ele>1637.4</ele>
        <time>2000-01-01T03:21:23.000Z</time>
      </trkpt>
      <trkpt lat="45.10393" lon="2.69788">
        <ele>1637.9</ele>
        <time>2000-01-01T03:21:33.000Z</time>
      </trkpt>
      <trkpt lat="45.10396" lon="2.698">
        <ele>1638.5</ele>
        <time>2000-01-01T03:21:43.000Z</time>
      </trkpt>
      <trkpt lat="45.104" lon="2.69813">
        <ele>1638.3</ele>
        <time>2000-01-01T03:21:53.000Z</time>
      </trkpt>
      <trkpt lat="45.10402" lon="2.69822">
        <ele>1638.3</ele>
        <time>2000-01-01T03:22:03.000Z</time>
      </trkpt>
      <trkpt lat="45.10407" lon="2.69834">
        <ele>1639.7</ele>
        <time>2000-01-01T03:22:13.000Z</time>
      </trkpt>
      <trkpt lat="45.10412" lon="2.69848">
        <ele>1641</ele>
        <time>2000-01-01T03:22:23.000Z</time>
      </trkpt>
      <trkpt lat="45.10414" lon="2.69854">
        <ele>1642.2</ele>
        <time>2000-01-01T03:22:33.000Z</time>
      </trkpt>
      <trkpt lat="45.10415" lon="2.69858">
        <ele>1643</ele>
        <time>2000-01-01T03:22:43.000Z</time>
      </trkpt>
      <trkpt lat="45.10416" lon="2.69862">
        <ele>1641</ele>
        <time>2000-01-01T03:22:53.000Z</time>
      </trkpt>
      <trkpt lat="45.10419" lon="2.69875">
        <ele>1644.8</ele>
        <time>2000-01-01T03:23:03.000Z</time>
      </trkpt>
      <trkpt lat="45.10421" lon="2.69874">
        <ele>1644.1</ele>
        <time>2000-01-01T03:23:13.000Z</time>
      </trkpt>
      <trkpt lat="45.10421" lon="2.69874">
        <ele>1644.1</ele>
        <time>2000-01-01T03:23:23.000Z</time>
      </trkpt>
      <trkpt lat="45.10419" lon="2.69875">
        <ele>1644.8</ele>
        <time>2000-01-01T03:23:33.000Z</time>
      </trkpt>
      <trkpt lat="45.10419" lon="2.69875">
        <ele>1644.8</ele>
        <time>2000-01-01T03:23:43.000Z</time>
      </trkpt>
      <trkpt lat="45.1042" lon="2.69881">
        <ele>1645.2</ele>
        <time>2000-01-01T03:23:53.000Z</time>
      </trkpt>
      <trkpt lat="45.10422" lon="2.69886">
        <ele>1643</ele>
        <time>2000-01-01T03:24:03.000Z</time>
      </trkpt>
      <trkpt lat="45.10425" lon="2.69896">
        <ele>1645.8</ele>
        <time>2000-01-01T03:24:13.000Z</time>
      </trkpt>
      <trkpt lat="45.10426" lon="2.69901">
        <ele>1646.3</ele>
        <time>2000-01-01T03:24:23.000Z</time>
      </trkpt>
      <trkpt lat="45.10428" lon="2.69904">
        <ele>1646.3</ele>
        <time>2000-01-01T03:24:33.000Z</time>
      </trkpt>
      <trkpt lat="45.10431" lon="2.69908">
        <ele>1646.5</ele>
        <time>2000-01-01T03:24:43.000Z</time>
      </trkpt>
      <trkpt lat="45.10435" lon="2.69914">
        <ele>1646</ele>
        <time>2000-01-01T03:24:53.000Z</time>
      </trkpt>
      <trkpt lat="45.10437" lon="2.69918">
        <ele>1647.5</ele>
        <time>2000-01-01T03:25:03.000Z</time>
      </trkpt>
      <trkpt lat="45.10439" lon="2.69921">
        <ele>1647.3</ele>
        <time>2000-01-01T03:25:13.000Z</time>
      </trkpt>
      <trkpt lat="45.10444" lon="2.69924">
        <ele>1647.3</ele>
        <time>2000-01-01T03:25:23.000Z</time>
      </trkpt>
      <trkpt lat="45.10447" lon="2.69926">
        <ele>1646.8</ele>
        <time>2000-01-01T03:25:33.000Z</time>
      </trkpt>
      <trkpt lat="45.10451" lon="2.69929">
        <ele>1647</ele>
        <time>2000-01-01T03:25:43.000Z</time>
      </trkpt>
      <trkpt lat="45.10455" lon="2.69932">
        <ele>1645.7</ele>
        <time>2000-01-01T03:25:53.000Z</time>
      </trkpt>
      <trkpt lat="45.1046" lon="2.69938">
        <ele>1645.6</ele>
        <time>2000-01-01T03:26:03.000Z</time>
      </trkpt>
      <trkpt lat="45.10465" lon="2.69945">
        <ele>1645.7</ele>
        <time>2000-01-01T03:26:13.000Z</time>
      </trkpt>
      <trkpt lat="45.10471" lon="2.69953">
        <ele>1646.5</ele>
        <time>2000-01-01T03:26:23.000Z</time>
      </trkpt>
      <trkpt lat="45.10477" lon="2.69963">
        <ele>1642.4</ele>
        <time>2000-01-01T03:26:33.000Z</time>
      </trkpt>
      <trkpt lat="45.10483" lon="2.69968">
        <ele>1641.2</ele>
        <time>2000-01-01T03:26:43.000Z</time>
      </trkpt>
      <trkpt lat="45.10488" lon="2.69974">
        <ele>1646</ele>
        <time>2000-01-01T03:26:53.000Z</time>
      </trkpt>
      <trkpt lat="45.10496" lon="2.69982">
        <ele>1638.3</ele>
        <time>2000-01-01T03:27:03.000Z</time>
      </trkpt>
      <trkpt lat="45.10502" lon="2.69989">
        <ele>1637.3</ele>
        <time>2000-01-01T03:27:13.000Z</time>
      </trkpt>
      <trkpt lat="45.1051" lon="2.69998">
        <ele>1643</ele>
        <time>2000-01-01T03:27:23.000Z</time>
      </trkpt>
      <trkpt lat="45.10517" lon="2.70007">
        <ele>1634.3</ele>
        <time>2000-01-01T03:27:33.000Z</time>
      </trkpt>
      <trkpt lat="45.1052" lon="2.70013">
        <ele>1633.9</ele>
        <time>2000-01-01T03:27:43.000Z</time>
      </trkpt>
      <trkpt lat="45.10526" lon="2.70023">
        <ele>1639</ele>
        <time>2000-01-01T03:27:53.000Z</time>
      </trkpt>
      <trkpt lat="45.10531" lon="2.70031">
        <ele>1634.4</ele>
        <time>2000-01-01T03:28:03.000Z</time>
      </trkpt>
      <trkpt lat="45.10533" lon="2.70036">
        <ele>1633.1</ele>
        <time>2000-01-01T03:28:13.000Z</time>
      </trkpt>
      <trkpt lat="45.10535" lon="2.70039">
        <ele>1632.5</ele>
        <time>2000-01-01T03:28:23.000Z</time>
      </trkpt>
      <trkpt lat="45.10537" lon="2.70044">
        <ele>1631.8</ele>
        <time>2000-01-01T03:28:33.000Z</time>
      </trkpt>
      <trkpt lat="45.10537" lon="2.70046">
        <ele>1636</ele>
        <time>2000-01-01T03:28:43.000Z</time>
      </trkpt>
      <trkpt lat="45.10536" lon="2.70048">
        <ele>1631.3</ele>
        <time>2000-01-01T03:28:53.000Z</time>
      </trkpt>
      <trkpt lat="45.10536" lon="2.7005">
        <ele>1631.1</ele>
        <time>2000-01-01T03:29:03.000Z</time>
      </trkpt>
      <trkpt lat="45.10537" lon="2.70054">
        <ele>1630.8</ele>
        <time>2000-01-01T03:29:13.000Z</time>
      </trkpt>
      <trkpt lat="45.10539" lon="2.70059">
        <ele>1630.5</ele>
        <time>2000-01-01T03:29:23.000Z</time>
      </trkpt>
      <trkpt lat="45.10541" lon="2.70067">
        <ele>1630</ele>
        <time>2000-01-01T03:29:33.000Z</time>
      </trkpt>
      <trkpt lat="45.10542" lon="2.70076">
        <ele>1635</ele>
        <time>2000-01-01T03:29:43.000Z</time>
      </trkpt>
      <trkpt lat="45.10543" lon="2.70078">
        <ele>1629.7</ele>
        <time>2000-01-01T03:29:53.000Z</time>
      </trkpt>
      <trkpt lat="45.10545" lon="2.70083">
        <ele>1630.3</ele>
        <time>2000-01-01T03:30:03.000Z</time>
      </trkpt>
      <trkpt lat="45.10546" lon="2.70088">
        <ele>1629.8</ele>
        <time>2000-01-01T03:30:13.000Z</time>
      </trkpt>
      <trkpt lat="45.10546" lon="2.70096">
        <ele>1628.1</ele>
        <time>2000-01-01T03:30:23.000Z</time>
      </trkpt>
      <trkpt lat="45.10548" lon="2.70107">
        <ele>1631</ele>
        <time>2000-01-01T03:30:33.000Z</time>
      </trkpt>
      <trkpt lat="45.1055" lon="2.70112">
        <ele>1627.3</ele>
        <time>2000-01-01T03:30:43.000Z</time>
      </trkpt>
      <trkpt lat="45.10552" lon="2.70118">
        <ele>1627.7</ele>
        <time>2000-01-01T03:30:53.000Z</time>
      </trkpt>
      <trkpt lat="45.10553" lon="2.70123">
        <ele>1627.6</ele>
        <time>2000-01-01T03:31:03.000Z</time>
      </trkpt>
      <trkpt lat="45.10553" lon="2.70127">
        <ele>1627.1</ele>
        <time>2000-01-01T03:31:13.000Z</time>
      </trkpt>
      <trkpt lat="45.10553" lon="2.70134">
        <ele>1626</ele>
        <time>2000-01-01T03:31:23.000Z</time>
      </trkpt>
      <trkpt lat="45.10553" lon="2.70139">
        <ele>1625.3</ele>
        <time>2000-01-01T03:31:33.000Z</time>
      </trkpt>
      <trkpt lat="45.10553" lon="2.70144">
        <ele>1625</ele>
        <time>2000-01-01T03:31:43.000Z</time>
      </trkpt>
      <trkpt lat="45.10552" lon="2.70151">
        <ele>1623.9</ele>
        <time>2000-01-01T03:31:53.000Z</time>
      </trkpt>
      <trkpt lat="45.10552" lon="2.70157">
        <ele>1623.5</ele>
        <time>2000-01-01T03:32:03.000Z</time>
      </trkpt>
      <trkpt lat="45.10553" lon="2.70165">
        <ele>1624</ele>
        <time>2000-01-01T03:32:13.000Z</time>
      </trkpt>
      <trkpt lat="45.10554" lon="2.70173">
        <ele>1623.6</ele>
        <time>2000-01-01T03:32:23.000Z</time>
      </trkpt>
      <trkpt lat="45.10555" lon="2.70181">
        <ele>1623.6</ele>
        <time>2000-01-01T03:32:33.000Z</time>
      </trkpt>
      <trkpt lat="45.10555" lon="2.70196">
        <ele>1622</ele>
        <time>2000-01-01T03:32:43.000Z</time>
      </trkpt>
      <trkpt lat="45.10554" lon="2.702">
        <ele>1622.8</ele>
        <time>2000-01-01T03:32:53.000Z</time>
      </trkpt>
      <trkpt lat="45.10554" lon="2.70204">
        <ele>1623.3</ele>
        <time>2000-01-01T03:33:03.000Z</time>
      </trkpt>
      <trkpt lat="45.10552" lon="2.70209">
        <ele>1622.7</ele>
        <time>2000-01-01T03:33:13.000Z</time>
      </trkpt>
      <trkpt lat="45.1055" lon="2.70212">
        <ele>1621.7</ele>
        <time>2000-01-01T03:33:23.000Z</time>
      </trkpt>
      <trkpt lat="45.10549" lon="2.70217">
        <ele>1621.6</ele>
        <time>2000-01-01T03:33:33.000Z</time>
      </trkpt>
      <trkpt lat="45.10548" lon="2.70224">
        <ele>1622</ele>
        <time>2000-01-01T03:33:43.000Z</time>
      </trkpt>
      <trkpt lat="45.10547" lon="2.70237">
        <ele>1622.1</ele>
        <time>2000-01-01T03:33:53.000Z</time>
      </trkpt>
      <trkpt lat="45.10548" lon="2.70241">
        <ele>1623.3</ele>
        <time>2000-01-01T03:34:03.000Z</time>
      </trkpt>
      <trkpt lat="45.10547" lon="2.70248">
        <ele>1623.1</ele>
        <time>2000-01-01T03:34:13.000Z</time>
      </trkpt>
      <trkpt lat="45.10548" lon="2.70252">
        <ele>1620</ele>
        <time>2000-01-01T03:34:23.000Z</time>
      </trkpt>
      <trkpt lat="45.10548" lon="2.70257">
        <ele>1625</ele>
        <time>2000-01-01T03:34:33.000Z</time>
      </trkpt>
      <trkpt lat="45.10548" lon="2.70264">
        <ele>1625.9</ele>
        <time>2000-01-01T03:34:43.000Z</time>
      </trkpt>
      <trkpt lat="45.10545" lon="2.70272">
        <ele>1624.6</ele>
        <time>2000-01-01T03:34:53.000Z</time>
      </trkpt>
      <trkpt lat="45.10543" lon="2.70278">
        <ele>1620</ele>
        <time>2000-01-01T03:35:03.000Z</time>
      </trkpt>
      <trkpt lat="45.10541" lon="2.70283">
        <ele>1623.1</ele>
        <time>2000-01-01T03:35:13.000Z</time>
      </trkpt>
      <trkpt lat="45.10541" lon="2.70287">
        <ele>1623.5</ele>
        <time>2000-01-01T03:35:23.000Z</time>
      </trkpt>
      <trkpt lat="45.10541" lon="2.70294">
        <ele>1624.3</ele>
        <time>2000-01-01T03:35:33.000Z</time>
      </trkpt>
      <trkpt lat="45.1054" lon="2.70299">
        <ele>1624.2</ele>
        <time>2000-01-01T03:35:43.000Z</time>
      </trkpt>
      <trkpt lat="45.1054" lon="2.70305">
        <ele>1622</ele>
        <time>2000-01-01T03:35:53.000Z</time>
      </trkpt>
      <trkpt lat="45.10539" lon="2.70312">
        <ele>1624</ele>
        <time>2000-01-01T03:36:03.000Z</time>
      </trkpt>
      <trkpt lat="45.10539" lon="2.7032">
        <ele>1623.7</ele>
        <time>2000-01-01T03:36:13.000Z</time>
      </trkpt>
      <trkpt lat="45.10539" lon="2.70326">
        <ele>1623.5</ele>
        <time>2000-01-01T03:36:23.000Z</time>
      </trkpt>
      <trkpt lat="45.10539" lon="2.70331">
        <ele>1623.3</ele>
        <time>2000-01-01T03:36:33.000Z</time>
      </trkpt>
      <trkpt lat="45.10541" lon="2.70337">
        <ele>1623</ele>
        <time>2000-01-01T03:36:43.000Z</time>
      </trkpt>
      <trkpt lat="45.10543" lon="2.70343">
        <ele>1622.4</ele>
        <time>2000-01-01T03:36:53.000Z</time>
      </trkpt>
      <trkpt lat="45.10544" lon="2.70348">
        <ele>1621.4</ele>
        <time>2000-01-01T03:37:03.000Z</time>
      </trkpt>
      <trkpt lat="45.10548" lon="2.70352">
        <ele>1621.7</ele>
        <time>2000-01-01T03:37:13.000Z</time>
      </trkpt>
      <trkpt lat="45.1055" lon="2.70356">
        <ele>1621.1</ele>
        <time>2000-01-01T03:37:23.000Z</time>
      </trkpt>
      <trkpt lat="45.10553" lon="2.7036">
        <ele>1621.5</ele>
        <time>2000-01-01T03:37:33.000Z</time>
      </trkpt>
      <trkpt lat="45.10556" lon="2.70364">
        <ele>1619.9</ele>
        <time>2000-01-01T03:37:43.000Z</time>
      </trkpt>
      <trkpt lat="45.10564" lon="2.70375">
        <ele>1619</ele>
        <time>2000-01-01T03:37:53.000Z</time>
      </trkpt>
      <trkpt lat="45.10565" lon="2.70378">
        <ele>1618.3</ele>
        <time>2000-01-01T03:38:03.000Z</time>
      </trkpt>
      <trkpt lat="45.10567" lon="2.70384">
        <ele>1620</ele>
        <time>2000-01-01T03:38:13.000Z</time>
      </trkpt>
      <trkpt lat="45.1057" lon="2.70389">
        <ele>1617.3</ele>
        <time>2000-01-01T03:38:23.000Z</time>
      </trkpt>
      <trkpt lat="45.10571" lon="2.70393">
        <ele>1616.9</ele>
        <time>2000-01-01T03:38:33.000Z</time>
      </trkpt>
      <trkpt lat="45.10575" lon="2.70406">
        <ele>1615.9</ele>
        <time>2000-01-01T03:38:43.000Z</time>
      </trkpt>
      <trkpt lat="45.1058" lon="2.70416">
        <ele>1616</ele>
        <time>2000-01-01T03:38:53.000Z</time>
      </trkpt>
      <trkpt lat="45.10583" lon="2.70425">
        <ele>1616.3</ele>
        <time>2000-01-01T03:39:03.000Z</time>
      </trkpt>
      <trkpt lat="45.10584" lon="2.70431">
        <ele>1615.8</ele>
        <time>2000-01-01T03:39:13.000Z</time>
      </trkpt>
      <trkpt lat="45.10585" lon="2.70437">
        <ele>1615.4</ele>
        <time>2000-01-01T03:39:23.000Z</time>
      </trkpt>
      <trkpt lat="45.10587" lon="2.70443">
        <ele>1616</ele>
        <time>2000-01-01T03:39:33.000Z</time>
      </trkpt>
      <trkpt lat="45.10587" lon="2.70447">
        <ele>1615.3</ele>
        <time>2000-01-01T03:39:43.000Z</time>
      </trkpt>
      <trkpt lat="45.10587" lon="2.70453">
        <ele>1615</ele>
        <time>2000-01-01T03:39:53.000Z</time>
      </trkpt>
      <trkpt lat="45.10586" lon="2.70458">
        <ele>1614.1</ele>
        <time>2000-01-01T03:40:03.000Z</time>
      </trkpt>
      <trkpt lat="45.10585" lon="2.70468">
        <ele>1613.1</ele>
        <time>2000-01-01T03:40:13.000Z</time>
      </trkpt>
      <trkpt lat="45.10586" lon="2.7047">
        <ele>1616</ele>
        <time>2000-01-01T03:40:23.000Z</time>
      </trkpt>
      <trkpt lat="45.10586" lon="2.70478">
        <ele>1612.7</ele>
        <time>2000-01-01T03:40:33.000Z</time>
      </trkpt>
      <trkpt lat="45.10587" lon="2.70483">
        <ele>1612.6</ele>
        <time>2000-01-01T03:40:43.000Z</time>
      </trkpt>
      <trkpt lat="45.10588" lon="2.7049">
        <ele>1612.1</ele>
        <time>2000-01-01T03:40:53.000Z</time>
      </trkpt>
      <trkpt lat="45.10589" lon="2.70498">
        <ele>1613</ele>
        <time>2000-01-01T03:41:03.000Z</time>
      </trkpt>
      <trkpt lat="45.10589" lon="2.70507">
        <ele>1610.4</ele>
        <time>2000-01-01T03:41:13.000Z</time>
      </trkpt>
      <trkpt lat="45.10588" lon="2.70509">
        <ele>1609.5</ele>
        <time>2000-01-01T03:41:23.000Z</time>
      </trkpt>
      <trkpt lat="45.10588" lon="2.70513">
        <ele>1609</ele>
        <time>2000-01-01T03:41:33.000Z</time>
      </trkpt>
      <trkpt lat="45.10587" lon="2.70517">
        <ele>1607.8</ele>
        <time>2000-01-01T03:41:43.000Z</time>
      </trkpt>
      <trkpt lat="45.10587" lon="2.70521">
        <ele>1607.3</ele>
        <time>2000-01-01T03:41:53.000Z</time>
      </trkpt>
      <trkpt lat="45.10587" lon="2.70527">
        <ele>1611</ele>
        <time>2000-01-01T03:42:03.000Z</time>
      </trkpt>
      <trkpt lat="45.10587" lon="2.7053">
        <ele>1606.2</ele>
        <time>2000-01-01T03:42:13.000Z</time>
      </trkpt>
      <trkpt lat="45.10585" lon="2.70537">
        <ele>1604.5</ele>
        <time>2000-01-01T03:42:23.000Z</time>
      </trkpt>
      <trkpt lat="45.10585" lon="2.70541">
        <ele>1604.2</ele>
        <time>2000-01-01T03:42:33.000Z</time>
      </trkpt>
      <trkpt lat="45.10585" lon="2.70549">
        <ele>1603.7</ele>
        <time>2000-01-01T03:42:43.000Z</time>
      </trkpt>
      <trkpt lat="45.10585" lon="2.70557">
        <ele>1605</ele>
        <time>2000-01-01T03:42:53.000Z</time>
      </trkpt>
      <trkpt lat="45.10586" lon="2.70569">
        <ele>1603</ele>
        <time>2000-01-01T03:43:03.000Z</time>
      </trkpt>
      <trkpt lat="45.10587" lon="2.70576">
        <ele>1603</ele>
        <time>2000-01-01T03:43:13.000Z</time>
      </trkpt>
      <trkpt lat="45.10588" lon="2.70579">
        <ele>1603.1</ele>
        <time>2000-01-01T03:43:23.000Z</time>
      </trkpt>
      <trkpt lat="45.10589" lon="2.70584">
        <ele>1603</ele>
        <time>2000-01-01T03:43:33.000Z</time>
      </trkpt>
      <trkpt lat="45.10595" lon="2.70594">
        <ele>1600.9</ele>
        <time>2000-01-01T03:43:43.000Z</time>
      </trkpt>
      <trkpt lat="45.10597" lon="2.70597">
        <ele>1600.5</ele>
        <time>2000-01-01T03:43:53.000Z</time>
      </trkpt>
      <trkpt lat="45.106" lon="2.706">
        <ele>1600.6</ele>
        <time>2000-01-01T03:44:03.000Z</time>
      </trkpt>
      <trkpt lat="45.10602" lon="2.70602">
        <ele>1600.8</ele>
        <time>2000-01-01T03:44:13.000Z</time>
      </trkpt>
      <trkpt lat="45.10605" lon="2.70606">
        <ele>1603</ele>
        <time>2000-01-01T03:44:23.000Z</time>
      </trkpt>
      <trkpt lat="45.10606" lon="2.7061">
        <ele>1599.8</ele>
        <time>2000-01-01T03:44:33.000Z</time>
      </trkpt>
      <trkpt lat="45.10608" lon="2.70621">
        <ele>1597.1</ele>
        <time>2000-01-01T03:44:43.000Z</time>
      </trkpt>
      <trkpt lat="45.10609" lon="2.70624">
        <ele>1596.7</ele>
        <time>2000-01-01T03:44:53.000Z</time>
      </trkpt>
      <trkpt lat="45.10611" lon="2.70627">
        <ele>1596.8</ele>
        <time>2000-01-01T03:45:03.000Z</time>
      </trkpt>
      <trkpt lat="45.10617" lon="2.70637">
        <ele>1600</ele>
        <time>2000-01-01T03:45:13.000Z</time>
      </trkpt>
      <trkpt lat="45.10621" lon="2.70639">
        <ele>1595.8</ele>
        <time>2000-01-01T03:45:23.000Z</time>
      </trkpt>
      <trkpt lat="45.10623" lon="2.70642">
        <ele>1595.1</ele>
        <time>2000-01-01T03:45:33.000Z</time>
      </trkpt>
      <trkpt lat="45.10626" lon="2.70643">
        <ele>1595.6</ele>
        <time>2000-01-01T03:45:43.000Z</time>
      </trkpt>
      <trkpt lat="45.10631" lon="2.70646">
        <ele>1595.8</ele>
        <time>2000-01-01T03:45:53.000Z</time>
      </trkpt>
      <trkpt lat="45.10639" lon="2.70652">
        <ele>1596</ele>
        <time>2000-01-01T03:46:03.000Z</time>
      </trkpt>
      <trkpt lat="45.10641" lon="2.70655">
        <ele>1595.4</ele>
        <time>2000-01-01T03:46:13.000Z</time>
      </trkpt>
      <trkpt lat="45.10644" lon="2.70659">
        <ele>1594.8</ele>
        <time>2000-01-01T03:46:23.000Z</time>
      </trkpt>
      <trkpt lat="45.10647" lon="2.70662">
        <ele>1594.6</ele>
        <time>2000-01-01T03:46:33.000Z</time>
      </trkpt>
      <trkpt lat="45.10651" lon="2.70664">
        <ele>1595.1</ele>
        <time>2000-01-01T03:46:43.000Z</time>
      </trkpt>
      <trkpt lat="45.10653" lon="2.70666">
        <ele>1594.9</ele>
        <time>2000-01-01T03:46:53.000Z</time>
      </trkpt>
      <trkpt lat="45.10654" lon="2.70669">
        <ele>1596</ele>
        <time>2000-01-01T03:47:03.000Z</time>
      </trkpt>
      <trkpt lat="45.10656" lon="2.70673">
        <ele>1593.3</ele>
        <time>2000-01-01T03:47:13.000Z</time>
      </trkpt>
      <trkpt lat="45.10658" lon="2.70676">
        <ele>1593</ele>
        <time>2000-01-01T03:47:23.000Z</time>
      </trkpt>
      <trkpt lat="45.10661" lon="2.70678">
        <ele>1593.3</ele>
        <time>2000-01-01T03:47:33.000Z</time>
      </trkpt>
      <trkpt lat="45.10665" lon="2.70679">
        <ele>1594.4</ele>
        <time>2000-01-01T03:47:43.000Z</time>
      </trkpt>
      <trkpt lat="45.10667" lon="2.70682">
        <ele>1594.2</ele>
        <time>2000-01-01T03:47:53.000Z</time>
      </trkpt>
      <trkpt lat="45.10668" lon="2.70686">
        <ele>1594</ele>
        <time>2000-01-01T03:48:03.000Z</time>
      </trkpt>
      <trkpt lat="45.1067" lon="2.70688">
        <ele>1593.7</ele>
        <time>2000-01-01T03:48:13.000Z</time>
      </trkpt>
      <trkpt lat="45.10674" lon="2.70696">
        <ele>1593.4</ele>
        <time>2000-01-01T03:48:23.000Z</time>
      </trkpt>
      <trkpt lat="45.10676" lon="2.70699">
        <ele>1593.8</ele>
        <time>2000-01-01T03:48:33.000Z</time>
      </trkpt>
      <trkpt lat="45.10676" lon="2.70702">
        <ele>1593.2</ele>
        <time>2000-01-01T03:48:43.000Z</time>
      </trkpt>
      <trkpt lat="45.10677" lon="2.70705">
        <ele>1593.1</ele>
        <time>2000-01-01T03:48:53.000Z</time>
      </trkpt>
      <trkpt lat="45.10678" lon="2.70708">
        <ele>1593</ele>
        <time>2000-01-01T03:49:03.000Z</time>
      </trkpt>
      <trkpt lat="45.10679" lon="2.70713">
        <ele>1593</ele>
        <time>2000-01-01T03:49:13.000Z</time>
      </trkpt>
      <trkpt lat="45.1068" lon="2.70716">
        <ele>1592.4</ele>
        <time>2000-01-01T03:49:23.000Z</time>
      </trkpt>
      <trkpt lat="45.10681" lon="2.70719">
        <ele>1592.4</ele>
        <time>2000-01-01T03:49:33.000Z</time>
      </trkpt>
      <trkpt lat="45.10683" lon="2.70722">
        <ele>1592.9</ele>
        <time>2000-01-01T03:49:43.000Z</time>
      </trkpt>
      <trkpt lat="45.10684" lon="2.70725">
        <ele>1593</ele>
        <time>2000-01-01T03:49:53.000Z</time>
      </trkpt>
      <trkpt lat="45.10685" lon="2.7073">
        <ele>1592.8</ele>
        <time>2000-01-01T03:50:03.000Z</time>
      </trkpt>
      <trkpt lat="45.10686" lon="2.70736">
        <ele>1592.5</ele>
        <time>2000-01-01T03:50:13.000Z</time>
      </trkpt>
      <trkpt lat="45.10687" lon="2.70742">
        <ele>1592</ele>
        <time>2000-01-01T03:50:23.000Z</time>
      </trkpt>
      <trkpt lat="45.10687" lon="2.70747">
        <ele>1591.4</ele>
        <time>2000-01-01T03:50:33.000Z</time>
      </trkpt>
      <trkpt lat="45.10687" lon="2.7075">
        <ele>1591</ele>
        <time>2000-01-01T03:50:43.000Z</time>
      </trkpt>
      <trkpt lat="45.10689" lon="2.70756">
        <ele>1591.8</ele>
        <time>2000-01-01T03:50:53.000Z</time>
      </trkpt>
      <trkpt lat="45.10689" lon="2.70763">
        <ele>1591.4</ele>
        <time>2000-01-01T03:51:03.000Z</time>
      </trkpt>
      <trkpt lat="45.1069" lon="2.70768">
        <ele>1591.7</ele>
        <time>2000-01-01T03:51:13.000Z</time>
      </trkpt>
      <trkpt lat="45.10692" lon="2.70774">
        <ele>1592</ele>
        <time>2000-01-01T03:51:23.000Z</time>
      </trkpt>
      <trkpt lat="45.10693" lon="2.7078">
        <ele>1593.1</ele>
        <time>2000-01-01T03:51:33.000Z</time>
      </trkpt>
      <trkpt lat="45.10693" lon="2.70785">
        <ele>1593.1</ele>
        <time>2000-01-01T03:51:43.000Z</time>
      </trkpt>
      <trkpt lat="45.10695" lon="2.70794">
        <ele>1594.3</ele>
        <time>2000-01-01T03:51:53.000Z</time>
      </trkpt>
      <trkpt lat="45.10695" lon="2.70797">
        <ele>1594.3</ele>
        <time>2000-01-01T03:52:03.000Z</time>
      </trkpt>
      <trkpt lat="45.10694" lon="2.70801">
        <ele>1592</ele>
        <time>2000-01-01T03:52:13.000Z</time>
      </trkpt>
      <trkpt lat="45.10689" lon="2.70813">
        <ele>1591</ele>
        <time>2000-01-01T03:52:23.000Z</time>
      </trkpt>
      <trkpt lat="45.10689" lon="2.70818">
        <ele>1591</ele>
        <time>2000-01-01T03:52:33.000Z</time>
      </trkpt>
      <trkpt lat="45.10689" lon="2.70822">
        <ele>1591.1</ele>
        <time>2000-01-01T03:52:43.000Z</time>
      </trkpt>
      <trkpt lat="45.10689" lon="2.70824">
        <ele>1591.1</ele>
        <time>2000-01-01T03:52:53.000Z</time>
      </trkpt>
      <trkpt lat="45.10693" lon="2.70835">
        <ele>1592</ele>
        <time>2000-01-01T03:53:03.000Z</time>
      </trkpt>
      <trkpt lat="45.10696" lon="2.70842">
        <ele>1593.9</ele>
        <time>2000-01-01T03:53:13.000Z</time>
      </trkpt>
      <trkpt lat="45.10698" lon="2.70846">
        <ele>1594.6</ele>
        <time>2000-01-01T03:53:23.000Z</time>
      </trkpt>
      <trkpt lat="45.10699" lon="2.70849">
        <ele>1594.9</ele>
        <time>2000-01-01T03:53:33.000Z</time>
      </trkpt>
      <trkpt lat="45.10698" lon="2.70855">
        <ele>1593.7</ele>
        <time>2000-01-01T03:53:43.000Z</time>
      </trkpt>
      <trkpt lat="45.10697" lon="2.70861">
        <ele>1592</ele>
        <time>2000-01-01T03:53:53.000Z</time>
      </trkpt>
      <trkpt lat="45.10697" lon="2.70864">
        <ele>1592.9</ele>
        <time>2000-01-01T03:54:03.000Z</time>
      </trkpt>
      <trkpt lat="45.10696" lon="2.70869">
        <ele>1593.1</ele>
        <time>2000-01-01T03:54:13.000Z</time>
      </trkpt>
      <trkpt lat="45.10695" lon="2.70873">
        <ele>1593</ele>
        <time>2000-01-01T03:54:23.000Z</time>
      </trkpt>
      <trkpt lat="45.10694" lon="2.70877">
        <ele>1593</ele>
        <time>2000-01-01T03:54:33.000Z</time>
      </trkpt>
      <trkpt lat="45.10691" lon="2.70881">
        <ele>1591.8</ele>
        <time>2000-01-01T03:54:43.000Z</time>
      </trkpt>
      <trkpt lat="45.10688" lon="2.70885">
        <ele>1592</ele>
        <time>2000-01-01T03:54:53.000Z</time>
      </trkpt>
      <trkpt lat="45.10687" lon="2.70889">
        <ele>1590.7</ele>
        <time>2000-01-01T03:55:03.000Z</time>
      </trkpt>
      <trkpt lat="45.10683" lon="2.70903">
        <ele>1592</ele>
        <time>2000-01-01T03:55:13.000Z</time>
      </trkpt>
      <trkpt lat="45.10677" lon="2.70916">
        <ele>1590</ele>
        <time>2000-01-01T03:55:23.000Z</time>
      </trkpt>
      <trkpt lat="45.10672" lon="2.70924">
        <ele>1588.2</ele>
        <time>2000-01-01T03:55:33.000Z</time>
      </trkpt>
      <trkpt lat="45.10671" lon="2.70927">
        <ele>1587.2</ele>
        <time>2000-01-01T03:55:43.000Z</time>
      </trkpt>
      <trkpt lat="45.10671" lon="2.70931">
        <ele>1586.7</ele>
        <time>2000-01-01T03:55:53.000Z</time>
      </trkpt>
      <trkpt lat="45.10672" lon="2.70937">
        <ele>1586.6</ele>
        <time>2000-01-01T03:56:03.000Z</time>
      </trkpt>
      <trkpt lat="45.1068" lon="2.70952">
        <ele>1589</ele>
        <time>2000-01-01T03:56:13.000Z</time>
      </trkpt>
      <trkpt lat="45.10685" lon="2.70962">
        <ele>1590.7</ele>
        <time>2000-01-01T03:56:23.000Z</time>
      </trkpt>
      <trkpt lat="45.10687" lon="2.70976">
        <ele>1589.3</ele>
        <time>2000-01-01T03:56:33.000Z</time>
      </trkpt>
      <trkpt lat="45.10688" lon="2.70983">
        <ele>1589</ele>
        <time>2000-01-01T03:56:43.000Z</time>
      </trkpt>
      <trkpt lat="45.10691" lon="2.70989">
        <ele>1589.8</ele>
        <time>2000-01-01T03:56:53.000Z</time>
      </trkpt>
      <trkpt lat="45.10692" lon="2.70992">
        <ele>1590</ele>
        <time>2000-01-01T03:57:03.000Z</time>
      </trkpt>
      <trkpt lat="45.10691" lon="2.70996">
        <ele>1588.7</ele>
        <time>2000-01-01T03:57:13.000Z</time>
      </trkpt>
      <trkpt lat="45.10689" lon="2.7101">
        <ele>1589</ele>
        <time>2000-01-01T03:57:23.000Z</time>
      </trkpt>
      <trkpt lat="45.1069" lon="2.71016">
        <ele>1588</ele>
        <time>2000-01-01T03:57:33.000Z</time>
      </trkpt>
      <trkpt lat="45.10689" lon="2.7102">
        <ele>1587.6</ele>
        <time>2000-01-01T03:57:43.000Z</time>
      </trkpt>
      <trkpt lat="45.10687" lon="2.71024">
        <ele>1586.6</ele>
        <time>2000-01-01T03:57:53.000Z</time>
      </trkpt>
      <trkpt lat="45.10684" lon="2.7104">
        <ele>1585</ele>
        <time>2000-01-01T03:58:03.000Z</time>
      </trkpt>
      <trkpt lat="45.10684" lon="2.71045">
        <ele>1587.1</ele>
        <time>2000-01-01T03:58:13.000Z</time>
      </trkpt>
      <trkpt lat="45.10682" lon="2.71048">
        <ele>1586.3</ele>
        <time>2000-01-01T03:58:23.000Z</time>
      </trkpt>
      <trkpt lat="45.10679" lon="2.71052">
        <ele>1585.2</ele>
        <time>2000-01-01T03:58:33.000Z</time>
      </trkpt>
      <trkpt lat="45.10677" lon="2.71058">
        <ele>1585.2</ele>
        <time>2000-01-01T03:58:43.000Z</time>
      </trkpt>
      <trkpt lat="45.10674" lon="2.71063">
        <ele>1585.1</ele>
        <time>2000-01-01T03:58:53.000Z</time>
      </trkpt>
      <trkpt lat="45.1066" lon="2.71074">
        <ele>1585</ele>
        <time>2000-01-01T03:59:03.000Z</time>
      </trkpt>
      <trkpt lat="45.10656" lon="2.71078">
        <ele>1581.5</ele>
        <time>2000-01-01T03:59:13.000Z</time>
      </trkpt>
      <trkpt lat="45.10646" lon="2.71094">
        <ele>1583</ele>
        <time>2000-01-01T03:59:23.000Z</time>
      </trkpt>
      <trkpt lat="45.10636" lon="2.71104">
        <ele>1580.7</ele>
        <time>2000-01-01T03:59:33.000Z</time>
      </trkpt>
      <trkpt lat="45.10622" lon="2.71112">
        <ele>1580</ele>
        <time>2000-01-01T03:59:43.000Z</time>
      </trkpt>
      <trkpt lat="45.10617" lon="2.71115">
        <ele>1578.3</ele>
        <time>2000-01-01T03:59:53.000Z</time>
      </trkpt>
      <trkpt lat="45.10612" lon="2.71121">
        <ele>1578.9</ele>
        <time>2000-01-01T04:00:03.000Z</time>
      </trkpt>
      <trkpt lat="45.10608" lon="2.71121">
        <ele>1577.5</ele>
        <time>2000-01-01T04:00:13.000Z</time>
      </trkpt>
      <trkpt lat="45.10604" lon="2.71124">
        <ele>1579</ele>
        <time>2000-01-01T04:00:23.000Z</time>
      </trkpt>
      <trkpt lat="45.10602" lon="2.71129">
        <ele>1578.1</ele>
        <time>2000-01-01T04:00:33.000Z</time>
      </trkpt>
      <trkpt lat="45.10599" lon="2.71132">
        <ele>1577.9</ele>
        <time>2000-01-01T04:00:43.000Z</time>
      </trkpt>
      <trkpt lat="45.10593" lon="2.71139">
        <ele>1577.8</ele>
        <time>2000-01-01T04:00:53.000Z</time>
      </trkpt>
      <trkpt lat="45.10589" lon="2.71145">
        <ele>1578.5</ele>
        <time>2000-01-01T04:01:03.000Z</time>
      </trkpt>
      <trkpt lat="45.10586" lon="2.71164">
        <ele>1577.4</ele>
        <time>2000-01-01T04:01:13.000Z</time>
      </trkpt>
      <trkpt lat="45.10584" lon="2.71171">
        <ele>1578</ele>
        <time>2000-01-01T04:01:23.000Z</time>
      </trkpt>
      <trkpt lat="45.1058" lon="2.71176">
        <ele>1575</ele>
        <time>2000-01-01T04:01:33.000Z</time>
      </trkpt>
      <trkpt lat="45.1058" lon="2.71181">
        <ele>1575.6</ele>
        <time>2000-01-01T04:01:43.000Z</time>
      </trkpt>
      <trkpt lat="45.10579" lon="2.71184">
        <ele>1575.4</ele>
        <time>2000-01-01T04:01:53.000Z</time>
      </trkpt>
      <trkpt lat="45.10575" lon="2.71187">
        <ele>1573.5</ele>
        <time>2000-01-01T04:02:03.000Z</time>
      </trkpt>
      <trkpt lat="45.10573" lon="2.71189">
        <ele>1572.6</ele>
        <time>2000-01-01T04:02:13.000Z</time>
      </trkpt>
      <trkpt lat="45.1057" lon="2.71197">
        <ele>1577</ele>
        <time>2000-01-01T04:02:23.000Z</time>
      </trkpt>
      <trkpt lat="45.10565" lon="2.71203">
        <ele>1572</ele>
        <time>2000-01-01T04:02:33.000Z</time>
      </trkpt>
      <trkpt lat="45.10561" lon="2.71207">
        <ele>1571.3</ele>
        <time>2000-01-01T04:02:43.000Z</time>
      </trkpt>
      <trkpt lat="45.10558" lon="2.71208">
        <ele>1570.1</ele>
        <time>2000-01-01T04:02:53.000Z</time>
      </trkpt>
      <trkpt lat="45.10552" lon="2.7121">
        <ele>1573</ele>
        <time>2000-01-01T04:03:03.000Z</time>
      </trkpt>
      <trkpt lat="45.1055" lon="2.71212">
        <ele>1567</ele>
        <time>2000-01-01T04:03:13.000Z</time>
      </trkpt>
      <trkpt lat="45.10547" lon="2.71216">
        <ele>1566.3</ele>
        <time>2000-01-01T04:03:23.000Z</time>
      </trkpt>
      <trkpt lat="45.10546" lon="2.71224">
        <ele>1567.8</ele>
        <time>2000-01-01T04:03:33.000Z</time>
      </trkpt>
      <trkpt lat="45.10539" lon="2.71238">
        <ele>1568</ele>
        <time>2000-01-01T04:03:43.000Z</time>
      </trkpt>
      <trkpt lat="45.10535" lon="2.71248">
        <ele>1565</ele>
        <time>2000-01-01T04:03:53.000Z</time>
      </trkpt>
      <trkpt lat="45.10533" lon="2.71255">
        <ele>1564.8</ele>
        <time>2000-01-01T04:04:03.000Z</time>
      </trkpt>
      <trkpt lat="45.10529" lon="2.71263">
        <ele>1565</ele>
        <time>2000-01-01T04:04:13.000Z</time>
      </trkpt>
      <trkpt lat="45.10527" lon="2.7127">
        <ele>1562.7</ele>
        <time>2000-01-01T04:04:23.000Z</time>
      </trkpt>
      <trkpt lat="45.10524" lon="2.71276">
        <ele>1561.7</ele>
        <time>2000-01-01T04:04:33.000Z</time>
      </trkpt>
      <trkpt lat="45.1052" lon="2.71279">
        <ele>1560.1</ele>
        <time>2000-01-01T04:04:43.000Z</time>
      </trkpt>
      <trkpt lat="45.10512" lon="2.71289">
        <ele>1562</ele>
        <time>2000-01-01T04:04:53.000Z</time>
      </trkpt>
      <trkpt lat="45.10508" lon="2.71294">
        <ele>1556.6</ele>
        <time>2000-01-01T04:05:03.000Z</time>
      </trkpt>
      <trkpt lat="45.10504" lon="2.71305">
        <ele>1556.3</ele>
        <time>2000-01-01T04:05:13.000Z</time>
      </trkpt>
      <trkpt lat="45.10501" lon="2.71308">
        <ele>1555.6</ele>
        <time>2000-01-01T04:05:23.000Z</time>
      </trkpt>
      <trkpt lat="45.10501" lon="2.71308">
        <ele>1555.6</ele>
        <time>2000-01-01T04:05:33.000Z</time>
      </trkpt>
      <trkpt lat="45.10492" lon="2.71314">
        <ele>1559</ele>
        <time>2000-01-01T04:05:43.000Z</time>
      </trkpt>
      <trkpt lat="45.10475" lon="2.71323">
        <ele>1554.5</ele>
        <time>2000-01-01T04:05:53.000Z</time>
      </trkpt>
      <trkpt lat="45.10469" lon="2.71324">
        <ele>1556.5</ele>
        <time>2000-01-01T04:06:03.000Z</time>
      </trkpt>
      <trkpt lat="45.10452" lon="2.71328">
        <ele>1551.2</ele>
        <time>2000-01-01T04:06:13.000Z</time>
      </trkpt>
      <trkpt lat="45.10445" lon="2.7133">
        <ele>1554</ele>
        <time>2000-01-01T04:06:23.000Z</time>
      </trkpt>
      <trkpt lat="45.10442" lon="2.71333">
        <ele>1549.4</ele>
        <time>2000-01-01T04:06:33.000Z</time>
      </trkpt>
      <trkpt lat="45.1044" lon="2.71336">
        <ele>1548.5</ele>
        <time>2000-01-01T04:06:43.000Z</time>
      </trkpt>
      <trkpt lat="45.1044" lon="2.71342">
        <ele>1549.1</ele>
        <time>2000-01-01T04:06:53.000Z</time>
      </trkpt>
      <trkpt lat="45.10437" lon="2.71351">
        <ele>1548</ele>
        <time>2000-01-01T04:07:03.000Z</time>
      </trkpt>
      <trkpt lat="45.10436" lon="2.7136">
        <ele>1549</ele>
        <time>2000-01-01T04:07:13.000Z</time>
      </trkpt>
      <trkpt lat="45.10436" lon="2.71367">
        <ele>1547.9</ele>
        <time>2000-01-01T04:07:23.000Z</time>
      </trkpt>
      <trkpt lat="45.10436" lon="2.71373">
        <ele>1547.5</ele>
        <time>2000-01-01T04:07:33.000Z</time>
      </trkpt>
      <trkpt lat="45.10437" lon="2.71402">
        <ele>1547</ele>
        <time>2000-01-01T04:07:43.000Z</time>
      </trkpt>
      <trkpt lat="45.10438" lon="2.71418">
        <ele>1545.3</ele>
        <time>2000-01-01T04:07:53.000Z</time>
      </trkpt>
      <trkpt lat="45.10438" lon="2.71426">
        <ele>1543.8</ele>
        <time>2000-01-01T04:08:03.000Z</time>
      </trkpt>
      <trkpt lat="45.10442" lon="2.71441">
        <ele>1545</ele>
        <time>2000-01-01T04:08:13.000Z</time>
      </trkpt>
      <trkpt lat="45.10441" lon="2.71454">
        <ele>1541.4</ele>
        <time>2000-01-01T04:08:23.000Z</time>
      </trkpt>
      <trkpt lat="45.1044" lon="2.71468">
        <ele>1543</ele>
        <time>2000-01-01T04:08:33.000Z</time>
      </trkpt>
      <trkpt lat="45.10436" lon="2.7148">
        <ele>1538.2</ele>
        <time>2000-01-01T04:08:43.000Z</time>
      </trkpt>
      <trkpt lat="45.10436" lon="2.71479">
        <ele>1538.1</ele>
        <time>2000-01-01T04:08:53.000Z</time>
      </trkpt>
      <trkpt lat="45.10436" lon="2.71479">
        <ele>1538.1</ele>
        <time>2000-01-01T04:09:03.000Z</time>
      </trkpt>
      <trkpt lat="45.10436" lon="2.7148">
        <ele>1538.2</ele>
        <time>2000-01-01T04:09:13.000Z</time>
      </trkpt>
      <trkpt lat="45.10425" lon="2.71522">
        <ele>1539</ele>
        <time>2000-01-01T04:09:23.000Z</time>
      </trkpt>
      <trkpt lat="45.10418" lon="2.71543">
        <ele>1535.4</ele>
        <time>2000-01-01T04:09:33.000Z</time>
      </trkpt>
      <trkpt lat="45.10413" lon="2.71551">
        <ele>1536</ele>
        <time>2000-01-01T04:09:43.000Z</time>
      </trkpt>
      <trkpt lat="45.10409" lon="2.71558">
        <ele>1533.7</ele>
        <time>2000-01-01T04:09:53.000Z</time>
      </trkpt>
      <trkpt lat="45.10406" lon="2.71567">
        <ele>1532.9</ele>
        <time>2000-01-01T04:10:03.000Z</time>
      </trkpt>
      <trkpt lat="45.10399" lon="2.71585">
        <ele>1535</ele>
        <time>2000-01-01T04:10:13.000Z</time>
      </trkpt>
      <trkpt lat="45.10395" lon="2.71594">
        <ele>1531.6</ele>
        <time>2000-01-01T04:10:23.000Z</time>
      </trkpt>
      <trkpt lat="45.10386" lon="2.716">
        <ele>1532.2</ele>
        <time>2000-01-01T04:10:33.000Z</time>
      </trkpt>
      <trkpt lat="45.10359" lon="2.71614">
        <ele>1534.5</ele>
        <time>2000-01-01T04:10:43.000Z</time>
      </trkpt>
      <trkpt lat="45.1033" lon="2.71632">
        <ele>1534</ele>
        <time>2000-01-01T04:10:53.000Z</time>
      </trkpt>
      <trkpt lat="45.10315" lon="2.7164">
        <ele>1529.4</ele>
        <time>2000-01-01T04:11:03.000Z</time>
      </trkpt>
      <trkpt lat="45.10307" lon="2.71646">
        <ele>1532</ele>
        <time>2000-01-01T04:11:13.000Z</time>
      </trkpt>
      <trkpt lat="45.10312" lon="2.71658">
        <ele>1528.9</ele>
        <time>2000-01-01T04:11:23.000Z</time>
      </trkpt>
      <trkpt lat="45.10324" lon="2.71676">
        <ele>1529.5</ele>
        <time>2000-01-01T04:11:33.000Z</time>
      </trkpt>
      <trkpt lat="45.10334" lon="2.7169">
        <ele>1526.3</ele>
        <time>2000-01-01T04:11:43.000Z</time>
      </trkpt>
      <trkpt lat="45.10347" lon="2.71706">
        <ele>1527</ele>
        <time>2000-01-01T04:11:53.000Z</time>
      </trkpt>
      <trkpt lat="45.10351" lon="2.7171">
        <ele>1519.4</ele>
        <time>2000-01-01T04:12:03.000Z</time>
      </trkpt>
      <trkpt lat="45.10359" lon="2.71711">
        <ele>1516.7</ele>
        <time>2000-01-01T04:12:13.000Z</time>
      </trkpt>
      <trkpt lat="45.10362" lon="2.7171">
        <ele>1515.8</ele>
        <time>2000-01-01T04:12:23.000Z</time>
      </trkpt>
      <trkpt lat="45.10364" lon="2.71707">
        <ele>1515.4</ele>
        <time>2000-01-01T04:12:33.000Z</time>
      </trkpt>
      <trkpt lat="45.10369" lon="2.71706">
        <ele>1520</ele>
        <time>2000-01-01T04:12:43.000Z</time>
      </trkpt>
      <trkpt lat="45.10372" lon="2.71704">
        <ele>1512.4</ele>
        <time>2000-01-01T04:12:53.000Z</time>
      </trkpt>
      <trkpt lat="45.10382" lon="2.717">
        <ele>1508.8</ele>
        <time>2000-01-01T04:13:03.000Z</time>
      </trkpt>
      <trkpt lat="45.10389" lon="2.71694">
        <ele>1513</ele>
        <time>2000-01-01T04:13:13.000Z</time>
      </trkpt>
      <trkpt lat="45.10398" lon="2.71682">
        <ele>1506</ele>
        <time>2000-01-01T04:13:23.000Z</time>
      </trkpt>
      <trkpt lat="45.10404" lon="2.71681">
        <ele>1503.6</ele>
        <time>2000-01-01T04:13:33.000Z</time>
      </trkpt>
      <trkpt lat="45.10416" lon="2.71682">
        <ele>1507</ele>
        <time>2000-01-01T04:13:43.000Z</time>
      </trkpt>
      <trkpt lat="45.1042" lon="2.7168">
        <ele>1496.8</ele>
        <time>2000-01-01T04:13:53.000Z</time>
      </trkpt>
      <trkpt lat="45.10425" lon="2.71678">
        <ele>1495.4</ele>
        <time>2000-01-01T04:14:03.000Z</time>
      </trkpt>
      <trkpt lat="45.10438" lon="2.71678">
        <ele>1496</ele>
        <time>2000-01-01T04:14:13.000Z</time>
      </trkpt>
      <trkpt lat="45.10444" lon="2.71681">
        <ele>1487</ele>
        <time>2000-01-01T04:14:23.000Z</time>
      </trkpt>
      <trkpt lat="45.10456" lon="2.7168">
        <ele>1483.2</ele>
        <time>2000-01-01T04:14:33.000Z</time>
      </trkpt>
      <trkpt lat="45.10474" lon="2.71684">
        <ele>1489</ele>
        <time>2000-01-01T04:14:43.000Z</time>
      </trkpt>
      <trkpt lat="45.1048" lon="2.71688">
        <ele>1472.1</ele>
        <time>2000-01-01T04:14:53.000Z</time>
      </trkpt>
      <trkpt lat="45.10482" lon="2.71691">
        <ele>1470.2</ele>
        <time>2000-01-01T04:15:03.000Z</time>
      </trkpt>
      <trkpt lat="45.10483" lon="2.71693">
        <ele>1469.1</ele>
        <time>2000-01-01T04:15:13.000Z</time>
      </trkpt>
      <trkpt lat="45.10475" lon="2.7171">
        <ele>1474</ele>
        <time>2000-01-01T04:15:23.000Z</time>
      </trkpt>
      <trkpt lat="45.10465" lon="2.71729">
        <ele>1462.1</ele>
        <time>2000-01-01T04:15:33.000Z</time>
      </trkpt>
      <trkpt lat="45.10464" lon="2.71735">
        <ele>1466</ele>
        <time>2000-01-01T04:15:43.000Z</time>
      </trkpt>
      <trkpt lat="45.10465" lon="2.71747">
        <ele>1456.8</ele>
        <time>2000-01-01T04:15:53.000Z</time>
      </trkpt>
      <trkpt lat="45.10466" lon="2.71753">
        <ele>1454.6</ele>
        <time>2000-01-01T04:16:03.000Z</time>
      </trkpt>
      <trkpt lat="45.10466" lon="2.71758">
        <ele>1453.3</ele>
        <time>2000-01-01T04:16:13.000Z</time>
      </trkpt>
      <trkpt lat="45.10467" lon="2.71766">
        <ele>1458</ele>
        <time>2000-01-01T04:16:23.000Z</time>
      </trkpt>
      <trkpt lat="45.10471" lon="2.71775">
        <ele>1446.3</ele>
        <time>2000-01-01T04:16:33.000Z</time>
      </trkpt>
      <trkpt lat="45.10475" lon="2.71781">
        <ele>1442.5</ele>
        <time>2000-01-01T04:16:43.000Z</time>
      </trkpt>
      <trkpt lat="45.10475" lon="2.71786">
        <ele>1440.9</ele>
        <time>2000-01-01T04:16:53.000Z</time>
      </trkpt>
      <trkpt lat="45.10475" lon="2.71789">
        <ele>1450</ele>
        <time>2000-01-01T04:17:03.000Z</time>
      </trkpt>
      <trkpt lat="45.1048" lon="2.71789">
        <ele>1437.3</ele>
        <time>2000-01-01T04:17:13.000Z</time>
      </trkpt>
      <trkpt lat="45.10483" lon="2.71786">
        <ele>1436.6</ele>
        <time>2000-01-01T04:17:23.000Z</time>
      </trkpt>
      <trkpt lat="45.10484" lon="2.71781">
        <ele>1437.6</ele>
        <time>2000-01-01T04:17:33.000Z</time>
      </trkpt>
      <trkpt lat="45.10485" lon="2.71778">
        <ele>1438</ele>
        <time>2000-01-01T04:17:43.000Z</time>
      </trkpt>
      <trkpt lat="45.1049" lon="2.71777">
        <ele>1442</ele>
        <time>2000-01-01T04:17:53.000Z</time>
      </trkpt>
      <trkpt lat="45.10497" lon="2.71776">
        <ele>1432.1</ele>
        <time>2000-01-01T04:18:03.000Z</time>
      </trkpt>
      <trkpt lat="45.10499" lon="2.71782">
        <ele>1429.3</ele>
        <time>2000-01-01T04:18:13.000Z</time>
      </trkpt>
      <trkpt lat="45.10498" lon="2.71791">
        <ele>1427.2</ele>
        <time>2000-01-01T04:18:23.000Z</time>
      </trkpt>
      <trkpt lat="45.10496" lon="2.71817">
        <ele>1434</ele>
        <time>2000-01-01T04:18:33.000Z</time>
      </trkpt>
      <trkpt lat="45.10494" lon="2.71841">
        <ele>1411.5</ele>
        <time>2000-01-01T04:18:43.000Z</time>
      </trkpt>
      <trkpt lat="45.1049" lon="2.71856">
        <ele>1419</ele>
        <time>2000-01-01T04:18:53.000Z</time>
      </trkpt>
      <trkpt lat="45.1049" lon="2.71862">
        <ele>1405.2</ele>
        <time>2000-01-01T04:19:03.000Z</time>
      </trkpt>
      <trkpt lat="45.10491" lon="2.71869">
        <ele>1402.5</ele>
        <time>2000-01-01T04:19:13.000Z</time>
      </trkpt>
      <trkpt lat="45.10492" lon="2.71874">
        <ele>1400.5</ele>
        <time>2000-01-01T04:19:23.000Z</time>
      </trkpt>
      <trkpt lat="45.10492" lon="2.71878">
        <ele>1399.1</ele>
        <time>2000-01-01T04:19:33.000Z</time>
      </trkpt>
      <trkpt lat="45.10491" lon="2.71882">
        <ele>1398</ele>
        <time>2000-01-01T04:19:43.000Z</time>
      </trkpt>
      <trkpt lat="45.10491" lon="2.71885">
        <ele>1405</ele>
        <time>2000-01-01T04:19:53.000Z</time>
      </trkpt>
      <trkpt lat="45.10492" lon="2.71885">
        <ele>1396.7</ele>
        <time>2000-01-01T04:20:03.000Z</time>
      </trkpt>
      <trkpt lat="45.10494" lon="2.71888">
        <ele>1395</ele>
        <time>2000-01-01T04:20:13.000Z</time>
      </trkpt>
      <trkpt lat="45.10494" lon="2.71891">
        <ele>1394</ele>
        <time>2000-01-01T04:20:23.000Z</time>
      </trkpt>
      <trkpt lat="45.10492" lon="2.71897">
        <ele>1392.4</ele>
        <time>2000-01-01T04:20:33.000Z</time>
      </trkpt>
      <trkpt lat="45.10492" lon="2.71901">
        <ele>1390.9</ele>
        <time>2000-01-01T04:20:43.000Z</time>
      </trkpt>
      <trkpt lat="45.10496" lon="2.71903">
        <ele>1389.1</ele>
        <time>2000-01-01T04:20:53.000Z</time>
      </trkpt>
      <trkpt lat="45.10508" lon="2.71911">
        <ele>1396</ele>
        <time>2000-01-01T04:21:03.000Z</time>
      </trkpt>
      <trkpt lat="45.10509" lon="2.71916">
        <ele>1381.6</ele>
        <time>2000-01-01T04:21:13.000Z</time>
      </trkpt>
      <trkpt lat="45.1051" lon="2.71928">
        <ele>1378.1</ele>
        <time>2000-01-01T04:21:23.000Z</time>
      </trkpt>
      <trkpt lat="45.10509" lon="2.71933">
        <ele>1376.9</ele>
        <time>2000-01-01T04:21:33.000Z</time>
      </trkpt>
      <trkpt lat="45.1051" lon="2.71937">
        <ele>1384</ele>
        <time>2000-01-01T04:21:43.000Z</time>
      </trkpt>
      <trkpt lat="45.10511" lon="2.7194">
        <ele>1374.5</ele>
        <time>2000-01-01T04:21:53.000Z</time>
      </trkpt>
      <trkpt lat="45.1051" lon="2.71946">
        <ele>1373</ele>
        <time>2000-01-01T04:22:03.000Z</time>
      </trkpt>
      <trkpt lat="45.1051" lon="2.7195">
        <ele>1371.7</ele>
        <time>2000-01-01T04:22:13.000Z</time>
      </trkpt>
      <trkpt lat="45.10511" lon="2.71952">
        <ele>1370.8</ele>
        <time>2000-01-01T04:22:23.000Z</time>
      </trkpt>
      <trkpt lat="45.10513" lon="2.71954">
        <ele>1369.6</ele>
        <time>2000-01-01T04:22:33.000Z</time>
      </trkpt>
      <trkpt lat="45.10517" lon="2.71953">
        <ele>1368.9</ele>
        <time>2000-01-01T04:22:43.000Z</time>
      </trkpt>
      <trkpt lat="45.10521" lon="2.71952">
        <ele>1376</ele>
        <time>2000-01-01T04:22:53.000Z</time>
      </trkpt>
      <trkpt lat="45.10536" lon="2.71957">
        <ele>1363</ele>
        <time>2000-01-01T04:23:03.000Z</time>
      </trkpt>
      <trkpt lat="45.10539" lon="2.71961">
        <ele>1368</ele>
        <time>2000-01-01T04:23:13.000Z</time>
      </trkpt>
      <trkpt lat="45.10542" lon="2.71965">
        <ele>1359.1</ele>
        <time>2000-01-01T04:23:23.000Z</time>
      </trkpt>
      <trkpt lat="45.10541" lon="2.71971">
        <ele>1357.5</ele>
        <time>2000-01-01T04:23:33.000Z</time>
      </trkpt>
      <trkpt lat="45.10544" lon="2.71974">
        <ele>1355.9</ele>
        <time>2000-01-01T04:23:43.000Z</time>
      </trkpt>
      <trkpt lat="45.10545" lon="2.71976">
        <ele>1355</ele>
        <time>2000-01-01T04:23:53.000Z</time>
      </trkpt>
      <trkpt lat="45.10548" lon="2.71979">
        <ele>1353.4</ele>
        <time>2000-01-01T04:24:03.000Z</time>
      </trkpt>
      <trkpt lat="45.10552" lon="2.71982">
        <ele>1360</ele>
        <time>2000-01-01T04:24:13.000Z</time>
      </trkpt>
      <trkpt lat="45.10558" lon="2.71984">
        <ele>1349.7</ele>
        <time>2000-01-01T04:24:23.000Z</time>
      </trkpt>
      <trkpt lat="45.10562" lon="2.71988">
        <ele>1347.7</ele>
        <time>2000-01-01T04:24:33.000Z</time>
      </trkpt>
      <trkpt lat="45.10567" lon="2.71991">
        <ele>1345.9</ele>
        <time>2000-01-01T04:24:43.000Z</time>
      </trkpt>
      <trkpt lat="45.10572" lon="2.71995">
        <ele>1351</ele>
        <time>2000-01-01T04:24:53.000Z</time>
      </trkpt>
      <trkpt lat="45.10576" lon="2.72">
        <ele>1341.3</ele>
        <time>2000-01-01T04:25:03.000Z</time>
      </trkpt>
      <trkpt lat="45.10582" lon="2.72006">
        <ele>1338.5</ele>
        <time>2000-01-01T04:25:13.000Z</time>
      </trkpt>
      <trkpt lat="45.10588" lon="2.72012">
        <ele>1342</ele>
        <time>2000-01-01T04:25:23.000Z</time>
      </trkpt>
      <trkpt lat="45.10593" lon="2.72016">
        <ele>1334.1</ele>
        <time>2000-01-01T04:25:33.000Z</time>
      </trkpt>
      <trkpt lat="45.10596" lon="2.72022">
        <ele>1332.1</ele>
        <time>2000-01-01T04:25:43.000Z</time>
      </trkpt>
      <trkpt lat="45.10599" lon="2.7203">
        <ele>1329.7</ele>
        <time>2000-01-01T04:25:53.000Z</time>
      </trkpt>
      <trkpt lat="45.10603" lon="2.72035">
        <ele>1334</ele>
        <time>2000-01-01T04:26:03.000Z</time>
      </trkpt>
      <trkpt lat="45.10607" lon="2.72043">
        <ele>1325.1</ele>
        <time>2000-01-01T04:26:13.000Z</time>
      </trkpt>
      <trkpt lat="45.10611" lon="2.7205">
        <ele>1322.6</ele>
        <time>2000-01-01T04:26:23.000Z</time>
      </trkpt>
      <trkpt lat="45.10614" lon="2.72055">
        <ele>1320.1</ele>
        <time>2000-01-01T04:26:33.000Z</time>
      </trkpt>
      <trkpt lat="45.1062" lon="2.72057">
        <ele>1328</ele>
        <time>2000-01-01T04:26:43.000Z</time>
      </trkpt>
      <trkpt lat="45.10623" lon="2.72062">
        <ele>1315.3</ele>
        <time>2000-01-01T04:26:53.000Z</time>
      </trkpt>
      <trkpt lat="45.10624" lon="2.72067">
        <ele>1313.8</ele>
        <time>2000-01-01T04:27:03.000Z</time>
      </trkpt>
      <trkpt lat="45.10627" lon="2.72072">
        <ele>1311.9</ele>
        <time>2000-01-01T04:27:13.000Z</time>
      </trkpt>
      <trkpt lat="45.10629" lon="2.72078">
        <ele>1310.2</ele>
        <time>2000-01-01T04:27:23.000Z</time>
      </trkpt>
      <trkpt lat="45.10631" lon="2.72085">
        <ele>1319</ele>
        <time>2000-01-01T04:27:33.000Z</time>
      </trkpt>
      <trkpt lat="45.10637" lon="2.72099">
        <ele>1305.1</ele>
        <time>2000-01-01T04:27:43.000Z</time>
      </trkpt>
      <trkpt lat="45.10646" lon="2.72114">
        <ele>1308</ele>
        <time>2000-01-01T04:27:53.000Z</time>
      </trkpt>
      <trkpt lat="45.10648" lon="2.72121">
        <ele>1298.8</ele>
        <time>2000-01-01T04:28:03.000Z</time>
      </trkpt>
      <trkpt lat="45.10652" lon="2.7213">
        <ele>1296.3</ele>
        <time>2000-01-01T04:28:13.000Z</time>
      </trkpt>
      <trkpt lat="45.10658" lon="2.72138">
        <ele>1300</ele>
        <time>2000-01-01T04:28:23.000Z</time>
      </trkpt>
      <trkpt lat="45.10663" lon="2.7215">
        <ele>1291.4</ele>
        <time>2000-01-01T04:28:33.000Z</time>
      </trkpt>
      <trkpt lat="45.10666" lon="2.72161">
        <ele>1289.7</ele>
        <time>2000-01-01T04:28:43.000Z</time>
      </trkpt>
      <trkpt lat="45.10668" lon="2.72171">
        <ele>1295</ele>
        <time>2000-01-01T04:28:53.000Z</time>
      </trkpt>
      <trkpt lat="45.10666" lon="2.72174">
        <ele>1288</ele>
        <time>2000-01-01T04:29:03.000Z</time>
      </trkpt>
      <trkpt lat="45.10664" lon="2.7218">
        <ele>1287.6</ele>
        <time>2000-01-01T04:29:13.000Z</time>
      </trkpt>
      <trkpt lat="45.10663" lon="2.72183">
        <ele>1287.4</ele>
        <time>2000-01-01T04:29:23.000Z</time>
      </trkpt>
      <trkpt lat="45.10663" lon="2.72185">
        <ele>1287.1</ele>
        <time>2000-01-01T04:29:33.000Z</time>
      </trkpt>
      <trkpt lat="45.10663" lon="2.72187">
        <ele>1286.9</ele>
        <time>2000-01-01T04:29:43.000Z</time>
      </trkpt>
      <trkpt lat="45.10665" lon="2.72191">
        <ele>1285.9</ele>
        <time>2000-01-01T04:29:53.000Z</time>
      </trkpt>
      <trkpt lat="45.10666" lon="2.72198">
        <ele>1288</ele>
        <time>2000-01-01T04:30:03.000Z</time>
      </trkpt>
      <trkpt lat="45.10666" lon="2.72204">
        <ele>1284.2</ele>
        <time>2000-01-01T04:30:13.000Z</time>
      </trkpt>
      <trkpt lat="45.10667" lon="2.72208">
        <ele>1283.5</ele>
        <time>2000-01-01T04:30:23.000Z</time>
      </trkpt>
      <trkpt lat="45.1067" lon="2.72212">
        <ele>1282.5</ele>
        <time>2000-01-01T04:30:33.000Z</time>
      </trkpt>
      <trkpt lat="45.10671" lon="2.72217">
        <ele>1281.7</ele>
        <time>2000-01-01T04:30:43.000Z</time>
      </trkpt>
      <trkpt lat="45.10672" lon="2.7223">
        <ele>1284</ele>
        <time>2000-01-01T04:30:53.000Z</time>
      </trkpt>
      <trkpt lat="45.10681" lon="2.7227">
        <ele>1279</ele>
        <time>2000-01-01T04:31:03.000Z</time>
      </trkpt>
      <trkpt lat="45.10681" lon="2.72279">
        <ele>1271.7</ele>
        <time>2000-01-01T04:31:13.000Z</time>
      </trkpt>
      <trkpt lat="45.1068" lon="2.723">
        <ele>1273</ele>
        <time>2000-01-01T04:31:23.000Z</time>
      </trkpt>
      <trkpt lat="45.1068" lon="2.72308">
        <ele>1268.1</ele>
        <time>2000-01-01T04:31:33.000Z</time>
      </trkpt>
      <trkpt lat="45.10683" lon="2.72318">
        <ele>1266.8</ele>
        <time>2000-01-01T04:31:43.000Z</time>
      </trkpt>
      <trkpt lat="45.10688" lon="2.72329">
        <ele>1270</ele>
        <time>2000-01-01T04:31:53.000Z</time>
      </trkpt>
      <trkpt lat="45.10693" lon="2.72343">
        <ele>1263.8</ele>
        <time>2000-01-01T04:32:03.000Z</time>
      </trkpt>
      <trkpt lat="45.10698" lon="2.72352">
        <ele>1265</ele>
        <time>2000-01-01T04:32:13.000Z</time>
      </trkpt>
      <trkpt lat="45.10706" lon="2.72361">
        <ele>1260.7</ele>
        <time>2000-01-01T04:32:23.000Z</time>
      </trkpt>
      <trkpt lat="45.10723" lon="2.72375">
        <ele>1263</ele>
        <time>2000-01-01T04:32:33.000Z</time>
      </trkpt>
      <trkpt lat="45.10731" lon="2.72386">
        <ele>1255</ele>
        <time>2000-01-01T04:32:43.000Z</time>
      </trkpt>
      <trkpt lat="45.10737" lon="2.72395">
        <ele>1257</ele>
        <time>2000-01-01T04:32:53.000Z</time>
      </trkpt>
      <trkpt lat="45.10746" lon="2.72408">
        <ele>1251.5</ele>
        <time>2000-01-01T04:33:03.000Z</time>
      </trkpt>
      <trkpt lat="45.10767" lon="2.72436">
        <ele>1254</ele>
        <time>2000-01-01T04:33:13.000Z</time>
      </trkpt>
      <trkpt lat="45.10779" lon="2.72445">
        <ele>1243.5</ele>
        <time>2000-01-01T04:33:23.000Z</time>
      </trkpt>
      <trkpt lat="45.10788" lon="2.72459">
        <ele>1247</ele>
        <time>2000-01-01T04:33:33.000Z</time>
      </trkpt>
      <trkpt lat="45.10804" lon="2.72475">
        <ele>1242</ele>
        <time>2000-01-01T04:33:43.000Z</time>
      </trkpt>
      <trkpt lat="45.10819" lon="2.72484">
        <ele>1232.8</ele>
        <time>2000-01-01T04:33:53.000Z</time>
      </trkpt>
      <trkpt lat="45.10829" lon="2.72488">
        <ele>1237</ele>
        <time>2000-01-01T04:34:03.000Z</time>
      </trkpt>
      <trkpt lat="45.10834" lon="2.72489">
        <ele>1229.1</ele>
        <time>2000-01-01T04:34:13.000Z</time>
      </trkpt>
      <trkpt lat="45.1084" lon="2.72491">
        <ele>1228.2</ele>
        <time>2000-01-01T04:34:23.000Z</time>
      </trkpt>
      <trkpt lat="45.10848" lon="2.72494">
        <ele>1230</ele>
        <time>2000-01-01T04:34:33.000Z</time>
      </trkpt>
      <trkpt lat="45.10853" lon="2.72497">
        <ele>1226.2</ele>
        <time>2000-01-01T04:34:43.000Z</time>
      </trkpt>
      <trkpt lat="45.10857" lon="2.72501">
        <ele>1225.7</ele>
        <time>2000-01-01T04:34:53.000Z</time>
      </trkpt>
      <trkpt lat="45.10861" lon="2.72504">
        <ele>1224.9</ele>
        <time>2000-01-01T04:35:03.000Z</time>
      </trkpt>
      <trkpt lat="45.1087" lon="2.7251">
        <ele>1228</ele>
        <time>2000-01-01T04:35:13.000Z</time>
      </trkpt>
      <trkpt lat="45.1088" lon="2.72521">
        <ele>1220.2</ele>
        <time>2000-01-01T04:35:23.000Z</time>
      </trkpt>
      <trkpt lat="45.10884" lon="2.72524">
        <ele>1219.2</ele>
        <time>2000-01-01T04:35:33.000Z</time>
      </trkpt>
      <trkpt lat="45.10887" lon="2.72526">
        <ele>1222</ele>
        <time>2000-01-01T04:35:43.000Z</time>
      </trkpt>
      <trkpt lat="45.10897" lon="2.72526">
        <ele>1216.4</ele>
        <time>2000-01-01T04:35:53.000Z</time>
      </trkpt>
      <trkpt lat="45.10913" lon="2.72525">
        <ele>1219</ele>
        <time>2000-01-01T04:36:03.000Z</time>
      </trkpt>
      <trkpt lat="45.10919" lon="2.72526">
        <ele>1212.7</ele>
        <time>2000-01-01T04:36:13.000Z</time>
      </trkpt>
      <trkpt lat="45.10922" lon="2.72528">
        <ele>1212.7</ele>
        <time>2000-01-01T04:36:23.000Z</time>
      </trkpt>
      <trkpt lat="45.10922" lon="2.72531">
        <ele>1212.4</ele>
        <time>2000-01-01T04:36:33.000Z</time>
      </trkpt>
      <trkpt lat="45.10923" lon="2.72535">
        <ele>1212</ele>
        <time>2000-01-01T04:36:43.000Z</time>
      </trkpt>
      <trkpt lat="45.10925" lon="2.72541">
        <ele>1211.5</ele>
        <time>2000-01-01T04:36:53.000Z</time>
      </trkpt>
      <trkpt lat="45.10929" lon="2.72544">
        <ele>1213</ele>
        <time>2000-01-01T04:37:03.000Z</time>
      </trkpt>
      <trkpt lat="45.10932" lon="2.72546">
        <ele>1211.5</ele>
        <time>2000-01-01T04:37:13.000Z</time>
      </trkpt>
      <trkpt lat="45.10934" lon="2.72547">
        <ele>1211.6</ele>
        <time>2000-01-01T04:37:23.000Z</time>
      </trkpt>
      <trkpt lat="45.10938" lon="2.72547">
        <ele>1211.9</ele>
        <time>2000-01-01T04:37:33.000Z</time>
      </trkpt>
      <trkpt lat="45.1094" lon="2.72549">
        <ele>1211.8</ele>
        <time>2000-01-01T04:37:43.000Z</time>
      </trkpt>
      <trkpt lat="45.10943" lon="2.72552">
        <ele>1211.5</ele>
        <time>2000-01-01T04:37:53.000Z</time>
      </trkpt>
      <trkpt lat="45.10948" lon="2.72557">
        <ele>1212</ele>
        <time>2000-01-01T04:38:03.000Z</time>
      </trkpt>
      <trkpt lat="45.10951" lon="2.72561">
        <ele>1210.1</ele>
        <time>2000-01-01T04:38:13.000Z</time>
      </trkpt>
      <trkpt lat="45.10957" lon="2.72565">
        <ele>1209.6</ele>
        <time>2000-01-01T04:38:23.000Z</time>
      </trkpt>
      <trkpt lat="45.10981" lon="2.72572">
        <ele>1211</ele>
        <time>2000-01-01T04:38:33.000Z</time>
      </trkpt>
      <trkpt lat="45.11014" lon="2.72584">
        <ele>1208</ele>
        <time>2000-01-01T04:38:43.000Z</time>
      </trkpt>
      <trkpt lat="45.11057" lon="2.726">
        <ele>1203</ele>
        <time>2000-01-01T04:38:53.000Z</time>
      </trkpt>
      <trkpt lat="45.11083" lon="2.7261">
        <ele>1199</ele>
        <time>2000-01-01T04:39:03.000Z</time>
      </trkpt>
      <trkpt lat="45.11089" lon="2.72619">
        <ele>1196</ele>
        <time>2000-01-01T04:39:13.000Z</time>
      </trkpt>
      <trkpt lat="45.11095" lon="2.72623">
        <ele>1195.4</ele>
        <time>2000-01-01T04:39:23.000Z</time>
      </trkpt>
      <trkpt lat="45.11103" lon="2.72625">
        <ele>1197</ele>
        <time>2000-01-01T04:39:33.000Z</time>
      </trkpt>
      <trkpt lat="45.11122" lon="2.72624">
        <ele>1194.7</ele>
        <time>2000-01-01T04:39:43.000Z</time>
      </trkpt>
      <trkpt lat="45.11124" lon="2.72626">
        <ele>1194</ele>
        <time>2000-01-01T04:39:53.000Z</time>
      </trkpt>
      <trkpt lat="45.11123" lon="2.7263">
        <ele>1193.6</ele>
        <time>2000-01-01T04:40:03.000Z</time>
      </trkpt>
      <trkpt lat="45.11123" lon="2.7263">
        <ele>1193.6</ele>
        <time>2000-01-01T04:40:13.000Z</time>
      </trkpt>
      <trkpt lat="45.11124" lon="2.72626">
        <ele>1194.3</ele>
        <time>2000-01-01T04:40:23.000Z</time>
      </trkpt>
      <trkpt lat="45.11132" lon="2.72629">
        <ele>1193.8</ele>
        <time>2000-01-01T04:40:33.000Z</time>
      </trkpt>
      <trkpt lat="45.11142" lon="2.72634">
        <ele>1193</ele>
        <time>2000-01-01T04:40:43.000Z</time>
      </trkpt>
      <trkpt lat="45.11149" lon="2.72636">
        <ele>1192.2</ele>
        <time>2000-01-01T04:40:53.000Z</time>
      </trkpt>
      <trkpt lat="45.11156" lon="2.72638">
        <ele>1191.5</ele>
        <time>2000-01-01T04:41:03.000Z</time>
      </trkpt>
      <trkpt lat="45.11164" lon="2.72642">
        <ele>1191</ele>
        <time>2000-01-01T04:41:13.000Z</time>
      </trkpt>
      <trkpt lat="45.11171" lon="2.72642">
        <ele>1190.3</ele>
        <time>2000-01-01T04:41:23.000Z</time>
      </trkpt>
      <trkpt lat="45.11174" lon="2.72641">
        <ele>1190.3</ele>
        <time>2000-01-01T04:41:33.000Z</time>
      </trkpt>
      <trkpt lat="45.11174" lon="2.7264">
        <ele>1190.5</ele>
        <time>2000-01-01T04:41:43.000Z</time>
      </trkpt>
      <trkpt lat="45.11191" lon="2.72644">
        <ele>1190</ele>
        <time>2000-01-01T04:41:53.000Z</time>
      </trkpt>
      <trkpt lat="45.11211" lon="2.7265">
        <ele>1188</ele>
        <time>2000-01-01T04:42:03.000Z</time>
      </trkpt>
      <trkpt lat="45.11232" lon="2.72654">
        <ele>1187</ele>
        <time>2000-01-01T04:42:13.000Z</time>
      </trkpt>
      <trkpt lat="45.11262" lon="2.72663">
        <ele>1184</ele>
        <time>2000-01-01T04:42:23.000Z</time>
      </trkpt>
      <trkpt lat="45.11282" lon="2.72671">
        <ele>1181</ele>
        <time>2000-01-01T04:42:33.000Z</time>
      </trkpt>
      <trkpt lat="45.11299" lon="2.7268">
        <ele>1178.9</ele>
        <time>2000-01-01T04:42:43.000Z</time>
      </trkpt>
      <trkpt lat="45.11305" lon="2.72687">
        <ele>1179</ele>
        <time>2000-01-01T04:42:53.000Z</time>
      </trkpt>
      <trkpt lat="45.11316" lon="2.72703">
        <ele>1176</ele>
        <time>2000-01-01T04:43:03.000Z</time>
      </trkpt>
      <trkpt lat="45.11333" lon="2.72725">
        <ele>1177</ele>
        <time>2000-01-01T04:43:13.000Z</time>
      </trkpt>
      <trkpt lat="45.1135" lon="2.72741">
        <ele>1173</ele>
        <time>2000-01-01T04:43:23.000Z</time>
      </trkpt>
      <trkpt lat="45.11369" lon="2.72756">
        <ele>1172</ele>
        <time>2000-01-01T04:43:33.000Z</time>
      </trkpt>
      <trkpt lat="45.11399" lon="2.72771">
        <ele>1171</ele>
        <time>2000-01-01T04:43:43.000Z</time>
      </trkpt>
      <trkpt lat="45.11423" lon="2.72781">
        <ele>1169</ele>
        <time>2000-01-01T04:43:53.000Z</time>
      </trkpt>
      <trkpt lat="45.11427" lon="2.72783">
        <ele>1170.2</ele>
        <time>2000-01-01T04:44:03.000Z</time>
      </trkpt>
      <trkpt lat="45.11427" lon="2.72784">
        <ele>1170.2</ele>
        <time>2000-01-01T04:44:13.000Z</time>
      </trkpt>
      <trkpt lat="45.11429" lon="2.72785">
        <ele>1170.2</ele>
        <time>2000-01-01T04:44:23.000Z</time>
      </trkpt>
      <trkpt lat="45.1144" lon="2.72809">
        <ele>1169</ele>
        <time>2000-01-01T04:44:33.000Z</time>
      </trkpt>
      <trkpt lat="45.11457" lon="2.72839">
        <ele>1168</ele>
        <time>2000-01-01T04:44:43.000Z</time>
      </trkpt>
      <trkpt lat="45.11472" lon="2.72859">
        <ele>1167</ele>
        <time>2000-01-01T04:44:53.000Z</time>
      </trkpt>
      <trkpt lat="45.11481" lon="2.72874">
        <ele>1166.1</ele>
        <time>2000-01-01T04:45:03.000Z</time>
      </trkpt>
      <trkpt lat="45.11495" lon="2.72884">
        <ele>1166</ele>
        <time>2000-01-01T04:45:13.000Z</time>
      </trkpt>
      <trkpt lat="45.11508" lon="2.72892">
        <ele>1164.8</ele>
        <time>2000-01-01T04:45:23.000Z</time>
      </trkpt>
      <trkpt lat="45.1153" lon="2.729">
        <ele>1165</ele>
        <time>2000-01-01T04:45:33.000Z</time>
      </trkpt>
      <trkpt lat="45.11549" lon="2.7291">
        <ele>1163</ele>
        <time>2000-01-01T04:45:43.000Z</time>
      </trkpt>
      <trkpt lat="45.11573" lon="2.72925">
        <ele>1162</ele>
        <time>2000-01-01T04:45:53.000Z</time>
      </trkpt>
      <trkpt lat="45.11576" lon="2.72928">
        <ele>1159.7</ele>
        <time>2000-01-01T04:46:03.000Z</time>
      </trkpt>
      <trkpt lat="45.11579" lon="2.72936">
        <ele>1158.5</ele>
        <time>2000-01-01T04:46:13.000Z</time>
      </trkpt>
      <trkpt lat="45.1158" lon="2.72941">
        <ele>1157.7</ele>
        <time>2000-01-01T04:46:23.000Z</time>
      </trkpt>
      <trkpt lat="45.11581" lon="2.72946">
        <ele>1157</ele>
        <time>2000-01-01T04:46:33.000Z</time>
      </trkpt>
      <trkpt lat="45.11594" lon="2.7295">
        <ele>1160</ele>
        <time>2000-01-01T04:46:43.000Z</time>
      </trkpt>
      <trkpt lat="45.11597" lon="2.72951">
        <ele>1156.2</ele>
        <time>2000-01-01T04:46:53.000Z</time>
      </trkpt>
      <trkpt lat="45.11602" lon="2.72952">
        <ele>1156</ele>
        <time>2000-01-01T04:47:03.000Z</time>
      </trkpt>
      <trkpt lat="45.11607" lon="2.72956">
        <ele>1155.4</ele>
        <time>2000-01-01T04:47:13.000Z</time>
      </trkpt>
      <trkpt lat="45.11613" lon="2.72963">
        <ele>1155</ele>
        <time>2000-01-01T04:47:23.000Z</time>
      </trkpt>
      <trkpt lat="45.11622" lon="2.72973">
        <ele>1154.1</ele>
        <time>2000-01-01T04:47:33.000Z</time>
      </trkpt>
      <trkpt lat="45.1163" lon="2.72978">
        <ele>1154</ele>
        <time>2000-01-01T04:47:43.000Z</time>
      </trkpt>
      <trkpt lat="45.11631" lon="2.72981">
        <ele>1154.2</ele>
        <time>2000-01-01T04:47:53.000Z</time>
      </trkpt>
      <trkpt lat="45.11635" lon="2.72986">
        <ele>1153.8</ele>
        <time>2000-01-01T04:48:03.000Z</time>
      </trkpt>
      <trkpt lat="45.1164" lon="2.72995">
        <ele>1152.9</ele>
        <time>2000-01-01T04:48:13.000Z</time>
      </trkpt>
      <trkpt lat="45.11645" lon="2.73006">
        <ele>1153</ele>
        <time>2000-01-01T04:48:23.000Z</time>
      </trkpt>
      <trkpt lat="45.11649" lon="2.73011">
        <ele>1152.7</ele>
        <time>2000-01-01T04:48:33.000Z</time>
      </trkpt>
      <trkpt lat="45.11654" lon="2.73015">
        <ele>1153.1</ele>
        <time>2000-01-01T04:48:43.000Z</time>
      </trkpt>
      <trkpt lat="45.1166" lon="2.73017">
        <ele>1153.6</ele>
        <time>2000-01-01T04:48:53.000Z</time>
      </trkpt>
      <trkpt lat="45.11669" lon="2.73019">
        <ele>1153</ele>
        <time>2000-01-01T04:49:03.000Z</time>
      </trkpt>
      <trkpt lat="45.11671" lon="2.73022">
        <ele>1154.5</ele>
        <time>2000-01-01T04:49:13.000Z</time>
      </trkpt>
      <trkpt lat="45.11672" lon="2.73023">
        <ele>1154.5</ele>
        <time>2000-01-01T04:49:23.000Z</time>
      </trkpt>
      <trkpt lat="45.11674" lon="2.73025">
        <ele>1154.5</ele>
        <time>2000-01-01T04:49:33.000Z</time>
      </trkpt>
      <trkpt lat="45.1168" lon="2.73043">
        <ele>1152.5</ele>
        <time>2000-01-01T04:49:43.000Z</time>
      </trkpt>
      <trkpt lat="45.11689" lon="2.73057">
        <ele>1152.9</ele>
        <time>2000-01-01T04:49:53.000Z</time>
      </trkpt>
      <trkpt lat="45.11701" lon="2.73072">
        <ele>1152.7</ele>
        <time>2000-01-01T04:50:03.000Z</time>
      </trkpt>
      <trkpt lat="45.1172" lon="2.73095">
        <ele>1152.3</ele>
        <time>2000-01-01T04:50:13.000Z</time>
      </trkpt>
      <trkpt lat="45.1174" lon="2.73124">
        <ele>1152</ele>
        <time>2000-01-01T04:50:23.000Z</time>
      </trkpt>
      <trkpt lat="45.11755" lon="2.73155">
        <ele>1149</ele>
        <time>2000-01-01T04:50:33.000Z</time>
      </trkpt>
      <trkpt lat="45.11772" lon="2.73179">
        <ele>1148</ele>
        <time>2000-01-01T04:50:43.000Z</time>
      </trkpt>
      <trkpt lat="45.11802" lon="2.73211">
        <ele>1147</ele>
        <time>2000-01-01T04:50:53.000Z</time>
      </trkpt>
      <trkpt lat="45.11813" lon="2.73222">
        <ele>1145.6</ele>
        <time>2000-01-01T04:51:03.000Z</time>
      </trkpt>
      <trkpt lat="45.11815" lon="2.73224">
        <ele>1145.9</ele>
        <time>2000-01-01T04:51:13.000Z</time>
      </trkpt>
      <trkpt lat="45.11828" lon="2.73239">
        <ele>1147</ele>
        <time>2000-01-01T04:51:23.000Z</time>
      </trkpt>
      <trkpt lat="45.11837" lon="2.73252">
        <ele>1147.5</ele>
        <time>2000-01-01T04:51:33.000Z</time>
      </trkpt>
      <trkpt lat="45.1184" lon="2.73257">
        <ele>1147.6</ele>
        <time>2000-01-01T04:51:43.000Z</time>
      </trkpt>
      <trkpt lat="45.11841" lon="2.73256">
        <ele>1147</ele>
        <time>2000-01-01T04:51:53.000Z</time>
      </trkpt>
      <trkpt lat="45.11841" lon="2.73256">
        <ele>1147.9</ele>
        <time>2000-01-01T04:52:03.000Z</time>
      </trkpt>
      <trkpt lat="45.1184" lon="2.73257">
        <ele>1147.6</ele>
        <time>2000-01-01T04:52:13.000Z</time>
      </trkpt>
      <trkpt lat="45.11854" lon="2.73286">
        <ele>1147</ele>
        <time>2000-01-01T04:52:23.000Z</time>
      </trkpt>
      <trkpt lat="45.11868" lon="2.73325">
        <ele>1147</ele>
        <time>2000-01-01T04:52:33.000Z</time>
      </trkpt>
      <trkpt lat="45.1188" lon="2.73351">
        <ele>1144</ele>
        <time>2000-01-01T04:52:43.000Z</time>
      </trkpt>
      <trkpt lat="45.1189" lon="2.73362">
        <ele>1139.8</ele>
        <time>2000-01-01T04:52:53.000Z</time>
      </trkpt>
      <trkpt lat="45.11902" lon="2.73371">
        <ele>1141</ele>
        <time>2000-01-01T04:53:03.000Z</time>
      </trkpt>
      <trkpt lat="45.11909" lon="2.73378">
        <ele>1136.1</ele>
        <time>2000-01-01T04:53:13.000Z</time>
      </trkpt>
      <trkpt lat="45.11914" lon="2.73386">
        <ele>1134.6</ele>
        <time>2000-01-01T04:53:23.000Z</time>
      </trkpt>
      <trkpt lat="45.1192" lon="2.734">
        <ele>1136</ele>
        <time>2000-01-01T04:53:33.000Z</time>
      </trkpt>
      <trkpt lat="45.11924" lon="2.73411">
        <ele>1130.8</ele>
        <time>2000-01-01T04:53:43.000Z</time>
      </trkpt>
      <trkpt lat="45.11929" lon="2.73421">
        <ele>1129.5</ele>
        <time>2000-01-01T04:53:53.000Z</time>
      </trkpt>
      <trkpt lat="45.11935" lon="2.73431">
        <ele>1132</ele>
        <time>2000-01-01T04:54:03.000Z</time>
      </trkpt>
      <trkpt lat="45.11956" lon="2.73452">
        <ele>1128</ele>
        <time>2000-01-01T04:54:13.000Z</time>
      </trkpt>
      <trkpt lat="45.11981" lon="2.73477">
        <ele>1125</ele>
        <time>2000-01-01T04:54:23.000Z</time>
      </trkpt>
      <trkpt lat="45.12017" lon="2.73516">
        <ele>1124</ele>
        <time>2000-01-01T04:54:33.000Z</time>
      </trkpt>
      <trkpt lat="45.12032" lon="2.7354">
        <ele>1122</ele>
        <time>2000-01-01T04:54:43.000Z</time>
      </trkpt>
      <trkpt lat="45.12037" lon="2.73543">
        <ele>1118.7</ele>
        <time>2000-01-01T04:54:53.000Z</time>
      </trkpt>
      <trkpt lat="45.12057" lon="2.73556">
        <ele>1120</ele>
        <time>2000-01-01T04:55:03.000Z</time>
      </trkpt>
      <trkpt lat="45.12082" lon="2.73574">
        <ele>1119</ele>
        <time>2000-01-01T04:55:13.000Z</time>
      </trkpt>
      <trkpt lat="45.12111" lon="2.73606">
        <ele>1119</ele>
        <time>2000-01-01T04:55:23.000Z</time>
      </trkpt>
      <trkpt lat="45.12145" lon="2.73633">
        <ele>1118</ele>
        <time>2000-01-01T04:55:33.000Z</time>
      </trkpt>
      <trkpt lat="45.12166" lon="2.7365">
        <ele>1116</ele>
        <time>2000-01-01T04:55:43.000Z</time>
      </trkpt>
      <trkpt lat="45.12188" lon="2.73668">
        <ele>1116</ele>
        <time>2000-01-01T04:55:53.000Z</time>
      </trkpt>
      <trkpt lat="45.12203" lon="2.73675">
        <ele>1113.2</ele>
        <time>2000-01-01T04:56:03.000Z</time>
      </trkpt>
      <trkpt lat="45.12214" lon="2.73684">
        <ele>1115</ele>
        <time>2000-01-01T04:56:13.000Z</time>
      </trkpt>
      <trkpt lat="45.12218" lon="2.73688">
        <ele>1112.4</ele>
        <time>2000-01-01T04:56:23.000Z</time>
      </trkpt>
      <trkpt lat="45.12241" lon="2.7371">
        <ele>1114</ele>
        <time>2000-01-01T04:56:33.000Z</time>
      </trkpt>
      <trkpt lat="45.12252" lon="2.73717">
        <ele>1110.6</ele>
        <time>2000-01-01T04:56:43.000Z</time>
      </trkpt>
      <trkpt lat="45.1226" lon="2.73719">
        <ele>1113</ele>
        <time>2000-01-01T04:56:53.000Z</time>
      </trkpt>
      <trkpt lat="45.12301" lon="2.73733">
        <ele>1113</ele>
        <time>2000-01-01T04:57:03.000Z</time>
      </trkpt>
      <trkpt lat="45.12301" lon="2.73733">
        <ele>1109.3</ele>
        <time>2000-01-01T04:57:13.000Z</time>
      </trkpt>
      <trkpt lat="45.12314" lon="2.73737">
        <ele>1108.9</ele>
        <time>2000-01-01T04:57:23.000Z</time>
      </trkpt>
      <trkpt lat="45.1232" lon="2.73738">
        <ele>1112</ele>
        <time>2000-01-01T04:57:33.000Z</time>
      </trkpt>
      <trkpt lat="45.12329" lon="2.73739">
        <ele>1108.6</ele>
        <time>2000-01-01T04:57:43.000Z</time>
      </trkpt>
      <trkpt lat="45.12333" lon="2.7374">
        <ele>1108.4</ele>
        <time>2000-01-01T04:57:53.000Z</time>
      </trkpt>
      <trkpt lat="45.12341" lon="2.73744">
        <ele>1111</ele>
        <time>2000-01-01T04:58:03.000Z</time>
      </trkpt>
      <trkpt lat="45.12352" lon="2.73755">
        <ele>1107.7</ele>
        <time>2000-01-01T04:58:13.000Z</time>
      </trkpt>
      <trkpt lat="45.12374" lon="2.7377">
        <ele>1111</ele>
        <time>2000-01-01T04:58:23.000Z</time>
      </trkpt>
      <trkpt lat="45.12406" lon="2.73795">
        <ele>1109</ele>
        <time>2000-01-01T04:58:33.000Z</time>
      </trkpt>
      <trkpt lat="45.12429" lon="2.73806">
        <ele>1107</ele>
        <time>2000-01-01T04:58:43.000Z</time>
      </trkpt>
      <trkpt lat="45.12439" lon="2.73808">
        <ele>1108.2</ele>
        <time>2000-01-01T04:58:53.000Z</time>
      </trkpt>
      <trkpt lat="45.12447" lon="2.73811">
        <ele>1108.2</ele>
        <time>2000-01-01T04:59:03.000Z</time>
      </trkpt>
      <trkpt lat="45.12456" lon="2.73813">
        <ele>1107</ele>
        <time>2000-01-01T04:59:13.000Z</time>
      </trkpt>
      <trkpt lat="45.1246" lon="2.73817">
        <ele>1108.5</ele>
        <time>2000-01-01T04:59:23.000Z</time>
      </trkpt>
      <trkpt lat="45.12499" lon="2.73866">
        <ele>1107</ele>
        <time>2000-01-01T04:59:33.000Z</time>
      </trkpt>
      <trkpt lat="45.12521" lon="2.73886">
        <ele>1103</ele>
        <time>2000-01-01T04:59:43.000Z</time>
      </trkpt>
      <trkpt lat="45.12553" lon="2.73908">
        <ele>1103</ele>
        <time>2000-01-01T04:59:53.000Z</time>
      </trkpt>
      <trkpt lat="45.12552" lon="2.739">
        <ele>1105.5</ele>
        <time>2000-01-01T05:00:03.000Z</time>
      </trkpt>
      <trkpt lat="45.12553" lon="2.73896">
        <ele>1106</ele>
        <time>2000-01-01T05:00:13.000Z</time>
      </trkpt>
      <trkpt lat="45.12555" lon="2.73892">
        <ele>1106.6</ele>
        <time>2000-01-01T05:00:23.000Z</time>
      </trkpt>
      <trkpt lat="45.12571" lon="2.73869">
        <ele>1103</ele>
        <time>2000-01-01T05:00:33.000Z</time>
      </trkpt>
      <trkpt lat="45.12574" lon="2.73857">
        <ele>1113.2</ele>
        <time>2000-01-01T05:00:43.000Z</time>
      </trkpt>
      <trkpt lat="45.12575" lon="2.7385">
        <ele>1114.4</ele>
        <time>2000-01-01T05:00:53.000Z</time>
      </trkpt>
      <trkpt lat="45.12577" lon="2.73845">
        <ele>1115.4</ele>
        <time>2000-01-01T05:01:03.000Z</time>
      </trkpt>
      <trkpt lat="45.12579" lon="2.73842">
        <ele>1109</ele>
        <time>2000-01-01T05:01:13.000Z</time>
      </trkpt>
      <trkpt lat="45.12585" lon="2.7384">
        <ele>1117.3</ele>
        <time>2000-01-01T05:01:23.000Z</time>
      </trkpt>
      <trkpt lat="45.1261" lon="2.73835">
        <ele>1115</ele>
        <time>2000-01-01T05:01:33.000Z</time>
      </trkpt>
      <trkpt lat="45.12618" lon="2.73836">
        <ele>1122.6</ele>
        <time>2000-01-01T05:01:43.000Z</time>
      </trkpt>
      <trkpt lat="45.12622" lon="2.73836">
        <ele>1123.3</ele>
        <time>2000-01-01T05:01:53.000Z</time>
      </trkpt>
      <trkpt lat="45.12648" lon="2.73839">
        <ele>1119</ele>
        <time>2000-01-01T05:02:03.000Z</time>
      </trkpt>
      <trkpt lat="45.12689" lon="2.73849">
        <ele>1123</ele>
        <time>2000-01-01T05:02:13.000Z</time>
      </trkpt>
      <trkpt lat="45.12727" lon="2.73868">
        <ele>1128</ele>
        <time>2000-01-01T05:02:23.000Z</time>
      </trkpt>
      <trkpt lat="45.12751" lon="2.73875">
        <ele>1130</ele>
        <time>2000-01-01T05:02:33.000Z</time>
      </trkpt>
      <trkpt lat="45.12776" lon="2.73881">
        <ele>1133</ele>
        <time>2000-01-01T05:02:43.000Z</time>
      </trkpt>
      <trkpt lat="45.12782" lon="2.73883">
        <ele>1136.7</ele>
        <time>2000-01-01T05:02:53.000Z</time>
      </trkpt>
      <trkpt lat="45.12804" lon="2.73888">
        <ele>1135</ele>
        <time>2000-01-01T05:03:03.000Z</time>
      </trkpt>
      <trkpt lat="45.1282" lon="2.73899">
        <ele>1138.2</ele>
        <time>2000-01-01T05:03:13.000Z</time>
      </trkpt>
      <trkpt lat="45.12836" lon="2.73913">
        <ele>1134.5</ele>
        <time>2000-01-01T05:03:23.000Z</time>
      </trkpt>
      <trkpt lat="45.12865" lon="2.73941">
        <ele>1134</ele>
        <time>2000-01-01T05:03:33.000Z</time>
      </trkpt>
      <trkpt lat="45.12901" lon="2.73976">
        <ele>1131</ele>
        <time>2000-01-01T05:03:43.000Z</time>
      </trkpt>
      <trkpt lat="45.12922" lon="2.73991">
        <ele>1127</ele>
        <time>2000-01-01T05:03:53.000Z</time>
      </trkpt>
      <trkpt lat="45.12956" lon="2.74005">
        <ele>1125</ele>
        <time>2000-01-01T05:04:03.000Z</time>
      </trkpt>
      <trkpt lat="45.12995" lon="2.74028">
        <ele>1125</ele>
        <time>2000-01-01T05:04:13.000Z</time>
      </trkpt>
      <trkpt lat="45.13024" lon="2.74035">
        <ele>1119</ele>
        <time>2000-01-01T05:04:23.000Z</time>
      </trkpt>
      <trkpt lat="45.13052" lon="2.74044">
        <ele>1119</ele>
        <time>2000-01-01T05:04:33.000Z</time>
      </trkpt>
      <trkpt lat="45.13056" lon="2.74045">
        <ele>1122.5</ele>
        <time>2000-01-01T05:04:43.000Z</time>
      </trkpt>
      <trkpt lat="45.13061" lon="2.74045">
        <ele>1123</ele>
        <time>2000-01-01T05:04:53.000Z</time>
      </trkpt>
      <trkpt lat="45.13075" lon="2.7405">
        <ele>1118</ele>
        <time>2000-01-01T05:05:03.000Z</time>
      </trkpt>
      <trkpt lat="45.13075" lon="2.7405">
        <ele>1123.2</ele>
        <time>2000-01-01T05:05:13.000Z</time>
      </trkpt>
      <trkpt lat="45.131" lon="2.74059">
        <ele>1117</ele>
        <time>2000-01-01T05:05:23.000Z</time>
      </trkpt>
      <trkpt lat="45.13127" lon="2.74054">
        <ele>1117.5</ele>
        <time>2000-01-01T05:05:33.000Z</time>
      </trkpt>
      <trkpt lat="45.13143" lon="2.7405">
        <ele>1124.8</ele>
        <time>2000-01-01T05:05:43.000Z</time>
      </trkpt>
      <trkpt lat="45.13152" lon="2.74042">
        <ele>1118</ele>
        <time>2000-01-01T05:05:53.000Z</time>
      </trkpt>
      <trkpt lat="45.13152" lon="2.74042">
        <ele>1125.7</ele>
        <time>2000-01-01T05:06:03.000Z</time>
      </trkpt>
      <trkpt lat="45.1316" lon="2.74032">
        <ele>1127.5</ele>
        <time>2000-01-01T05:06:13.000Z</time>
      </trkpt>
      <trkpt lat="45.1316" lon="2.74032">
        <ele>1127.5</ele>
        <time>2000-01-01T05:06:23.000Z</time>
      </trkpt>
      <trkpt lat="45.13174" lon="2.7403">
        <ele>1120</ele>
        <time>2000-01-01T05:06:33.000Z</time>
      </trkpt>
      <trkpt lat="45.13182" lon="2.74011">
        <ele>1130.7</ele>
        <time>2000-01-01T05:06:43.000Z</time>
      </trkpt>
      <trkpt lat="45.13182" lon="2.74011">
        <ele>1130.7</ele>
        <time>2000-01-01T05:06:53.000Z</time>
      </trkpt>
      <trkpt lat="45.13194" lon="2.73999">
        <ele>1122</ele>
        <time>2000-01-01T05:07:03.000Z</time>
      </trkpt>
      <trkpt lat="45.13203" lon="2.73991">
        <ele>1130.4</ele>
        <time>2000-01-01T05:07:13.000Z</time>
      </trkpt>
      <trkpt lat="45.13203" lon="2.73991">
        <ele>1130.4</ele>
        <time>2000-01-01T05:07:23.000Z</time>
      </trkpt>
      <trkpt lat="45.13214" lon="2.7397">
        <ele>1126</ele>
        <time>2000-01-01T05:07:33.000Z</time>
      </trkpt>
      <trkpt lat="45.13224" lon="2.73926">
        <ele>1126</ele>
        <time>2000-01-01T05:07:43.000Z</time>
      </trkpt>
      <trkpt lat="45.13237" lon="2.7389">
        <ele>1125</ele>
        <time>2000-01-01T05:07:53.000Z</time>
      </trkpt>
      <trkpt lat="45.13237" lon="2.7389">
        <ele>1126</ele>
        <time>2000-01-01T05:08:03.000Z</time>
      </trkpt>
      <trkpt lat="45.13251" lon="2.73857">
        <ele>1124</ele>
        <time>2000-01-01T05:08:13.000Z</time>
      </trkpt>
      <trkpt lat="45.13265" lon="2.7381">
        <ele>1122</ele>
        <time>2000-01-01T05:08:23.000Z</time>
      </trkpt>
      <trkpt lat="45.13265" lon="2.7381">
        <ele>1121.8</ele>
        <time>2000-01-01T05:08:33.000Z</time>
      </trkpt>
      <trkpt lat="45.13279" lon="2.73771">
        <ele>1120</ele>
        <time>2000-01-01T05:08:43.000Z</time>
      </trkpt>
      <trkpt lat="45.13283" lon="2.73736">
        <ele>1119</ele>
        <time>2000-01-01T05:08:53.000Z</time>
      </trkpt>
      <trkpt lat="45.13288" lon="2.73698">
        <ele>1119</ele>
        <time>2000-01-01T05:09:03.000Z</time>
      </trkpt>
      <trkpt lat="45.13291" lon="2.73656">
        <ele>1120</ele>
        <time>2000-01-01T05:09:13.000Z</time>
      </trkpt>
      <trkpt lat="45.13291" lon="2.73656">
        <ele>1123.9</ele>
        <time>2000-01-01T05:09:23.000Z</time>
      </trkpt>
      <trkpt lat="45.13297" lon="2.73617">
        <ele>1121</ele>
        <time>2000-01-01T05:09:33.000Z</time>
      </trkpt>
      <trkpt lat="45.13298" lon="2.73582">
        <ele>1121</ele>
        <time>2000-01-01T05:09:43.000Z</time>
      </trkpt>
      <trkpt lat="45.13298" lon="2.73582">
        <ele>1123.2</ele>
        <time>2000-01-01T05:09:53.000Z</time>
      </trkpt>
      <trkpt lat="45.13298" lon="2.73551">
        <ele>1123</ele>
        <time>2000-01-01T05:10:03.000Z</time>
      </trkpt>
      <trkpt lat="45.13298" lon="2.73551">
        <ele>1124.4</ele>
        <time>2000-01-01T05:10:13.000Z</time>
      </trkpt>
      <trkpt lat="45.13297" lon="2.73509">
        <ele>1125</ele>
        <time>2000-01-01T05:10:23.000Z</time>
      </trkpt>
      <trkpt lat="45.13294" lon="2.73484">
        <ele>1126.7</ele>
        <time>2000-01-01T05:10:33.000Z</time>
      </trkpt>
      <trkpt lat="45.13294" lon="2.73484">
        <ele>1126.7</ele>
        <time>2000-01-01T05:10:43.000Z</time>
      </trkpt>
      <trkpt lat="45.13292" lon="2.73457">
        <ele>1127</ele>
        <time>2000-01-01T05:10:53.000Z</time>
      </trkpt>
      <trkpt lat="45.13292" lon="2.73457">
        <ele>1127.7</ele>
        <time>2000-01-01T05:11:03.000Z</time>
      </trkpt>
      <trkpt lat="45.13288" lon="2.73411">
        <ele>1129</ele>
        <time>2000-01-01T05:11:13.000Z</time>
      </trkpt>
      <trkpt lat="45.13274" lon="2.73371">
        <ele>1130</ele>
        <time>2000-01-01T05:11:23.000Z</time>
      </trkpt>
      <trkpt lat="45.13274" lon="2.73371">
        <ele>1135.7</ele>
        <time>2000-01-01T05:11:33.000Z</time>
      </trkpt>
      <trkpt lat="45.13267" lon="2.73338">
        <ele>1133</ele>
        <time>2000-01-01T05:11:43.000Z</time>
      </trkpt>
      <trkpt lat="45.13267" lon="2.73338">
        <ele>1137.7</ele>
        <time>2000-01-01T05:11:53.000Z</time>
      </trkpt>
      <trkpt lat="45.13263" lon="2.73314">
        <ele>1137</ele>
        <time>2000-01-01T05:12:03.000Z</time>
      </trkpt>
      <trkpt lat="45.13258" lon="2.73285">
        <ele>1132.5</ele>
        <time>2000-01-01T05:12:13.000Z</time>
      </trkpt>
      <trkpt lat="45.13258" lon="2.73285">
        <ele>1135.8</ele>
        <time>2000-01-01T05:12:23.000Z</time>
      </trkpt>
      <trkpt lat="45.13259" lon="2.73265">
        <ele>1134.3</ele>
        <time>2000-01-01T05:12:33.000Z</time>
      </trkpt>
      <trkpt lat="45.13259" lon="2.73265">
        <ele>1134.3</ele>
        <time>2000-01-01T05:12:43.000Z</time>
      </trkpt>
      <trkpt lat="45.13254" lon="2.73243">
        <ele>1132.7</ele>
        <time>2000-01-01T05:12:53.000Z</time>
      </trkpt>
      <trkpt lat="45.13243" lon="2.73207">
        <ele>1133</ele>
        <time>2000-01-01T05:13:03.000Z</time>
      </trkpt>
      <trkpt lat="45.13243" lon="2.73207">
        <ele>1137.8</ele>
        <time>2000-01-01T05:13:13.000Z</time>
      </trkpt>
      <trkpt lat="45.13232" lon="2.73177">
        <ele>1137</ele>
        <time>2000-01-01T05:13:23.000Z</time>
      </trkpt>
      <trkpt lat="45.13222" lon="2.73158">
        <ele>1141.1</ele>
        <time>2000-01-01T05:13:33.000Z</time>
      </trkpt>
      <trkpt lat="45.13222" lon="2.73158">
        <ele>1141.1</ele>
        <time>2000-01-01T05:13:43.000Z</time>
      </trkpt>
      <trkpt lat="45.1321" lon="2.73135">
        <ele>1138</ele>
        <time>2000-01-01T05:13:53.000Z</time>
      </trkpt>
      <trkpt lat="45.1321" lon="2.73135">
        <ele>1141.6</ele>
        <time>2000-01-01T05:14:03.000Z</time>
      </trkpt>
      <trkpt lat="45.132" lon="2.73112">
        <ele>1141</ele>
        <time>2000-01-01T05:14:13.000Z</time>
      </trkpt>
      <trkpt lat="45.13189" lon="2.7309">
        <ele>1142</ele>
        <time>2000-01-01T05:14:23.000Z</time>
      </trkpt>
      <trkpt lat="45.13189" lon="2.7309">
        <ele>1141.4</ele>
        <time>2000-01-01T05:14:33.000Z</time>
      </trkpt>
      <trkpt lat="45.13176" lon="2.73071">
        <ele>1142</ele>
        <time>2000-01-01T05:14:43.000Z</time>
      </trkpt>
      <trkpt lat="45.13176" lon="2.73071">
        <ele>1142.7</ele>
        <time>2000-01-01T05:14:53.000Z</time>
      </trkpt>
      <trkpt lat="45.13167" lon="2.73063">
        <ele>1143.5</ele>
        <time>2000-01-01T05:15:03.000Z</time>
      </trkpt>
      <trkpt lat="45.13159" lon="2.73029">
        <ele>1145</ele>
        <time>2000-01-01T05:15:13.000Z</time>
      </trkpt>
      <trkpt lat="45.13159" lon="2.73029">
        <ele>1145.9</ele>
        <time>2000-01-01T05:15:23.000Z</time>
      </trkpt>
      <trkpt lat="45.1315" lon="2.73003">
        <ele>1147</ele>
        <time>2000-01-01T05:15:33.000Z</time>
      </trkpt>
      <trkpt lat="45.1315" lon="2.73003">
        <ele>1147.7</ele>
        <time>2000-01-01T05:15:43.000Z</time>
      </trkpt>
      <trkpt lat="45.13143" lon="2.72978">
        <ele>1148</ele>
        <time>2000-01-01T05:15:53.000Z</time>
      </trkpt>
      <trkpt lat="45.13133" lon="2.72951">
        <ele>1149</ele>
        <time>2000-01-01T05:16:03.000Z</time>
      </trkpt>
      <trkpt lat="45.13133" lon="2.72951">
        <ele>1150.1</ele>
        <time>2000-01-01T05:16:13.000Z</time>
      </trkpt>
      <trkpt lat="45.13125" lon="2.72933">
        <ele>1151.9</ele>
        <time>2000-01-01T05:16:23.000Z</time>
      </trkpt>
      <trkpt lat="45.13125" lon="2.72933">
        <ele>1151.9</ele>
        <time>2000-01-01T05:16:33.000Z</time>
      </trkpt>
      <trkpt lat="45.13117" lon="2.7291">
        <ele>1151</ele>
        <time>2000-01-01T05:16:43.000Z</time>
      </trkpt>
      <trkpt lat="45.13117" lon="2.7291">
        <ele>1152.5</ele>
        <time>2000-01-01T05:16:53.000Z</time>
      </trkpt>
      <trkpt lat="45.13106" lon="2.72892">
        <ele>1155</ele>
        <time>2000-01-01T05:17:03.000Z</time>
      </trkpt>
      <trkpt lat="45.13114" lon="2.72866">
        <ele>1155</ele>
        <time>2000-01-01T05:17:13.000Z</time>
      </trkpt>
      <trkpt lat="45.13114" lon="2.72866">
        <ele>1154.8</ele>
        <time>2000-01-01T05:17:23.000Z</time>
      </trkpt>
      <trkpt lat="45.13128" lon="2.72852">
        <ele>1155.3</ele>
        <time>2000-01-01T05:17:33.000Z</time>
      </trkpt>
      <trkpt lat="45.13143" lon="2.72847">
        <ele>1152.5</ele>
        <time>2000-01-01T05:17:43.000Z</time>
      </trkpt>
      <trkpt lat="45.13143" lon="2.72847">
        <ele>1153.8</ele>
        <time>2000-01-01T05:17:53.000Z</time>
      </trkpt>
      <trkpt lat="45.13151" lon="2.72841">
        <ele>1154.2</ele>
        <time>2000-01-01T05:18:03.000Z</time>
      </trkpt>
      <trkpt lat="45.13151" lon="2.72841">
        <ele>1154.2</ele>
        <time>2000-01-01T05:18:13.000Z</time>
      </trkpt>
      <trkpt lat="45.13161" lon="2.7282">
        <ele>1150</ele>
        <time>2000-01-01T05:18:23.000Z</time>
      </trkpt>
      <trkpt lat="45.13161" lon="2.7282">
        <ele>1157</ele>
        <time>2000-01-01T05:18:33.000Z</time>
      </trkpt>
      <trkpt lat="45.13164" lon="2.72801">
        <ele>1158.6</ele>
        <time>2000-01-01T05:18:43.000Z</time>
      </trkpt>
      <trkpt lat="45.13152" lon="2.7277">
        <ele>1153</ele>
        <time>2000-01-01T05:18:53.000Z</time>
      </trkpt>
      <trkpt lat="45.13152" lon="2.7277">
        <ele>1162</ele>
        <time>2000-01-01T05:19:03.000Z</time>
      </trkpt>
      <trkpt lat="45.13151" lon="2.72754">
        <ele>1162.7</ele>
        <time>2000-01-01T05:19:13.000Z</time>
      </trkpt>
      <trkpt lat="45.13151" lon="2.72754">
        <ele>1162.7</ele>
        <time>2000-01-01T05:19:23.000Z</time>
      </trkpt>
      <trkpt lat="45.13144" lon="2.72732">
        <ele>1156</ele>
        <time>2000-01-01T05:19:33.000Z</time>
      </trkpt>
      <trkpt lat="45.13144" lon="2.72732">
        <ele>1163.4</ele>
        <time>2000-01-01T05:19:43.000Z</time>
      </trkpt>
      <trkpt lat="45.13139" lon="2.72706">
        <ele>1162.8</ele>
        <time>2000-01-01T05:19:53.000Z</time>
      </trkpt>
      <trkpt lat="45.13136" lon="2.72682">
        <ele>1160</ele>
        <time>2000-01-01T05:20:03.000Z</time>
      </trkpt>
      <trkpt lat="45.13136" lon="2.72682">
        <ele>1162</ele>
        <time>2000-01-01T05:20:13.000Z</time>
      </trkpt>
      <trkpt lat="45.13136" lon="2.72656">
        <ele>1160.7</ele>
        <time>2000-01-01T05:20:23.000Z</time>
      </trkpt>
      <trkpt lat="45.13136" lon="2.72656">
        <ele>1160.7</ele>
        <time>2000-01-01T05:20:33.000Z</time>
      </trkpt>
      <trkpt lat="45.13139" lon="2.72634">
        <ele>1159.5</ele>
        <time>2000-01-01T05:20:43.000Z</time>
      </trkpt>
      <trkpt lat="45.1315" lon="2.72614">
        <ele>1155.5</ele>
        <time>2000-01-01T05:20:53.000Z</time>
      </trkpt>
      <trkpt lat="45.1315" lon="2.72614">
        <ele>1155.5</ele>
        <time>2000-01-01T05:21:03.000Z</time>
      </trkpt>
      <trkpt lat="45.13153" lon="2.72595">
        <ele>1159</ele>
        <time>2000-01-01T05:21:13.000Z</time>
      </trkpt>
      <trkpt lat="45.13151" lon="2.72573">
        <ele>1153.9</ele>
        <time>2000-01-01T05:21:23.000Z</time>
      </trkpt>
      <trkpt lat="45.13151" lon="2.72573">
        <ele>1153.9</ele>
        <time>2000-01-01T05:21:33.000Z</time>
      </trkpt>
      <trkpt lat="45.13151" lon="2.7255">
        <ele>1155</ele>
        <time>2000-01-01T05:21:43.000Z</time>
      </trkpt>
      <trkpt lat="45.13151" lon="2.7255">
        <ele>1152.7</ele>
        <time>2000-01-01T05:21:53.000Z</time>
      </trkpt>
      <trkpt lat="45.13149" lon="2.72533">
        <ele>1152.4</ele>
        <time>2000-01-01T05:22:03.000Z</time>
      </trkpt>
      <trkpt lat="45.13149" lon="2.72533">
        <ele>1152.4</ele>
        <time>2000-01-01T05:22:13.000Z</time>
      </trkpt>
      <trkpt lat="45.13151" lon="2.72509">
        <ele>1152</ele>
        <time>2000-01-01T05:22:23.000Z</time>
      </trkpt>
      <trkpt lat="45.13156" lon="2.7249">
        <ele>1149.1</ele>
        <time>2000-01-01T05:22:33.000Z</time>
      </trkpt>
      <trkpt lat="45.13156" lon="2.7249">
        <ele>1149.1</ele>
        <time>2000-01-01T05:22:43.000Z</time>
      </trkpt>
      <trkpt lat="45.13157" lon="2.72472">
        <ele>1150</ele>
        <time>2000-01-01T05:22:53.000Z</time>
      </trkpt>
      <trkpt lat="45.13157" lon="2.72472">
        <ele>1148.5</ele>
        <time>2000-01-01T05:23:03.000Z</time>
      </trkpt>
      <trkpt lat="45.13156" lon="2.72448">
        <ele>1146.2</ele>
        <time>2000-01-01T05:23:13.000Z</time>
      </trkpt>
      <trkpt lat="45.13156" lon="2.72448">
        <ele>1146.2</ele>
        <time>2000-01-01T05:23:23.000Z</time>
      </trkpt>
      <trkpt lat="45.13157" lon="2.72429">
        <ele>1147</ele>
        <time>2000-01-01T05:23:33.000Z</time>
      </trkpt>
      <trkpt lat="45.13157" lon="2.72429">
        <ele>1143.3</ele>
        <time>2000-01-01T05:23:43.000Z</time>
      </trkpt>
      <trkpt lat="45.13153" lon="2.72409">
        <ele>1141.8</ele>
        <time>2000-01-01T05:23:53.000Z</time>
      </trkpt>
      <trkpt lat="45.13147" lon="2.72395">
        <ele>1145</ele>
        <time>2000-01-01T05:24:03.000Z</time>
      </trkpt>
      <trkpt lat="45.13147" lon="2.72395">
        <ele>1141</ele>
        <time>2000-01-01T05:24:13.000Z</time>
      </trkpt>
      <trkpt lat="45.13136" lon="2.72374">
        <ele>1139.6</ele>
        <time>2000-01-01T05:24:23.000Z</time>
      </trkpt>
      <trkpt lat="45.13136" lon="2.72374">
        <ele>1139.6</ele>
        <time>2000-01-01T05:24:33.000Z</time>
      </trkpt>
      <trkpt lat="45.13133" lon="2.72364">
        <ele>1143</ele>
        <time>2000-01-01T05:24:43.000Z</time>
      </trkpt>
      <trkpt lat="45.13151" lon="2.72352">
        <ele>1141</ele>
        <time>2000-01-01T05:24:53.000Z</time>
      </trkpt>
      <trkpt lat="45.13167" lon="2.72349">
        <ele>1138.1</ele>
        <time>2000-01-01T05:25:03.000Z</time>
      </trkpt>
      <trkpt lat="45.13167" lon="2.72349">
        <ele>1138.1</ele>
        <time>2000-01-01T05:25:13.000Z</time>
      </trkpt>
      <trkpt lat="45.13182" lon="2.72352">
        <ele>1141</ele>
        <time>2000-01-01T05:25:23.000Z</time>
      </trkpt>
      <trkpt lat="45.13195" lon="2.72359">
        <ele>1145.2</ele>
        <time>2000-01-01T05:25:33.000Z</time>
      </trkpt>
      <trkpt lat="45.13195" lon="2.72359">
        <ele>1145.2</ele>
        <time>2000-01-01T05:25:43.000Z</time>
      </trkpt>
      <trkpt lat="45.132" lon="2.72376">
        <ele>1141</ele>
        <time>2000-01-01T05:25:53.000Z</time>
      </trkpt>
      <trkpt lat="45.13208" lon="2.72391">
        <ele>1150.6</ele>
        <time>2000-01-01T05:26:03.000Z</time>
      </trkpt>
      <trkpt lat="45.13208" lon="2.72391">
        <ele>1150.6</ele>
        <time>2000-01-01T05:26:13.000Z</time>
      </trkpt>
      <trkpt lat="45.13225" lon="2.72404">
        <ele>1146</ele>
        <time>2000-01-01T05:26:23.000Z</time>
      </trkpt>
      <trkpt lat="45.13235" lon="2.7241">
        <ele>1159.5</ele>
        <time>2000-01-01T05:26:33.000Z</time>
      </trkpt>
      <trkpt lat="45.13235" lon="2.7241">
        <ele>1159.5</ele>
        <time>2000-01-01T05:26:43.000Z</time>
      </trkpt>
      <trkpt lat="45.13244" lon="2.72405">
        <ele>1154</ele>
        <time>2000-01-01T05:26:53.000Z</time>
      </trkpt>
      <trkpt lat="45.13244" lon="2.72405">
        <ele>1162.9</ele>
        <time>2000-01-01T05:27:03.000Z</time>
      </trkpt>
      <trkpt lat="45.13255" lon="2.72391">
        <ele>1167.8</ele>
        <time>2000-01-01T05:27:13.000Z</time>
      </trkpt>
      <trkpt lat="45.13252" lon="2.72355">
        <ele>1161</ele>
        <time>2000-01-01T05:27:23.000Z</time>
      </trkpt>
      <trkpt lat="45.13251" lon="2.72339">
        <ele>1169.3</ele>
        <time>2000-01-01T05:27:33.000Z</time>
      </trkpt>
      <trkpt lat="45.13251" lon="2.72339">
        <ele>1169.3</ele>
        <time>2000-01-01T05:27:43.000Z</time>
      </trkpt>
      <trkpt lat="45.13254" lon="2.72325">
        <ele>1168</ele>
        <time>2000-01-01T05:27:53.000Z</time>
      </trkpt>
      <trkpt lat="45.13252" lon="2.72305">
        <ele>1167.7</ele>
        <time>2000-01-01T05:28:03.000Z</time>
      </trkpt>
      <trkpt lat="45.13252" lon="2.72305">
        <ele>1167.7</ele>
        <time>2000-01-01T05:28:13.000Z</time>
      </trkpt>
      <trkpt lat="45.13239" lon="2.72296">
        <ele>1166</ele>
        <time>2000-01-01T05:28:23.000Z</time>
      </trkpt>
      <trkpt lat="45.13239" lon="2.72296">
        <ele>1167.3</ele>
        <time>2000-01-01T05:28:33.000Z</time>
      </trkpt>
      <trkpt lat="45.1323" lon="2.72284">
        <ele>1167.6</ele>
        <time>2000-01-01T05:28:43.000Z</time>
      </trkpt>
      <trkpt lat="45.13225" lon="2.72262">
        <ele>1164</ele>
        <time>2000-01-01T05:28:53.000Z</time>
      </trkpt>
      <trkpt lat="45.13225" lon="2.72262">
        <ele>1168.2</ele>
        <time>2000-01-01T05:29:03.000Z</time>
      </trkpt>
      <trkpt lat="45.1322" lon="2.72236">
        <ele>1163.5</ele>
        <time>2000-01-01T05:29:13.000Z</time>
      </trkpt>
      <trkpt lat="45.1322" lon="2.72236">
        <ele>1168.6</ele>
        <time>2000-01-01T05:29:23.000Z</time>
      </trkpt>
      <trkpt lat="45.13216" lon="2.72206">
        <ele>1164.2</ele>
        <time>2000-01-01T05:29:33.000Z</time>
      </trkpt>
      <trkpt lat="45.13216" lon="2.72174">
        <ele>1165</ele>
        <time>2000-01-01T05:29:43.000Z</time>
      </trkpt>
      <trkpt lat="45.13216" lon="2.72174">
        <ele>1171.9</ele>
        <time>2000-01-01T05:29:53.000Z</time>
      </trkpt>
      <trkpt lat="45.13214" lon="2.72139">
        <ele>1167</ele>
        <time>2000-01-01T05:30:03.000Z</time>
      </trkpt>
      <trkpt lat="45.13216" lon="2.72125">
        <ele>1174.7</ele>
        <time>2000-01-01T05:30:13.000Z</time>
      </trkpt>
      <trkpt lat="45.13211" lon="2.72099">
        <ele>1170</ele>
        <time>2000-01-01T05:30:23.000Z</time>
      </trkpt>
      <trkpt lat="45.13211" lon="2.72099">
        <ele>1174.8</ele>
        <time>2000-01-01T05:30:33.000Z</time>
      </trkpt>
      <trkpt lat="45.13208" lon="2.72079">
        <ele>1176</ele>
        <time>2000-01-01T05:30:43.000Z</time>
      </trkpt>
      <trkpt lat="45.13206" lon="2.72048">
        <ele>1172</ele>
        <time>2000-01-01T05:30:53.000Z</time>
      </trkpt>
      <trkpt lat="45.13206" lon="2.72048">
        <ele>1179</ele>
        <time>2000-01-01T05:31:03.000Z</time>
      </trkpt>
      <trkpt lat="45.13209" lon="2.7202">
        <ele>1176</ele>
        <time>2000-01-01T05:31:13.000Z</time>
      </trkpt>
      <trkpt lat="45.13197" lon="2.71973">
        <ele>1180</ele>
        <time>2000-01-01T05:31:23.000Z</time>
      </trkpt>
      <trkpt lat="45.13179" lon="2.71917">
        <ele>1183</ele>
        <time>2000-01-01T05:31:33.000Z</time>
      </trkpt>
      <trkpt lat="45.13159" lon="2.71859">
        <ele>1183</ele>
        <time>2000-01-01T05:31:43.000Z</time>
      </trkpt>
      <trkpt lat="45.13137" lon="2.71816">
        <ele>1185</ele>
        <time>2000-01-01T05:31:53.000Z</time>
      </trkpt>
      <trkpt lat="45.13137" lon="2.71816">
        <ele>1184.5</ele>
        <time>2000-01-01T05:32:03.000Z</time>
      </trkpt>
      <trkpt lat="45.13118" lon="2.71784">
        <ele>1185</ele>
        <time>2000-01-01T05:32:13.000Z</time>
      </trkpt>
      <trkpt lat="45.13093" lon="2.7173">
        <ele>1185</ele>
        <time>2000-01-01T05:32:23.000Z</time>
      </trkpt>
      <trkpt lat="45.13081" lon="2.71701">
        <ele>1188</ele>
        <time>2000-01-01T05:32:33.000Z</time>
      </trkpt>
      <trkpt lat="45.13081" lon="2.71701">
        <ele>1186</ele>
        <time>2000-01-01T05:32:43.000Z</time>
      </trkpt>
      <trkpt lat="45.13061" lon="2.7166">
        <ele>1188</ele>
        <time>2000-01-01T05:32:53.000Z</time>
      </trkpt>
      <trkpt lat="45.13048" lon="2.71638">
        <ele>1187</ele>
        <time>2000-01-01T05:33:03.000Z</time>
      </trkpt>
      <trkpt lat="45.13048" lon="2.71638">
        <ele>1186.3</ele>
        <time>2000-01-01T05:33:13.000Z</time>
      </trkpt>
      <trkpt lat="45.1304" lon="2.7161">
        <ele>1186</ele>
        <time>2000-01-01T05:33:23.000Z</time>
      </trkpt>
      <trkpt lat="45.13026" lon="2.71579">
        <ele>1186</ele>
        <time>2000-01-01T05:33:33.000Z</time>
      </trkpt>
      <trkpt lat="45.13026" lon="2.71579">
        <ele>1186.8</ele>
        <time>2000-01-01T05:33:43.000Z</time>
      </trkpt>
      <trkpt lat="45.13009" lon="2.71531">
        <ele>1185</ele>
        <time>2000-01-01T05:33:53.000Z</time>
      </trkpt>
      <trkpt lat="45.13" lon="2.71477">
        <ele>1186</ele>
        <time>2000-01-01T05:34:03.000Z</time>
      </trkpt>
      <trkpt lat="45.13" lon="2.71477">
        <ele>1190.8</ele>
        <time>2000-01-01T05:34:13.000Z</time>
      </trkpt>
      <trkpt lat="45.12996" lon="2.71423">
        <ele>1187</ele>
        <time>2000-01-01T05:34:23.000Z</time>
      </trkpt>
      <trkpt lat="45.12987" lon="2.71392">
        <ele>1190</ele>
        <time>2000-01-01T05:34:33.000Z</time>
      </trkpt>
      <trkpt lat="45.12987" lon="2.71392">
        <ele>1192.4</ele>
        <time>2000-01-01T05:34:43.000Z</time>
      </trkpt>
      <trkpt lat="45.12973" lon="2.71359">
        <ele>1190</ele>
        <time>2000-01-01T05:34:53.000Z</time>
      </trkpt>
      <trkpt lat="45.1296" lon="2.71302">
        <ele>1190</ele>
        <time>2000-01-01T05:35:03.000Z</time>
      </trkpt>
      <trkpt lat="45.1296" lon="2.71302">
        <ele>1194.8</ele>
        <time>2000-01-01T05:35:13.000Z</time>
      </trkpt>
      <trkpt lat="45.12955" lon="2.71261">
        <ele>1191</ele>
        <time>2000-01-01T05:35:23.000Z</time>
      </trkpt>
      <trkpt lat="45.12962" lon="2.71225">
        <ele>1193</ele>
        <time>2000-01-01T05:35:33.000Z</time>
      </trkpt>
      <trkpt lat="45.12962" lon="2.71225">
        <ele>1199.3</ele>
        <time>2000-01-01T05:35:43.000Z</time>
      </trkpt>
      <trkpt lat="45.1297" lon="2.71187">
        <ele>1198</ele>
        <time>2000-01-01T05:35:53.000Z</time>
      </trkpt>
      <trkpt lat="45.12988" lon="2.71141">
        <ele>1204</ele>
        <time>2000-01-01T05:36:03.000Z</time>
      </trkpt>
      <trkpt lat="45.12988" lon="2.71141">
        <ele>1210.3</ele>
        <time>2000-01-01T05:36:13.000Z</time>
      </trkpt>
      <trkpt lat="45.12994" lon="2.71116">
        <ele>1211</ele>
        <time>2000-01-01T05:36:23.000Z</time>
      </trkpt>
      <trkpt lat="45.1299" lon="2.71076">
        <ele>1213</ele>
        <time>2000-01-01T05:36:33.000Z</time>
      </trkpt>
      <trkpt lat="45.1299" lon="2.71076">
        <ele>1213.2</ele>
        <time>2000-01-01T05:36:43.000Z</time>
      </trkpt>
      <trkpt lat="45.12997" lon="2.71033">
        <ele>1215</ele>
        <time>2000-01-01T05:36:53.000Z</time>
      </trkpt>
      <trkpt lat="45.12997" lon="2.71033">
        <ele>1217.8</ele>
        <time>2000-01-01T05:37:03.000Z</time>
      </trkpt>
      <trkpt lat="45.13003" lon="2.7099">
        <ele>1219</ele>
        <time>2000-01-01T05:37:13.000Z</time>
      </trkpt>
      <trkpt lat="45.13003" lon="2.7099">
        <ele>1222.5</ele>
        <time>2000-01-01T05:37:23.000Z</time>
      </trkpt>
      <trkpt lat="45.13012" lon="2.70952">
        <ele>1224</ele>
        <time>2000-01-01T05:37:33.000Z</time>
      </trkpt>
      <trkpt lat="45.13023" lon="2.70913">
        <ele>1229</ele>
        <time>2000-01-01T05:37:43.000Z</time>
      </trkpt>
      <trkpt lat="45.13023" lon="2.70913">
        <ele>1233.3</ele>
        <time>2000-01-01T05:37:53.000Z</time>
      </trkpt>
      <trkpt lat="45.1303" lon="2.70874">
        <ele>1234</ele>
        <time>2000-01-01T05:38:03.000Z</time>
      </trkpt>
      <trkpt lat="45.1304" lon="2.70864">
        <ele>1243.2</ele>
        <time>2000-01-01T05:38:13.000Z</time>
      </trkpt>
      <trkpt lat="45.1304" lon="2.70864">
        <ele>1243.2</ele>
        <time>2000-01-01T05:38:23.000Z</time>
      </trkpt>
      <trkpt lat="45.13056" lon="2.70878">
        <ele>1240</ele>
        <time>2000-01-01T05:38:33.000Z</time>
      </trkpt>
      <trkpt lat="45.13075" lon="2.70896">
        <ele>1247</ele>
        <time>2000-01-01T05:38:43.000Z</time>
      </trkpt>
      <trkpt lat="45.13092" lon="2.7092">
        <ele>1251</ele>
        <time>2000-01-01T05:38:53.000Z</time>
      </trkpt>
      <trkpt lat="45.13092" lon="2.7092">
        <ele>1253.9</ele>
        <time>2000-01-01T05:39:03.000Z</time>
      </trkpt>
      <trkpt lat="45.13112" lon="2.7094">
        <ele>1254</ele>
        <time>2000-01-01T05:39:13.000Z</time>
      </trkpt>
      <trkpt lat="45.13112" lon="2.7094">
        <ele>1256.7</ele>
        <time>2000-01-01T05:39:23.000Z</time>
      </trkpt>
      <trkpt lat="45.1313" lon="2.7096">
        <ele>1260</ele>
        <time>2000-01-01T05:39:33.000Z</time>
      </trkpt>
      <trkpt lat="45.13148" lon="2.70976">
        <ele>1263</ele>
        <time>2000-01-01T05:39:43.000Z</time>
      </trkpt>
      <trkpt lat="45.13148" lon="2.70976">
        <ele>1264.8</ele>
        <time>2000-01-01T05:39:53.000Z</time>
      </trkpt>
      <trkpt lat="45.13159" lon="2.71007">
        <ele>1267</ele>
        <time>2000-01-01T05:40:03.000Z</time>
      </trkpt>
      <trkpt lat="45.13182" lon="2.7105">
        <ele>1268</ele>
        <time>2000-01-01T05:40:13.000Z</time>
      </trkpt>
      <trkpt lat="45.13198" lon="2.71072">
        <ele>1273</ele>
        <time>2000-01-01T05:40:23.000Z</time>
      </trkpt>
      <trkpt lat="45.13216" lon="2.71097">
        <ele>1279</ele>
        <time>2000-01-01T05:40:33.000Z</time>
      </trkpt>
      <trkpt lat="45.13216" lon="2.71097">
        <ele>1280</ele>
        <time>2000-01-01T05:40:43.000Z</time>
      </trkpt>
      <trkpt lat="45.13227" lon="2.71134">
        <ele>1284</ele>
        <time>2000-01-01T05:40:53.000Z</time>
      </trkpt>
      <trkpt lat="45.13236" lon="2.71162">
        <ele>1287</ele>
        <time>2000-01-01T05:41:03.000Z</time>
      </trkpt>
      <trkpt lat="45.13227" lon="2.71134">
        <ele>1287</ele>
        <time>2000-01-01T05:41:13.000Z</time>
      </trkpt>
      <trkpt lat="45.13236" lon="2.71162">
        <ele>1287</ele>
        <time>2000-01-01T05:41:23.000Z</time>
      </trkpt>
      <trkpt lat="45.13242" lon="2.71153">
        <ele>1287.8</ele>
        <time>2000-01-01T05:41:33.000Z</time>
      </trkpt>
      <trkpt lat="45.13243" lon="2.71109">
        <ele>1288</ele>
        <time>2000-01-01T05:41:43.000Z</time>
      </trkpt>
      <trkpt lat="45.13244" lon="2.71055">
        <ele>1292</ele>
        <time>2000-01-01T05:41:53.000Z</time>
      </trkpt>
      <trkpt lat="45.13244" lon="2.71055">
        <ele>1293.1</ele>
        <time>2000-01-01T05:42:03.000Z</time>
      </trkpt>
      <trkpt lat="45.13238" lon="2.71006">
        <ele>1296</ele>
        <time>2000-01-01T05:42:13.000Z</time>
      </trkpt>
      <trkpt lat="45.13233" lon="2.70977">
        <ele>1296</ele>
        <time>2000-01-01T05:42:23.000Z</time>
      </trkpt>
      <trkpt lat="45.13233" lon="2.70977">
        <ele>1296.7</ele>
        <time>2000-01-01T05:42:33.000Z</time>
      </trkpt>
      <trkpt lat="45.13227" lon="2.70942">
        <ele>1296</ele>
        <time>2000-01-01T05:42:43.000Z</time>
      </trkpt>
      <trkpt lat="45.13221" lon="2.7088">
        <ele>1298</ele>
        <time>2000-01-01T05:42:53.000Z</time>
      </trkpt>
      <trkpt lat="45.13221" lon="2.7088">
        <ele>1300.5</ele>
        <time>2000-01-01T05:43:03.000Z</time>
      </trkpt>
      <trkpt lat="45.13211" lon="2.7083">
        <ele>1301</ele>
        <time>2000-01-01T05:43:13.000Z</time>
      </trkpt>
      <trkpt lat="45.13211" lon="2.7083">
        <ele>1302.6</ele>
        <time>2000-01-01T05:43:23.000Z</time>
      </trkpt>
      <trkpt lat="45.132" lon="2.7078">
        <ele>1303</ele>
        <time>2000-01-01T05:43:33.000Z</time>
      </trkpt>
      <trkpt lat="45.13187" lon="2.70733">
        <ele>1304</ele>
        <time>2000-01-01T05:43:43.000Z</time>
      </trkpt>
      <trkpt lat="45.13187" lon="2.70733">
        <ele>1305.8</ele>
        <time>2000-01-01T05:43:53.000Z</time>
      </trkpt>
      <trkpt lat="45.13174" lon="2.70681">
        <ele>1306</ele>
        <time>2000-01-01T05:44:03.000Z</time>
      </trkpt>
      <trkpt lat="45.13155" lon="2.70631">
        <ele>1310</ele>
        <time>2000-01-01T05:44:13.000Z</time>
      </trkpt>
      <trkpt lat="45.13155" lon="2.70631">
        <ele>1307.2</ele>
        <time>2000-01-01T05:44:23.000Z</time>
      </trkpt>
      <trkpt lat="45.13144" lon="2.70586">
        <ele>1310</ele>
        <time>2000-01-01T05:44:33.000Z</time>
      </trkpt>
      <trkpt lat="45.13131" lon="2.70536">
        <ele>1311</ele>
        <time>2000-01-01T05:44:43.000Z</time>
      </trkpt>
      <trkpt lat="45.13131" lon="2.70536">
        <ele>1315.5</ele>
        <time>2000-01-01T05:44:53.000Z</time>
      </trkpt>
      <trkpt lat="45.1312" lon="2.70496">
        <ele>1313</ele>
        <time>2000-01-01T05:45:03.000Z</time>
      </trkpt>
      <trkpt lat="45.13112" lon="2.70462">
        <ele>1316</ele>
        <time>2000-01-01T05:45:13.000Z</time>
      </trkpt>
      <trkpt lat="45.13112" lon="2.70462">
        <ele>1319.6</ele>
        <time>2000-01-01T05:45:23.000Z</time>
      </trkpt>
      <trkpt lat="45.13103" lon="2.70432">
        <ele>1318</ele>
        <time>2000-01-01T05:45:33.000Z</time>
      </trkpt>
      <trkpt lat="45.13103" lon="2.70432">
        <ele>1322.1</ele>
        <time>2000-01-01T05:45:43.000Z</time>
      </trkpt>
      <trkpt lat="45.13085" lon="2.70402">
        <ele>1319</ele>
        <time>2000-01-01T05:45:53.000Z</time>
      </trkpt>
      <trkpt lat="45.1306" lon="2.70368">
        <ele>1319</ele>
        <time>2000-01-01T05:46:03.000Z</time>
      </trkpt>
      <trkpt lat="45.1304" lon="2.7034">
        <ele>1319</ele>
        <time>2000-01-01T05:46:13.000Z</time>
      </trkpt>
      <trkpt lat="45.1304" lon="2.7034">
        <ele>1328.8</ele>
        <time>2000-01-01T05:46:23.000Z</time>
      </trkpt>
      <trkpt lat="45.13037" lon="2.70303">
        <ele>1320</ele>
        <time>2000-01-01T05:46:33.000Z</time>
      </trkpt>
      <trkpt lat="45.13046" lon="2.70268">
        <ele>1325</ele>
        <time>2000-01-01T05:46:43.000Z</time>
      </trkpt>
      <trkpt lat="45.13047" lon="2.70252">
        <ele>1331.3</ele>
        <time>2000-01-01T05:46:53.000Z</time>
      </trkpt>
      <trkpt lat="45.13046" lon="2.70268">
        <ele>1329</ele>
        <time>2000-01-01T05:47:03.000Z</time>
      </trkpt>
      <trkpt lat="45.13047" lon="2.70252">
        <ele>1331.3</ele>
        <time>2000-01-01T05:47:13.000Z</time>
      </trkpt>
      <trkpt lat="45.13048" lon="2.70239">
        <ele>1329</ele>
        <time>2000-01-01T05:47:23.000Z</time>
      </trkpt>
    </trkseg>
  </trk>
</gpx>